St. Margarethen - Festspielgelnde
Wetterdaten: Freitag, 06.01.2012
Datum Zeit Temp. A. Feuchte A. Regen Wind Richtung Richtung Windben
06.01.2012 00:00 6,3 C 61 % 0,0 l/m 22,1 km/h (4 Bft) S-SW 212 32,2 km/h (5 Bft)
06.01.2012 00:01 6,3 C 61 % 0,0 l/m 23,8 km/h (4 Bft) W 260 35,4 km/h (5 Bft)
06.01.2012 00:02 6,3 C 61 % 0,0 l/m 18,4 km/h (3 Bft) W-SW 256 25,7 km/h (4 Bft)
06.01.2012 00:03 6,3 C 61 % 0,0 l/m 17,0 km/h (3 Bft) SW 224 24,1 km/h (4 Bft)
06.01.2012 00:04 6,3 C 61 % 0,0 l/m 20,5 km/h (4 Bft) W-NW 291 33,8 km/h (5 Bft)
06.01.2012 00:05 6,3 C 61 % 0,0 l/m 16,0 km/h (3 Bft) SW 217 29,0 km/h (5 Bft)
06.01.2012 00:06 6,3 C 61 % 0,0 l/m 10,1 km/h (2 Bft) W-NW 296 24,1 km/h (4 Bft)
06.01.2012 00:07 6,3 C 61 % 0,0 l/m 12,9 km/h (3 Bft) NW 311 19,3 km/h (3 Bft)
06.01.2012 00:08 6,3 C 61 % 0,0 l/m 17,2 km/h (3 Bft) W 274 30,6 km/h (5 Bft)
06.01.2012 00:09 6,3 C 61 % 0,0 l/m 22,0 km/h (4 Bft) O-SO 110 41,8 km/h (6 Bft)
06.01.2012 00:10 6,3 C 60 % 0,0 l/m 17,0 km/h (3 Bft) W-NW 298 29,0 km/h (5 Bft)
06.01.2012 00:11 6,3 C 60 % 0,0 l/m 18,2 km/h (3 Bft) W-NW 301 22,5 km/h (4 Bft)
06.01.2012 00:12 6,4 C 60 % 0,0 l/m 17,1 km/h (3 Bft) W-NW 298 29,0 km/h (5 Bft)
06.01.2012 00:13 6,4 C 60 % 0,0 l/m 13,4 km/h (3 Bft) W 259 27,4 km/h (4 Bft)
06.01.2012 00:14 6,4 C 60 % 0,0 l/m 20,4 km/h (4 Bft) W-SW 249 35,4 km/h (5 Bft)
06.01.2012 00:15 6,4 C 60 % 0,0 l/m 18,8 km/h (3 Bft) W-NW 285 33,8 km/h (5 Bft)
06.01.2012 00:16 6,4 C 60 % 0,0 l/m 17,4 km/h (3 Bft) NO 47 27,4 km/h (4 Bft)
06.01.2012 00:17 6,4 C 60 % 0,0 l/m 17,4 km/h (3 Bft) W-NW 288 33,8 km/h (5 Bft)
06.01.2012 00:16 6,4 C 60 % 0,0 l/m 13,8 km/h (3 Bft) W-SW 246 27,4 km/h (4 Bft)
06.01.2012 00:17 6,4 C 60 % 0,0 l/m 13,9 km/h (3 Bft) W 259 35,4 km/h (5 Bft)
06.01.2012 00:18 6,4 C 60 % 0,0 l/m 14,1 km/h (3 Bft) W-NW 295 30,6 km/h (5 Bft)
06.01.2012 00:19 6,4 C 60 % 0,0 l/m 13,9 km/h (3 Bft) S-SW 208 25,7 km/h (4 Bft)
06.01.2012 00:20 6,4 C 60 % 0,0 l/m 15,9 km/h (3 Bft) W-NW 284 25,7 km/h (4 Bft)
06.01.2012 00:21 6,4 C 60 % 0,0 l/m 15,9 km/h (3 Bft) W-NW 300 24,1 km/h (4 Bft)
06.01.2012 00:22 6,4 C 60 % 0,0 l/m 12,1 km/h (2 Bft) W 261 22,5 km/h (4 Bft)
06.01.2012 00:23 6,3 C 60 % 0,0 l/m 14,0 km/h (3 Bft) W-SW 242 22,5 km/h (4 Bft)
06.01.2012 00:24 6,3 C 60 % 0,0 l/m 13,6 km/h (3 Bft) W-SW 252 24,1 km/h (4 Bft)
06.01.2012 00:25 6,3 C 60 % 0,0 l/m 12,2 km/h (2 Bft) W-SW 246 25,7 km/h (4 Bft)
06.01.2012 00:26 6,3 C 60 % 0,0 l/m 10,3 km/h (2 Bft) W-NW 285 24,1 km/h (4 Bft)
06.01.2012 00:27 6,3 C 60 % 0,0 l/m 17,1 km/h (3 Bft) W 261 25,7 km/h (4 Bft)
06.01.2012 00:28 6,4 C 60 % 0,0 l/m 19,3 km/h (3 Bft) W-NW 295 46,7 km/h (6 Bft)
06.01.2012 00:29 6,4 C 60 % 0,0 l/m 9,5 km/h (2 Bft) W 273 16,1 km/h (3 Bft)
06.01.2012 00:30 6,4 C 60 % 0,0 l/m 12,4 km/h (3 Bft) W 261 24,1 km/h (4 Bft)
06.01.2012 00:31 6,4 C 60 % 0,0 l/m 11,5 km/h (2 Bft) W-SW 245 17,7 km/h (3 Bft)
06.01.2012 00:32 6,4 C 60 % 0,0 l/m 14,2 km/h (3 Bft) W 278 25,7 km/h (4 Bft)
06.01.2012 00:33 6,3 C 61 % 0,0 l/m 19,6 km/h (3 Bft) W 277 41,8 km/h (6 Bft)
06.01.2012 00:34 6,4 C 60 % 0,0 l/m 14,1 km/h (3 Bft) NW 321 25,7 km/h (4 Bft)
06.01.2012 00:35 6,3 C 60 % 0,0 l/m 10,2 km/h (2 Bft) S-SO 167 17,7 km/h (3 Bft)
06.01.2012 00:36 6,3 C 60 % 0,0 l/m 16,6 km/h (3 Bft) NW 306 30,6 km/h (5 Bft)
06.01.2012 00:37 6,3 C 61 % 0,0 l/m 13,8 km/h (3 Bft) W 277 27,4 km/h (4 Bft)
06.01.2012 00:38 6,3 C 61 % 0,0 l/m 13,3 km/h (3 Bft) W 280 25,7 km/h (4 Bft)
06.01.2012 00:39 6,3 C 61 % 0,0 l/m 12,6 km/h (3 Bft) S-SW 197 20,9 km/h (4 Bft)
06.01.2012 00:40 6,3 C 61 % 0,0 l/m 15,7 km/h (3 Bft) N-NO 21 30,6 km/h (5 Bft)
06.01.2012 00:41 6,3 C 61 % 0,0 l/m 16,2 km/h (3 Bft) SW 215 25,7 km/h (4 Bft)
06.01.2012 00:42 6,3 C 61 % 0,0 l/m 21,7 km/h (4 Bft) W-NW 282 30,6 km/h (5 Bft)
06.01.2012 00:43 6,3 C 61 % 0,0 l/m 15,3 km/h (3 Bft) NW 307 27,4 km/h (4 Bft)
06.01.2012 00:44 6,3 C 61 % 0,0 l/m 13,9 km/h (3 Bft) SW 226 24,1 km/h (4 Bft)
06.01.2012 00:45 6,3 C 61 % 0,0 l/m 14,9 km/h (3 Bft) SW 224 22,5 km/h (4 Bft)
06.01.2012 00:46 6,3 C 61 % 0,0 l/m 24,9 km/h (4 Bft) W 269 49,9 km/h (6 Bft)
06.01.2012 00:47 6,3 C 61 % 0,0 l/m 22,9 km/h (4 Bft) W-SW 238 33,8 km/h (5 Bft)
06.01.2012 00:48 6,3 C 61 % 0,0 l/m 18,4 km/h (3 Bft) W-NW 293 30,6 km/h (5 Bft)
06.01.2012 00:49 6,3 C 61 % 0,0 l/m 16,3 km/h (3 Bft) NO 38 33,8 km/h (5 Bft)
06.01.2012 00:50 6,3 C 61 % 0,0 l/m 20,2 km/h (4 Bft) S-SW 204 32,2 km/h (5 Bft)
06.01.2012 00:51 6,3 C 61 % 0,0 l/m 24,5 km/h (4 Bft) W-NW 289 37,0 km/h (5 Bft)
06.01.2012 00:52 6,3 C 61 % 0,0 l/m 24,0 km/h (4 Bft) SW 236 37,0 km/h (5 Bft)
06.01.2012 00:53 6,3 C 61 % 0,0 l/m 21,8 km/h (4 Bft) W-SW 256 30,6 km/h (5 Bft)
06.01.2012 00:54 6,3 C 61 % 0,0 l/m 28,6 km/h (4 Bft) O-NO 64 41,8 km/h (6 Bft)
06.01.2012 00:55 6,3 C 61 % 0,0 l/m 26,6 km/h (4 Bft) W-SW 248 40,2 km/h (6 Bft)
06.01.2012 00:56 6,4 C 61 % 0,0 l/m 24,8 km/h (4 Bft) W-SW 250 41,8 km/h (6 Bft)
06.01.2012 00:57 6,4 C 61 % 0,0 l/m 13,3 km/h (3 Bft) SW 236 20,9 km/h (4 Bft)
06.01.2012 00:58 6,4 C 60 % 0,0 l/m 23,1 km/h (4 Bft) SW 236 40,2 km/h (6 Bft)
06.01.2012 00:59 6,4 C 60 % 0,0 l/m 20,9 km/h (4 Bft) W 276 29,0 km/h (5 Bft)
06.01.2012 01:00 6,4 C 60 % 0,0 l/m 24,1 km/h (4 Bft) W-SW 256 41,8 km/h (6 Bft)
06.01.2012 01:01 6,4 C 60 % 0,0 l/m 20,7 km/h (4 Bft) W 277 32,2 km/h (5 Bft)
06.01.2012 01:02 6,4 C 60 % 0,0 l/m 22,7 km/h (4 Bft) W 263 38,6 km/h (5 Bft)
06.01.2012 01:03 6,4 C 60 % 0,0 l/m 24,4 km/h (4 Bft) SW 218 38,6 km/h (5 Bft)
06.01.2012 01:04 6,4 C 60 % 0,0 l/m 24,0 km/h (4 Bft) W-NW 283 35,4 km/h (5 Bft)
06.01.2012 01:05 6,4 C 60 % 0,0 l/m 22,4 km/h (4 Bft) W-NW 291 35,4 km/h (5 Bft)
06.01.2012 01:06 6,4 C 61 % 0,0 l/m 17,9 km/h (3 Bft) W-NW 288 38,6 km/h (5 Bft)
06.01.2012 01:07 6,4 C 60 % 0,0 l/m 15,0 km/h (3 Bft) N-NO 30 27,4 km/h (4 Bft)
06.01.2012 01:08 6,4 C 61 % 0,0 l/m 19,0 km/h (3 Bft) NW 308 40,2 km/h (6 Bft)
06.01.2012 01:09 6,3 C 61 % 0,0 l/m 11,3 km/h (2 Bft) SW 228 20,9 km/h (4 Bft)
06.01.2012 01:10 6,3 C 61 % 0,0 l/m 14,8 km/h (3 Bft) S-SW 211 37,0 km/h (5 Bft)
06.01.2012 01:11 6,3 C 61 % 0,0 l/m 18,2 km/h (3 Bft) SW 214 35,4 km/h (5 Bft)
06.01.2012 01:12 6,3 C 61 % 0,0 l/m 13,5 km/h (3 Bft) NO 37 25,7 km/h (4 Bft)
06.01.2012 01:13 6,3 C 61 % 0,0 l/m 12,5 km/h (3 Bft) SW 226 25,7 km/h (4 Bft)
06.01.2012 01:14 6,3 C 61 % 0,0 l/m 17,9 km/h (3 Bft) W 271 27,4 km/h (4 Bft)
06.01.2012 01:15 6,3 C 61 % 0,0 l/m 17,4 km/h (3 Bft) W 259 27,4 km/h (4 Bft)
06.01.2012 01:16 6,3 C 61 % 0,0 l/m 24,5 km/h (4 Bft) W-SW 249 35,4 km/h (5 Bft)
06.01.2012 01:17 6,3 C 61 % 0,0 l/m 22,7 km/h (4 Bft) O 101 30,6 km/h (5 Bft)
06.01.2012 01:18 6,3 C 61 % 0,0 l/m 13,3 km/h (3 Bft) W-SW 237 25,7 km/h (4 Bft)
06.01.2012 01:19 6,2 C 61 % 0,0 l/m 17,7 km/h (3 Bft) W-SW 249 35,4 km/h (5 Bft)
06.01.2012 01:20 6,2 C 61 % 0,0 l/m 14,3 km/h (3 Bft) W-SW 248 24,1 km/h (4 Bft)
06.01.2012 01:21 6,2 C 61 % 0,0 l/m 8,0 km/h (2 Bft) S 179 17,7 km/h (3 Bft)
06.01.2012 01:22 6,2 C 61 % 0,0 l/m 18,2 km/h (3 Bft) W-SW 241 22,5 km/h (4 Bft)
06.01.2012 01:23 6,2 C 61 % 0,0 l/m 13,4 km/h (3 Bft) W-SW 240 16,1 km/h (3 Bft)
06.01.2012 01:24 6,2 C 61 % 0,0 l/m 16,8 km/h (3 Bft) W-SW 252 33,8 km/h (5 Bft)
06.01.2012 01:25 6,2 C 61 % 0,0 l/m 15,9 km/h (3 Bft) W 259 30,6 km/h (5 Bft)
06.01.2012 01:26 6,2 C 61 % 0,0 l/m 9,7 km/h (2 Bft) W-NW 301 19,3 km/h (3 Bft)
06.01.2012 01:27 6,2 C 62 % 0,0 l/m 9,7 km/h (2 Bft) SW 233 29,0 km/h (5 Bft)
06.01.2012 01:28 6,2 C 62 % 0,0 l/m 13,3 km/h (3 Bft) W 274 19,3 km/h (3 Bft)
06.01.2012 01:29 6,2 C 62 % 0,0 l/m 18,1 km/h (3 Bft) W-SW 252 38,6 km/h (5 Bft)
06.01.2012 01:30 6,2 C 62 % 0,0 l/m 13,7 km/h (3 Bft) W 281 24,1 km/h (4 Bft)
06.01.2012 01:31 6,2 C 62 % 0,0 l/m 14,0 km/h (3 Bft) W-SW 253 20,9 km/h (4 Bft)
06.01.2012 01:32 6,2 C 62 % 0,0 l/m 13,7 km/h (3 Bft) W-NW 298 25,7 km/h (4 Bft)
06.01.2012 01:33 6,2 C 62 % 0,0 l/m 16,4 km/h (3 Bft) W 260 24,1 km/h (4 Bft)
06.01.2012 01:34 6,1 C 62 % 0,0 l/m 11,8 km/h (2 Bft) W-SW 245 17,7 km/h (3 Bft)
06.01.2012 01:35 6,1 C 62 % 0,0 l/m 16,3 km/h (3 Bft) W 261 24,1 km/h (4 Bft)
06.01.2012 01:36 6,1 C 62 % 0,0 l/m 15,0 km/h (3 Bft) W-SW 240 27,4 km/h (4 Bft)
06.01.2012 01:37 6,1 C 62 % 0,0 l/m 13,5 km/h (3 Bft) NW 305 27,4 km/h (4 Bft)
06.01.2012 01:38 6,1 C 62 % 0,0 l/m 16,9 km/h (3 Bft) N 357 27,4 km/h (4 Bft)
06.01.2012 01:39 6,1 C 62 % 0,0 l/m 14,3 km/h (3 Bft) W 271 22,5 km/h (4 Bft)
06.01.2012 01:40 6,0 C 62 % 0,0 l/m 9,0 km/h (2 Bft) NW 316 16,1 km/h (3 Bft)
06.01.2012 01:41 6,1 C 62 % 0,0 l/m 15,8 km/h (3 Bft) W-SW 239 24,1 km/h (4 Bft)
06.01.2012 01:42 6,0 C 63 % 0,0 l/m 17,7 km/h (3 Bft) W 271 27,4 km/h (4 Bft)
06.01.2012 01:43 6,0 C 63 % 0,0 l/m 15,7 km/h (3 Bft) W-SW 243 24,1 km/h (4 Bft)
06.01.2012 01:44 6,0 C 63 % 0,0 l/m 15,5 km/h (3 Bft) W-NW 290 30,6 km/h (5 Bft)
06.01.2012 01:45 6,0 C 63 % 0,0 l/m 9,0 km/h (2 Bft) SW 225 19,3 km/h (3 Bft)
06.01.2012 01:46 5,9 C 63 % 0,0 l/m 12,5 km/h (3 Bft) O-NO 61 30,6 km/h (5 Bft)
06.01.2012 01:47 5,9 C 63 % 0,0 l/m 14,6 km/h (3 Bft) W 267 20,9 km/h (4 Bft)
06.01.2012 01:48 5,9 C 63 % 0,0 l/m 16,1 km/h (3 Bft) W-NW 295 22,5 km/h (4 Bft)
06.01.2012 01:49 5,9 C 64 % 0,0 l/m 16,1 km/h (3 Bft) W 278 22,5 km/h (4 Bft)
06.01.2012 01:50 5,9 C 64 % 0,0 l/m 21,0 km/h (4 Bft) S-SW 211 38,6 km/h (5 Bft)
06.01.2012 01:51 5,8 C 64 % 0,0 l/m 14,7 km/h (3 Bft) W 261 25,7 km/h (4 Bft)
06.01.2012 01:52 5,8 C 64 % 0,0 l/m 12,6 km/h (3 Bft) W-NW 298 27,4 km/h (4 Bft)
06.01.2012 01:53 5,8 C 64 % 0,0 l/m 19,0 km/h (3 Bft) SW 226 37,0 km/h (5 Bft)
06.01.2012 01:54 5,8 C 65 % 0,0 l/m 21,5 km/h (4 Bft) W-SW 250 27,4 km/h (4 Bft)
06.01.2012 01:55 5,8 C 65 % 0,0 l/m 23,6 km/h (4 Bft) W-SW 243 37,0 km/h (5 Bft)
06.01.2012 01:56 5,8 C 65 % 0,0 l/m 15,8 km/h (3 Bft) N-NW 338 20,9 km/h (4 Bft)
06.01.2012 01:57 5,8 C 65 % 0,0 l/m 18,5 km/h (3 Bft) SW 229 32,2 km/h (5 Bft)
06.01.2012 01:58 5,8 C 65 % 0,0 l/m 23,6 km/h (4 Bft) W-SW 248 38,6 km/h (5 Bft)
06.01.2012 01:59 5,8 C 64 % 0,0 l/m 15,2 km/h (3 Bft) N-NW 340 24,1 km/h (4 Bft)
06.01.2012 02:00 5,9 C 64 % 0,0 l/m 13,0 km/h (3 Bft) W-NW 283 19,3 km/h (3 Bft)
06.01.2012 02:01 5,9 C 64 % 0,0 l/m 22,7 km/h (4 Bft) SO 145 46,7 km/h (6 Bft)
06.01.2012 02:02 5,9 C 64 % 0,0 l/m 22,7 km/h (4 Bft) NW 312 33,8 km/h (5 Bft)
06.01.2012 02:03 5,9 C 63 % 0,0 l/m 26,7 km/h (4 Bft) W-NW 288 45,1 km/h (6 Bft)
06.01.2012 02:04 6,0 C 64 % 0,0 l/m 19,0 km/h (3 Bft) SW 225 35,4 km/h (5 Bft)
06.01.2012 02:05 6,0 C 64 % 0,0 l/m 15,4 km/h (3 Bft) NW 307 46,7 km/h (6 Bft)
06.01.2012 02:06 6,0 C 64 % 0,0 l/m 19,7 km/h (3 Bft) W 281 27,4 km/h (4 Bft)
06.01.2012 02:07 6,0 C 64 % 0,0 l/m 19,4 km/h (3 Bft) W-SW 255 46,7 km/h (6 Bft)
06.01.2012 02:08 6,1 C 64 % 0,0 l/m 22,3 km/h (4 Bft) W 273 38,6 km/h (5 Bft)
06.01.2012 02:09 6,1 C 64 % 0,0 l/m 23,7 km/h (4 Bft) NW 312 38,6 km/h (5 Bft)
06.01.2012 02:10 6,1 C 64 % 0,0 l/m 21,5 km/h (4 Bft) W-NW 300 32,2 km/h (5 Bft)
06.01.2012 02:11 6,1 C 64 % 0,0 l/m 24,5 km/h (4 Bft) W-SW 238 43,5 km/h (6 Bft)
06.01.2012 02:12 6,1 C 64 % 0,0 l/m 20,4 km/h (4 Bft) W-NW 300 38,6 km/h (5 Bft)
06.01.2012 02:13 6,1 C 65 % 0,0 l/m 21,7 km/h (4 Bft) N-NO 16 30,6 km/h (5 Bft)
06.01.2012 02:14 6,0 C 65 % 0,0 l/m 19,8 km/h (3 Bft) W-NW 290 35,4 km/h (5 Bft)
06.01.2012 02:15 6,0 C 65 % 0,0 l/m 22,3 km/h (4 Bft) W-NW 297 29,0 km/h (5 Bft)
06.01.2012 02:16 6,0 C 65 % 0,0 l/m 30,9 km/h (5 Bft) NW 321 54,7 km/h (7 Bft)
06.01.2012 02:17 6,0 C 65 % 0,0 l/m 23,3 km/h (4 Bft) W 259 41,8 km/h (6 Bft)
06.01.2012 02:18 6,0 C 65 % 0,0 l/m 23,2 km/h (4 Bft) W 262 37,0 km/h (5 Bft)
06.01.2012 02:19 5,9 C 65 % 0,0 l/m 17,9 km/h (3 Bft) W 278 29,0 km/h (5 Bft)
06.01.2012 02:20 5,9 C 65 % 0,0 l/m 19,0 km/h (3 Bft) W 267 37,0 km/h (5 Bft)
06.01.2012 02:21 5,9 C 64 % 0,0 l/m 24,4 km/h (4 Bft) W 274 37,0 km/h (5 Bft)
06.01.2012 02:22 6,0 C 63 % 0,0 l/m 33,3 km/h (5 Bft) NW 307 49,9 km/h (6 Bft)
06.01.2012 02:23 6,0 C 64 % 0,0 l/m 25,0 km/h (4 Bft) W-NW 294 41,8 km/h (6 Bft)
06.01.2012 02:24 6,1 C 64 % 0,0 l/m 31,7 km/h (5 Bft) W-SW 253 56,3 km/h (7 Bft)
06.01.2012 02:25 6,1 C 64 % 0,0 l/m 25,0 km/h (4 Bft) W 273 51,5 km/h (7 Bft)
06.01.2012 02:26 6,1 C 65 % 0,0 l/m 22,1 km/h (4 Bft) S-SW 197 46,7 km/h (6 Bft)
06.01.2012 02:27 6,0 C 65 % 0,0 l/m 26,0 km/h (4 Bft) W-NW 289 48,3 km/h (6 Bft)
06.01.2012 02:28 6,0 C 65 % 0,0 l/m 37,3 km/h (5 Bft) W-NW 295 62,8 km/h (8 Bft)
06.01.2012 02:29 5,9 C 65 % 0,0 l/m 25,1 km/h (4 Bft) W-SW 246 35,4 km/h (5 Bft)
06.01.2012 02:30 5,9 C 65 % 0,0 l/m 26,7 km/h (4 Bft) S-SW 194 41,8 km/h (6 Bft)
06.01.2012 02:31 5,9 C 65 % 0,0 l/m 27,0 km/h (4 Bft) S-SW 194 53,1 km/h (7 Bft)
06.01.2012 02:32 5,9 C 65 % 0,0 l/m 20,8 km/h (4 Bft) N-NO 13 30,6 km/h (5 Bft)
06.01.2012 02:33 5,8 C 65 % 0,0 l/m 14,7 km/h (3 Bft) SW 231 33,8 km/h (5 Bft)
06.01.2012 02:34 5,8 C 65 % 0,0 l/m 14,6 km/h (3 Bft) S-SO 159 24,1 km/h (4 Bft)
06.01.2012 02:35 5,8 C 64 % 0,0 l/m 22,8 km/h (4 Bft) N 353 53,1 km/h (7 Bft)
06.01.2012 02:36 5,8 C 63 % 0,0 l/m 27,8 km/h (4 Bft) W 274 45,1 km/h (6 Bft)
06.01.2012 02:37 5,8 C 62 % 0,0 l/m 23,7 km/h (4 Bft) NW 325 45,1 km/h (6 Bft)
06.01.2012 02:38 5,8 C 62 % 0,0 l/m 27,0 km/h (4 Bft) W-NW 288 43,5 km/h (6 Bft)
06.01.2012 02:39 5,9 C 62 % 0,0 l/m 28,0 km/h (4 Bft) W-SW 256 49,9 km/h (6 Bft)
06.01.2012 02:40 5,9 C 62 % 0,0 l/m 25,1 km/h (4 Bft) N-NO 26 49,9 km/h (6 Bft)
06.01.2012 02:41 5,9 C 63 % 0,0 l/m 18,3 km/h (3 Bft) O-SO 114 35,4 km/h (5 Bft)
06.01.2012 02:42 5,8 C 63 % 0,0 l/m 21,2 km/h (4 Bft) W 273 41,8 km/h (6 Bft)
06.01.2012 02:43 5,8 C 64 % 0,0 l/m 23,3 km/h (4 Bft) N-NW 336 37,0 km/h (5 Bft)
06.01.2012 02:44 5,8 C 64 % 0,0 l/m 23,3 km/h (4 Bft) NW 326 49,9 km/h (6 Bft)
06.01.2012 02:45 5,8 C 64 % 0,0 l/m 22,0 km/h (4 Bft) SW 224 35,4 km/h (5 Bft)
06.01.2012 02:46 5,7 C 64 % 0,0 l/m 25,3 km/h (4 Bft) W 259 49,9 km/h (6 Bft)
06.01.2012 02:47 5,7 C 65 % 0,0 l/m 28,7 km/h (4 Bft) W 264 45,1 km/h (6 Bft)
06.01.2012 02:48 5,7 C 65 % 0,0 l/m 22,6 km/h (4 Bft) W-SW 243 37,0 km/h (5 Bft)
06.01.2012 02:49 5,6 C 66 % 0,0 l/m 26,0 km/h (4 Bft) W 261 35,4 km/h (5 Bft)
06.01.2012 02:50 5,6 C 66 % 0,0 l/m 16,7 km/h (3 Bft) W-SW 246 25,7 km/h (4 Bft)
06.01.2012 02:51 5,5 C 67 % 0,0 l/m 17,8 km/h (3 Bft) W-SW 246 24,1 km/h (4 Bft)
06.01.2012 02:52 5,4 C 68 % 0,0 l/m 25,2 km/h (4 Bft) W-NW 283 38,6 km/h (5 Bft)
06.01.2012 02:53 5,3 C 68 % 0,0 l/m 11,6 km/h (2 Bft) W 273 22,5 km/h (4 Bft)
06.01.2012 02:54 5,3 C 69 % 0,0 l/m 18,4 km/h (3 Bft) S-SW 212 29,0 km/h (5 Bft)
06.01.2012 02:55 5,2 C 70 % 0,0 l/m 17,6 km/h (3 Bft) W-SW 243 30,6 km/h (5 Bft)
06.01.2012 02:56 5,2 C 70 % 0,0 l/m 17,5 km/h (3 Bft) W-SW 243 30,6 km/h (5 Bft)
06.01.2012 02:57 5,1 C 71 % 0,0 l/m 22,9 km/h (4 Bft) W-SW 256 33,8 km/h (5 Bft)
06.01.2012 02:58 5,1 C 71 % 0,0 l/m 18,6 km/h (3 Bft) W-NW 286 35,4 km/h (5 Bft)
06.01.2012 02:59 5,1 C 71 % 0,0 l/m 17,4 km/h (3 Bft) S 177 40,2 km/h (6 Bft)
06.01.2012 03:00 5,0 C 71 % 0,0 l/m 25,3 km/h (4 Bft) W-SW 252 43,5 km/h (6 Bft)
06.01.2012 03:01 5,1 C 71 % 0,0 l/m 27,6 km/h (4 Bft) W 274 51,5 km/h (7 Bft)
06.01.2012 03:02 5,1 C 71 % 0,0 l/m 18,6 km/h (3 Bft) SW 215 35,4 km/h (5 Bft)
06.01.2012 03:03 5,1 C 71 % 0,0 l/m 21,1 km/h (4 Bft) W-NW 291 38,6 km/h (5 Bft)
06.01.2012 03:04 5,0 C 71 % 0,0 l/m 15,8 km/h (3 Bft) W-SW 238 25,7 km/h (4 Bft)
06.01.2012 03:05 4,9 C 71 % 0,0 l/m 12,7 km/h (3 Bft) W-NW 287 24,1 km/h (4 Bft)
06.01.2012 03:06 4,9 C 71 % 0,0 l/m 12,5 km/h (3 Bft) W-NW 294 19,3 km/h (3 Bft)
06.01.2012 03:07 4,9 C 71 % 0,0 l/m 18,9 km/h (3 Bft) W 271 40,2 km/h (6 Bft)
06.01.2012 03:08 4,9 C 71 % 0,0 l/m 25,2 km/h (4 Bft) W 273 43,5 km/h (6 Bft)
06.01.2012 03:09 4,9 C 70 % 0,0 l/m 22,4 km/h (4 Bft) W 277 37,0 km/h (5 Bft)
06.01.2012 03:10 4,9 C 70 % 0,0 l/m 22,6 km/h (4 Bft) N-NW 340 38,6 km/h (5 Bft)
06.01.2012 03:11 4,9 C 70 % 0,0 l/m 13,3 km/h (3 Bft) SW 217 27,4 km/h (4 Bft)
06.01.2012 03:12 4,9 C 70 % 0,0 l/m 14,7 km/h (3 Bft) W-SW 252 25,7 km/h (4 Bft)
06.01.2012 03:13 4,9 C 70 % 0,0 l/m 14,5 km/h (3 Bft) NW 307 33,8 km/h (5 Bft)
06.01.2012 03:14 4,9 C 70 % 0,0 l/m 16,1 km/h (3 Bft) SW 233 27,4 km/h (4 Bft)
06.01.2012 03:15 4,8 C 70 % 0,0 l/m 11,0 km/h (2 Bft) W 281 22,5 km/h (4 Bft)
06.01.2012 03:16 4,8 C 70 % 0,0 l/m 15,1 km/h (3 Bft) W-NW 289 24,1 km/h (4 Bft)
06.01.2012 03:17 4,8 C 71 % 0,0 l/m 15,5 km/h (3 Bft) W 280 24,1 km/h (4 Bft)
06.01.2012 03:18 4,8 C 71 % 0,0 l/m 19,8 km/h (3 Bft) W-SW 256 27,4 km/h (4 Bft)
06.01.2012 03:19 4,8 C 70 % 0,0 l/m 14,9 km/h (3 Bft) W-NW 302 22,5 km/h (4 Bft)
06.01.2012 03:20 4,8 C 71 % 0,0 l/m 11,7 km/h (2 Bft) W-NW 295 29,0 km/h (5 Bft)
06.01.2012 03:21 4,7 C 71 % 0,0 l/m 15,9 km/h (3 Bft) W-SW 253 22,5 km/h (4 Bft)
06.01.2012 03:22 4,7 C 71 % 0,0 l/m 16,5 km/h (3 Bft) W 264 29,0 km/h (5 Bft)
06.01.2012 03:23 4,7 C 71 % 0,0 l/m 10,8 km/h (2 Bft) W-NW 289 22,5 km/h (4 Bft)
06.01.2012 03:24 4,7 C 71 % 0,0 l/m 12,9 km/h (3 Bft) W-NW 295 24,1 km/h (4 Bft)
06.01.2012 03:25 4,7 C 71 % 0,0 l/m 13,5 km/h (3 Bft) W 260 20,9 km/h (4 Bft)
06.01.2012 03:26 4,7 C 71 % 0,0 l/m 11,0 km/h (2 Bft) SW 236 16,1 km/h (3 Bft)
06.01.2012 03:27 4,7 C 71 % 0,0 l/m 13,1 km/h (3 Bft) W 281 19,3 km/h (3 Bft)
06.01.2012 03:28 4,6 C 71 % 0,0 l/m 10,3 km/h (2 Bft) W-NW 301 14,5 km/h (3 Bft)
06.01.2012 03:29 4,6 C 71 % 0,0 l/m 13,2 km/h (3 Bft) NW 306 24,1 km/h (4 Bft)
06.01.2012 03:30 4,6 C 71 % 0,0 l/m 12,7 km/h (3 Bft) NW 321 20,9 km/h (4 Bft)
06.01.2012 03:31 4,6 C 71 % 0,0 l/m 13,5 km/h (3 Bft) SW 224 24,1 km/h (4 Bft)
06.01.2012 03:32 4,6 C 71 % 0,0 l/m 10,8 km/h (2 Bft) SW 226 20,9 km/h (4 Bft)
06.01.2012 03:33 4,6 C 71 % 0,0 l/m 10,3 km/h (2 Bft) NW 305 17,7 km/h (3 Bft)
06.01.2012 03:34 4,5 C 71 % 0,0 l/m 12,8 km/h (3 Bft) W-SW 252 19,3 km/h (3 Bft)
06.01.2012 03:35 4,5 C 71 % 0,0 l/m 9,3 km/h (2 Bft) NW 315 19,3 km/h (3 Bft)
06.01.2012 03:36 4,5 C 71 % 0,0 l/m 15,7 km/h (3 Bft) W 273 24,1 km/h (4 Bft)
06.01.2012 03:37 4,5 C 71 % 0,0 l/m 12,2 km/h (2 Bft) W 277 24,1 km/h (4 Bft)
06.01.2012 03:38 4,5 C 71 % 0,0 l/m 10,3 km/h (2 Bft) W-NW 293 19,3 km/h (3 Bft)
06.01.2012 03:39 4,5 C 71 % 0,0 l/m 10,0 km/h (2 Bft) S-SW 204 14,5 km/h (3 Bft)
06.01.2012 03:40 4,4 C 71 % 0,0 l/m 7,7 km/h (2 Bft) SO 134 16,1 km/h (3 Bft)
06.01.2012 03:41 4,5 C 70 % 0,0 l/m 23,5 km/h (4 Bft) W-NW 287 41,8 km/h (6 Bft)
06.01.2012 03:42 4,6 C 69 % 0,0 l/m 25,5 km/h (4 Bft) W-NW 294 41,8 km/h (6 Bft)
06.01.2012 03:43 4,7 C 69 % 0,0 l/m 19,8 km/h (3 Bft) W-NW 300 24,1 km/h (4 Bft)
06.01.2012 03:44 4,7 C 69 % 0,0 l/m 12,8 km/h (3 Bft) N-NW 332 20,9 km/h (4 Bft)
06.01.2012 03:45 4,8 C 69 % 0,0 l/m 16,8 km/h (3 Bft) W-NW 302 32,2 km/h (5 Bft)
06.01.2012 03:46 4,8 C 67 % 0,0 l/m 14,8 km/h (3 Bft) W-NW 283 24,1 km/h (4 Bft)
06.01.2012 03:47 4,8 C 67 % 0,0 l/m 14,2 km/h (3 Bft) N 357 30,6 km/h (5 Bft)
06.01.2012 03:48 4,9 C 66 % 0,0 l/m 18,4 km/h (3 Bft) S-SO 152 33,8 km/h (5 Bft)
06.01.2012 03:49 4,9 C 66 % 0,0 l/m 23,2 km/h (4 Bft) W 281 37,0 km/h (5 Bft)
06.01.2012 03:50 5,0 C 65 % 0,0 l/m 23,1 km/h (4 Bft) W 260 35,4 km/h (5 Bft)
06.01.2012 03:51 5,1 C 65 % 0,0 l/m 17,9 km/h (3 Bft) N-NW 345 24,1 km/h (4 Bft)
06.01.2012 03:52 5,1 C 65 % 0,0 l/m 20,1 km/h (4 Bft) W-NW 295 30,6 km/h (5 Bft)
06.01.2012 03:53 5,1 C 65 % 0,0 l/m 16,0 km/h (3 Bft) W 280 30,6 km/h (5 Bft)
06.01.2012 03:54 5,1 C 65 % 0,0 l/m 23,6 km/h (4 Bft) NW 312 35,4 km/h (5 Bft)
06.01.2012 03:55 5,1 C 65 % 0,0 l/m 16,3 km/h (3 Bft) W-SW 246 25,7 km/h (4 Bft)
06.01.2012 03:56 5,2 C 64 % 0,0 l/m 28,4 km/h (4 Bft) O-NO 72 48,3 km/h (6 Bft)
06.01.2012 03:57 5,2 C 64 % 0,0 l/m 18,3 km/h (3 Bft) W-SW 242 25,7 km/h (4 Bft)
06.01.2012 03:58 5,2 C 64 % 0,0 l/m 17,1 km/h (3 Bft) NW 315 25,7 km/h (4 Bft)
06.01.2012 03:59 5,2 C 64 % 0,0 l/m 20,0 km/h (4 Bft) W-NW 284 32,2 km/h (5 Bft)
06.01.2012 04:00 5,2 C 64 % 0,0 l/m 15,4 km/h (3 Bft) W-NW 301 30,6 km/h (5 Bft)
06.01.2012 04:01 5,2 C 65 % 0,0 l/m 23,1 km/h (4 Bft) W-SW 256 33,8 km/h (5 Bft)
06.01.2012 04:02 5,2 C 64 % 0,0 l/m 13,8 km/h (3 Bft) W-SW 245 25,7 km/h (4 Bft)
06.01.2012 04:03 5,1 C 65 % 0,0 l/m 11,9 km/h (2 Bft) W 260 19,3 km/h (3 Bft)
06.01.2012 04:04 5,1 C 64 % 0,0 l/m 26,1 km/h (4 Bft) SW 236 37,0 km/h (5 Bft)
06.01.2012 04:05 5,1 C 65 % 0,0 l/m 23,2 km/h (4 Bft) W-NW 288 32,2 km/h (5 Bft)
06.01.2012 04:06 5,1 C 65 % 0,0 l/m 19,7 km/h (3 Bft) W-NW 302 29,0 km/h (5 Bft)
06.01.2012 04:07 5,1 C 65 % 0,0 l/m 15,8 km/h (3 Bft) O-NO 69 22,5 km/h (4 Bft)
06.01.2012 04:08 5,0 C 66 % 0,0 l/m 18,7 km/h (3 Bft) W-SW 255 27,4 km/h (4 Bft)
06.01.2012 04:09 5,0 C 66 % 0,0 l/m 21,9 km/h (4 Bft) W-NW 284 27,4 km/h (4 Bft)
06.01.2012 04:10 4,9 C 66 % 0,0 l/m 12,1 km/h (2 Bft) SW 224 24,1 km/h (4 Bft)
06.01.2012 04:11 4,9 C 67 % 0,0 l/m 20,0 km/h (4 Bft) W-SW 253 29,0 km/h (5 Bft)
06.01.2012 04:12 4,8 C 67 % 0,0 l/m 16,8 km/h (3 Bft) W-SW 245 25,7 km/h (4 Bft)
06.01.2012 04:13 4,8 C 67 % 0,0 l/m 18,0 km/h (3 Bft) W 263 24,1 km/h (4 Bft)
06.01.2012 04:14 4,8 C 66 % 0,0 l/m 22,9 km/h (4 Bft) SW 228 37,0 km/h (5 Bft)
06.01.2012 04:15 4,8 C 66 % 0,0 l/m 20,0 km/h (4 Bft) SW 215 32,2 km/h (5 Bft)
06.01.2012 04:16 4,8 C 66 % 0,0 l/m 18,3 km/h (3 Bft) W-NW 288 24,1 km/h (4 Bft)
06.01.2012 04:17 4,7 C 66 % 0,0 l/m 21,5 km/h (4 Bft) O-NO 58 33,8 km/h (5 Bft)
06.01.2012 04:18 4,7 C 66 % 0,0 l/m 20,2 km/h (4 Bft) S-SO 149 29,0 km/h (5 Bft)
06.01.2012 04:19 4,7 C 66 % 0,0 l/m 21,2 km/h (4 Bft) W-SW 256 29,0 km/h (5 Bft)
06.01.2012 04:20 4,7 C 66 % 0,0 l/m 28,2 km/h (4 Bft) W-SW 248 35,4 km/h (5 Bft)
06.01.2012 04:21 4,7 C 66 % 0,0 l/m 29,8 km/h (5 Bft) N-NO 25 43,5 km/h (6 Bft)
06.01.2012 04:22 4,7 C 66 % 0,0 l/m 26,3 km/h (4 Bft) W-NW 293 38,6 km/h (5 Bft)
06.01.2012 04:23 4,7 C 65 % 0,0 l/m 19,0 km/h (3 Bft) NW 307 33,8 km/h (5 Bft)
06.01.2012 04:24 4,7 C 65 % 0,0 l/m 19,1 km/h (3 Bft) N-NW 345 30,6 km/h (5 Bft)
06.01.2012 04:25 4,7 C 65 % 0,0 l/m 16,9 km/h (3 Bft) SW 221 29,0 km/h (5 Bft)
06.01.2012 04:26 4,7 C 65 % 0,0 l/m 22,4 km/h (4 Bft) W 277 30,6 km/h (5 Bft)
06.01.2012 04:27 4,7 C 66 % 0,0 l/m 20,1 km/h (4 Bft) W 281 27,4 km/h (4 Bft)
06.01.2012 04:28 4,6 C 65 % 0,0 l/m 19,9 km/h (4 Bft) SW 236 37,0 km/h (5 Bft)
06.01.2012 04:29 4,7 C 65 % 0,0 l/m 24,5 km/h (4 Bft) W-SW 248 43,5 km/h (6 Bft)
06.01.2012 04:30 4,7 C 65 % 0,0 l/m 18,9 km/h (3 Bft) N-NW 328 38,6 km/h (5 Bft)
06.01.2012 04:31 4,7 C 64 % 0,0 l/m 25,2 km/h (4 Bft) N-NW 332 38,6 km/h (5 Bft)
06.01.2012 04:32 4,7 C 64 % 0,0 l/m 22,8 km/h (4 Bft) W 266 41,8 km/h (6 Bft)
06.01.2012 04:33 4,7 C 64 % 0,0 l/m 17,4 km/h (3 Bft) W 267 35,4 km/h (5 Bft)
06.01.2012 04:34 4,7 C 64 % 0,0 l/m 16,6 km/h (3 Bft) W-SW 256 27,4 km/h (4 Bft)
06.01.2012 04:35 4,7 C 64 % 0,0 l/m 21,5 km/h (4 Bft) S-SW 204 33,8 km/h (5 Bft)
06.01.2012 04:36 4,7 C 64 % 0,0 l/m 24,1 km/h (4 Bft) SW 217 45,1 km/h (6 Bft)
06.01.2012 04:37 4,7 C 64 % 0,0 l/m 21,0 km/h (4 Bft) SW 218 30,6 km/h (5 Bft)
06.01.2012 04:38 4,7 C 63 % 0,0 l/m 14,8 km/h (3 Bft) NW 316 24,1 km/h (4 Bft)
06.01.2012 04:39 4,7 C 63 % 0,0 l/m 17,0 km/h (3 Bft) NW 322 27,4 km/h (4 Bft)
06.01.2012 04:40 4,7 C 63 % 0,0 l/m 19,2 km/h (3 Bft) W 269 33,8 km/h (5 Bft)
06.01.2012 04:41 4,7 C 63 % 0,0 l/m 18,9 km/h (3 Bft) S-SO 164 35,4 km/h (5 Bft)
06.01.2012 04:42 4,7 C 63 % 0,0 l/m 23,4 km/h (4 Bft) W-NW 295 46,7 km/h (6 Bft)
06.01.2012 04:43 4,7 C 63 % 0,0 l/m 31,4 km/h (5 Bft) W-NW 302 46,7 km/h (6 Bft)
06.01.2012 04:44 4,7 C 63 % 0,0 l/m 18,5 km/h (3 Bft) S-SW 207 29,0 km/h (5 Bft)
06.01.2012 04:45 4,7 C 63 % 0,0 l/m 26,0 km/h (4 Bft) W-SW 250 43,5 km/h (6 Bft)
06.01.2012 04:46 4,7 C 63 % 0,0 l/m 19,2 km/h (3 Bft) SW 215 45,1 km/h (6 Bft)
06.01.2012 04:47 4,7 C 63 % 0,0 l/m 27,2 km/h (4 Bft) NW 326 38,6 km/h (5 Bft)
06.01.2012 04:48 4,7 C 62 % 0,0 l/m 26,6 km/h (4 Bft) W 276 41,8 km/h (6 Bft)
06.01.2012 04:49 4,8 C 62 % 0,0 l/m 31,1 km/h (5 Bft) NO 44 51,5 km/h (7 Bft)
06.01.2012 04:50 4,8 C 62 % 0,0 l/m 19,3 km/h (3 Bft) W 273 33,8 km/h (5 Bft)
06.01.2012 04:51 4,8 C 62 % 0,0 l/m 17,1 km/h (3 Bft) W 269 41,8 km/h (6 Bft)
06.01.2012 04:52 4,8 C 62 % 0,0 l/m 17,8 km/h (3 Bft) W-SW 238 27,4 km/h (4 Bft)
06.01.2012 04:53 4,7 C 62 % 0,0 l/m 19,4 km/h (3 Bft) NW 318 38,6 km/h (5 Bft)
06.01.2012 04:54 4,8 C 62 % 0,0 l/m 16,1 km/h (3 Bft) W-SW 248 29,0 km/h (5 Bft)
06.01.2012 04:55 4,7 C 62 % 0,0 l/m 23,1 km/h (4 Bft) W-SW 242 37,0 km/h (5 Bft)
06.01.2012 04:56 4,7 C 62 % 0,0 l/m 24,1 km/h (4 Bft) N-NW 334 37,0 km/h (5 Bft)
06.01.2012 04:57 4,7 C 62 % 0,0 l/m 27,0 km/h (4 Bft) S 181 48,3 km/h (6 Bft)
06.01.2012 04:58 4,8 C 62 % 0,0 l/m 23,2 km/h (4 Bft) W-NW 295 43,5 km/h (6 Bft)
06.01.2012 04:59 4,8 C 62 % 0,0 l/m 20,9 km/h (4 Bft) W-SW 245 40,2 km/h (6 Bft)
06.01.2012 05:00 4,8 C 62 % 0,0 l/m 24,7 km/h (4 Bft) W 273 37,0 km/h (5 Bft)
06.01.2012 05:01 4,8 C 62 % 0,0 l/m 22,5 km/h (4 Bft) NW 323 32,2 km/h (5 Bft)
06.01.2012 05:02 4,8 C 62 % 0,0 l/m 19,2 km/h (3 Bft) W-NW 297 29,0 km/h (5 Bft)
06.01.2012 05:03 4,8 C 62 % 0,0 l/m 31,9 km/h (5 Bft) W-SW 252 51,5 km/h (7 Bft)
06.01.2012 05:04 4,8 C 62 % 0,0 l/m 27,0 km/h (4 Bft) NW 308 45,1 km/h (6 Bft)
06.01.2012 05:05 4,8 C 62 % 0,0 l/m 26,0 km/h (4 Bft) W 273 48,3 km/h (6 Bft)
06.01.2012 05:06 4,8 C 61 % 0,0 l/m 25,3 km/h (4 Bft) W-NW 291 38,6 km/h (5 Bft)
06.01.2012 05:07 4,8 C 61 % 0,0 l/m 35,4 km/h (5 Bft) SW 215 45,1 km/h (6 Bft)
06.01.2012 05:08 4,8 C 61 % 0,0 l/m 24,1 km/h (4 Bft) W-NW 285 38,6 km/h (5 Bft)
06.01.2012 05:09 4,8 C 61 % 0,0 l/m 22,0 km/h (4 Bft) W-NW 297 37,0 km/h (5 Bft)
06.01.2012 05:10 4,8 C 61 % 0,0 l/m 18,5 km/h (3 Bft) SW 218 43,5 km/h (6 Bft)
06.01.2012 05:11 4,8 C 61 % 0,0 l/m 15,1 km/h (3 Bft) SW 226 24,1 km/h (4 Bft)
06.01.2012 05:12 4,8 C 62 % 0,0 l/m 13,2 km/h (3 Bft) W-SW 257 40,2 km/h (6 Bft)
06.01.2012 05:13 4,7 C 62 % 0,0 l/m 15,4 km/h (3 Bft) SW 217 27,4 km/h (4 Bft)
06.01.2012 05:14 4,7 C 62 % 0,0 l/m 12,8 km/h (3 Bft) W-NW 284 19,3 km/h (3 Bft)
06.01.2012 05:15 4,7 C 61 % 0,0 l/m 21,7 km/h (4 Bft) W-SW 253 35,4 km/h (5 Bft)
06.01.2012 05:16 4,7 C 61 % 0,0 l/m 25,2 km/h (4 Bft) W-NW 294 40,2 km/h (6 Bft)
06.01.2012 05:17 4,7 C 61 % 0,0 l/m 13,9 km/h (3 Bft) W 269 24,1 km/h (4 Bft)
06.01.2012 05:18 4,7 C 61 % 0,0 l/m 19,2 km/h (3 Bft) W 277 32,2 km/h (5 Bft)
06.01.2012 05:19 4,7 C 62 % 0,0 l/m 26,3 km/h (4 Bft) NW 314 38,6 km/h (5 Bft)
06.01.2012 05:20 4,7 C 62 % 0,0 l/m 25,5 km/h (4 Bft) NW 312 37,0 km/h (5 Bft)
06.01.2012 05:21 4,7 C 61 % 0,0 l/m 23,5 km/h (4 Bft) NW 312 37,0 km/h (5 Bft)
06.01.2012 05:22 4,7 C 61 % 0,0 l/m 36,9 km/h (5 Bft) W 277 62,8 km/h (8 Bft)
06.01.2012 05:23 4,8 C 61 % 0,0 l/m 26,6 km/h (4 Bft) W-NW 291 45,1 km/h (6 Bft)
06.01.2012 05:24 4,8 C 61 % 0,0 l/m 19,6 km/h (3 Bft) SW 226 32,2 km/h (5 Bft)
06.01.2012 05:25 4,8 C 61 % 0,0 l/m 28,6 km/h (4 Bft) O-SO 105 43,5 km/h (6 Bft)
06.01.2012 05:26 4,8 C 61 % 0,0 l/m 27,9 km/h (4 Bft) W-NW 301 37,0 km/h (5 Bft)
06.01.2012 05:27 4,8 C 61 % 0,0 l/m 18,7 km/h (3 Bft) N-NW 328 48,3 km/h (6 Bft)
06.01.2012 05:28 4,8 C 60 % 0,0 l/m 24,8 km/h (4 Bft) W 276 40,2 km/h (6 Bft)
06.01.2012 05:29 4,8 C 60 % 0,0 l/m 25,3 km/h (4 Bft) W 264 41,8 km/h (6 Bft)
06.01.2012 05:30 4,8 C 60 % 0,0 l/m 18,3 km/h (3 Bft) S-SW 204 30,6 km/h (5 Bft)
06.01.2012 05:31 4,8 C 60 % 0,0 l/m 23,9 km/h (4 Bft) W-NW 298 41,8 km/h (6 Bft)
06.01.2012 05:32 4,8 C 60 % 0,0 l/m 24,3 km/h (4 Bft) W-NW 288 51,5 km/h (7 Bft)
06.01.2012 05:33 4,9 C 60 % 0,0 l/m 24,5 km/h (4 Bft) W-NW 297 45,1 km/h (6 Bft)
06.01.2012 05:34 4,9 C 60 % 0,0 l/m 25,4 km/h (4 Bft) SW 232 40,2 km/h (6 Bft)
06.01.2012 05:35 4,9 C 60 % 0,0 l/m 23,5 km/h (4 Bft) O-SO 122 33,8 km/h (5 Bft)
06.01.2012 05:36 4,9 C 60 % 0,0 l/m 20,3 km/h (4 Bft) NW 325 33,8 km/h (5 Bft)
06.01.2012 05:37 4,9 C 60 % 0,0 l/m 22,7 km/h (4 Bft) SW 232 41,8 km/h (6 Bft)
06.01.2012 05:38 4,9 C 60 % 0,0 l/m 32,4 km/h (5 Bft) W-NW 299 53,1 km/h (7 Bft)
06.01.2012 05:39 4,9 C 60 % 0,0 l/m 29,6 km/h (5 Bft) NW 307 56,3 km/h (7 Bft)
06.01.2012 05:40 4,9 C 60 % 0,0 l/m 22,7 km/h (4 Bft) NW 309 51,5 km/h (7 Bft)
06.01.2012 05:41 4,9 C 60 % 0,0 l/m 26,8 km/h (4 Bft) N 6 46,7 km/h (6 Bft)
06.01.2012 05:42 4,9 C 60 % 0,0 l/m 27,4 km/h (4 Bft) W-SW 248 51,5 km/h (7 Bft)
06.01.2012 05:43 4,9 C 60 % 0,0 l/m 17,1 km/h (3 Bft) W 260 29,0 km/h (5 Bft)
06.01.2012 05:44 4,9 C 60 % 0,0 l/m 26,0 km/h (4 Bft) W-NW 298 45,1 km/h (6 Bft)
06.01.2012 05:45 4,9 C 60 % 0,0 l/m 26,0 km/h (4 Bft) NW 307 33,8 km/h (5 Bft)
06.01.2012 05:46 4,9 C 60 % 0,0 l/m 19,6 km/h (3 Bft) SW 229 32,2 km/h (5 Bft)
06.01.2012 05:47 4,9 C 60 % 0,0 l/m 24,6 km/h (4 Bft) W-NW 291 41,8 km/h (6 Bft)
06.01.2012 05:48 4,9 C 60 % 0,0 l/m 17,4 km/h (3 Bft) W-NW 293 32,2 km/h (5 Bft)
06.01.2012 05:49 4,9 C 60 % 0,0 l/m 23,8 km/h (4 Bft) W 281 46,7 km/h (6 Bft)
06.01.2012 05:50 4,9 C 60 % 0,0 l/m 25,5 km/h (4 Bft) W-NW 294 35,4 km/h (5 Bft)
06.01.2012 05:51 4,9 C 60 % 0,0 l/m 34,6 km/h (5 Bft) W 280 54,7 km/h (7 Bft)
06.01.2012 05:52 4,9 C 60 % 0,0 l/m 30,5 km/h (5 Bft) NW 305 64,4 km/h (8 Bft)
06.01.2012 05:53 4,9 C 60 % 0,0 l/m 40,8 km/h (6 Bft) W-NW 284 59,5 km/h (7 Bft)
06.01.2012 05:54 4,9 C 60 % 0,0 l/m 27,6 km/h (4 Bft) N-NO 20 48,3 km/h (6 Bft)
06.01.2012 05:55 4,9 C 61 % 0,0 l/m 23,7 km/h (4 Bft) W-NW 287 40,2 km/h (6 Bft)
06.01.2012 05:56 4,9 C 61 % 0,0 l/m 32,2 km/h (5 Bft) W-SW 256 48,3 km/h (6 Bft)
06.01.2012 05:57 4,9 C 61 % 0,0 l/m 28,8 km/h (4 Bft) W-NW 285 46,7 km/h (6 Bft)
06.01.2012 05:58 5,0 C 61 % 0,0 l/m 31,5 km/h (5 Bft) W-NW 301 48,3 km/h (6 Bft)
06.01.2012 05:59 5,0 C 61 % 0,0 l/m 27,6 km/h (4 Bft) NO 38 38,6 km/h (5 Bft)
06.01.2012 06:00 5,0 C 61 % 0,0 l/m 26,4 km/h (4 Bft) N-NW 345 61,2 km/h (7 Bft)
06.01.2012 06:01 5,0 C 61 % 0,0 l/m 37,6 km/h (5 Bft) W-NW 296 54,7 km/h (7 Bft)
06.01.2012 06:02 5,0 C 61 % 0,0 l/m 38,0 km/h (5 Bft) W-NW 290 66,0 km/h (8 Bft)
06.01.2012 06:03 5,0 C 61 % 0,0 l/m 29,3 km/h (5 Bft) W-NW 291 41,8 km/h (6 Bft)
06.01.2012 06:04 5,0 C 61 % 0,0 l/m 14,5 km/h (3 Bft) SW 233 30,6 km/h (5 Bft)
06.01.2012 06:05 5,0 C 61 % 0,0 l/m 25,5 km/h (4 Bft) W-NW 294 38,6 km/h (5 Bft)
06.01.2012 06:06 5,0 C 61 % 0,0 l/m 30,5 km/h (5 Bft) W-NW 293 51,5 km/h (7 Bft)
06.01.2012 06:07 5,0 C 61 % 0,0 l/m 25,9 km/h (4 Bft) W-NW 285 45,1 km/h (6 Bft)
06.01.2012 06:08 5,0 C 61 % 0,0 l/m 31,0 km/h (5 Bft) NW 312 57,9 km/h (7 Bft)
06.01.2012 06:09 5,0 C 61 % 0,0 l/m 26,9 km/h (4 Bft) W-SW 247 59,5 km/h (7 Bft)
06.01.2012 06:10 5,0 C 61 % 0,0 l/m 25,8 km/h (4 Bft) S-SW 203 40,2 km/h (6 Bft)
06.01.2012 06:11 5,0 C 61 % 0,0 l/m 32,2 km/h (5 Bft) W-NW 297 53,1 km/h (7 Bft)
06.01.2012 06:12 5,0 C 61 % 0,0 l/m 27,5 km/h (4 Bft) NW 314 53,1 km/h (7 Bft)
06.01.2012 06:13 4,9 C 61 % 0,0 l/m 24,2 km/h (4 Bft) W-SW 240 43,5 km/h (6 Bft)
06.01.2012 06:14 4,9 C 61 % 0,0 l/m 29,9 km/h (5 Bft) W 281 49,9 km/h (6 Bft)
06.01.2012 06:15 4,9 C 61 % 0,0 l/m 26,8 km/h (4 Bft) W-NW 285 41,8 km/h (6 Bft)
06.01.2012 06:16 4,9 C 61 % 0,0 l/m 36,8 km/h (5 Bft) W-NW 298 56,3 km/h (7 Bft)
06.01.2012 06:17 5,0 C 61 % 0,0 l/m 34,4 km/h (5 Bft) W-NW 287 54,7 km/h (7 Bft)
06.01.2012 06:18 4,9 C 61 % 0,0 l/m 16,3 km/h (3 Bft) W-NW 288 24,1 km/h (4 Bft)
06.01.2012 06:19 4,9 C 61 % 0,0 l/m 21,6 km/h (4 Bft) SW 233 38,6 km/h (5 Bft)
06.01.2012 06:20 4,9 C 61 % 0,0 l/m 19,3 km/h (3 Bft) W-NW 287 32,2 km/h (5 Bft)
06.01.2012 06:21 4,9 C 61 % 0,0 l/m 39,4 km/h (6 Bft) W 278 72,4 km/h (8 Bft)
06.01.2012 06:22 5,0 C 61 % 0,0 l/m 27,1 km/h (4 Bft) N 358 48,3 km/h (6 Bft)
06.01.2012 06:23 5,0 C 61 % 0,0 l/m 20,4 km/h (4 Bft) W 277 41,8 km/h (6 Bft)
06.01.2012 06:24 5,0 C 61 % 0,0 l/m 38,1 km/h (5 Bft) W 259 62,8 km/h (8 Bft)
06.01.2012 06:25 5,0 C 61 % 0,0 l/m 21,5 km/h (4 Bft) SW 236 46,7 km/h (6 Bft)
06.01.2012 06:26 4,9 C 62 % 0,0 l/m 25,9 km/h (4 Bft) W 274 51,5 km/h (7 Bft)
06.01.2012 06:27 4,9 C 62 % 0,0 l/m 24,6 km/h (4 Bft) W-NW 297 41,8 km/h (6 Bft)
06.01.2012 06:28 4,9 C 62 % 0,0 l/m 30,2 km/h (5 Bft) SW 229 70,8 km/h (8 Bft)
06.01.2012 06:29 4,9 C 61 % 0,0 l/m 21,1 km/h (4 Bft) W-NW 289 41,8 km/h (6 Bft)
06.01.2012 06:30 4,9 C 61 % 0,0 l/m 33,1 km/h (5 Bft) SW 233 64,4 km/h (8 Bft)
06.01.2012 06:31 5,0 C 61 % 0,0 l/m 33,2 km/h (5 Bft) W 276 57,9 km/h (7 Bft)
06.01.2012 06:32 5,0 C 61 % 0,0 l/m 36,6 km/h (5 Bft) NW 307 56,3 km/h (7 Bft)
06.01.2012 06:33 5,0 C 61 % 0,0 l/m 34,4 km/h (5 Bft) NW 307 45,1 km/h (6 Bft)
06.01.2012 06:34 5,0 C 61 % 0,0 l/m 36,7 km/h (5 Bft) W-NW 284 57,9 km/h (7 Bft)
06.01.2012 06:35 5,1 C 61 % 0,0 l/m 30,5 km/h (5 Bft) NO 37 45,1 km/h (6 Bft)
06.01.2012 06:36 5,1 C 61 % 0,0 l/m 25,8 km/h (4 Bft) W 281 45,1 km/h (6 Bft)
06.01.2012 06:37 5,1 C 61 % 0,0 l/m 26,5 km/h (4 Bft) NW 312 45,1 km/h (6 Bft)
06.01.2012 06:38 5,1 C 61 % 0,0 l/m 27,0 km/h (4 Bft) N 353 57,9 km/h (7 Bft)
06.01.2012 06:39 5,1 C 61 % 0,0 l/m 30,7 km/h (5 Bft) O-NO 72 54,7 km/h (7 Bft)
06.01.2012 06:40 5,0 C 61 % 0,0 l/m 22,9 km/h (4 Bft) W-NW 294 35,4 km/h (5 Bft)
06.01.2012 06:41 5,0 C 61 % 0,0 l/m 31,8 km/h (5 Bft) W-NW 285 41,8 km/h (6 Bft)
06.01.2012 06:42 5,1 C 61 % 0,0 l/m 34,7 km/h (5 Bft) N 1 51,5 km/h (7 Bft)
06.01.2012 06:43 5,1 C 60 % 0,0 l/m 26,8 km/h (4 Bft) N-NW 342 53,1 km/h (7 Bft)
06.01.2012 06:44 5,1 C 60 % 0,0 l/m 30,4 km/h (5 Bft) W-SW 239 51,5 km/h (7 Bft)
06.01.2012 06:45 5,1 C 61 % 0,0 l/m 29,0 km/h (5 Bft) NW 307 51,5 km/h (7 Bft)
06.01.2012 06:46 5,1 C 61 % 0,0 l/m 33,2 km/h (5 Bft) NW 314 66,0 km/h (8 Bft)
06.01.2012 06:47 5,1 C 60 % 0,0 l/m 22,8 km/h (4 Bft) W 273 43,5 km/h (6 Bft)
06.01.2012 06:48 5,1 C 60 % 0,0 l/m 27,2 km/h (4 Bft) O-NO 77 40,2 km/h (6 Bft)
06.01.2012 06:49 5,1 C 60 % 0,0 l/m 28,2 km/h (4 Bft) NW 312 43,5 km/h (6 Bft)
06.01.2012 06:50 5,1 C 60 % 0,0 l/m 22,5 km/h (4 Bft) S-SW 207 48,3 km/h (6 Bft)
06.01.2012 06:51 5,1 C 60 % 0,0 l/m 29,1 km/h (5 Bft) S-SW 203 48,3 km/h (6 Bft)
06.01.2012 06:52 5,1 C 61 % 0,0 l/m 17,7 km/h (3 Bft) O 89 29,0 km/h (5 Bft)
06.01.2012 06:53 5,1 C 61 % 0,0 l/m 22,9 km/h (4 Bft) W-SW 252 37,0 km/h (5 Bft)
06.01.2012 06:54 5,1 C 60 % 0,0 l/m 26,8 km/h (4 Bft) SW 222 38,6 km/h (5 Bft)
06.01.2012 06:55 5,0 C 61 % 0,0 l/m 28,5 km/h (4 Bft) W 274 46,7 km/h (6 Bft)
06.01.2012 06:56 5,1 C 60 % 0,0 l/m 29,6 km/h (5 Bft) W-NW 295 46,7 km/h (6 Bft)
06.01.2012 06:57 5,1 C 60 % 0,0 l/m 27,6 km/h (4 Bft) NW 312 51,5 km/h (7 Bft)
06.01.2012 06:58 5,1 C 60 % 0,0 l/m 19,7 km/h (3 Bft) W-SW 240 35,4 km/h (5 Bft)
06.01.2012 06:59 5,1 C 60 % 0,0 l/m 24,2 km/h (4 Bft) NW 308 62,8 km/h (8 Bft)
06.01.2012 07:00 5,1 C 60 % 0,0 l/m 30,0 km/h (5 Bft) W-NW 300 46,7 km/h (6 Bft)
06.01.2012 07:01 5,1 C 60 % 0,0 l/m 24,9 km/h (4 Bft) SW 233 38,6 km/h (5 Bft)
06.01.2012 07:02 5,1 C 60 % 0,0 l/m 24,0 km/h (4 Bft) W-SW 240 40,2 km/h (6 Bft)
06.01.2012 07:03 5,1 C 60 % 0,0 l/m 18,5 km/h (3 Bft) N-NW 333 29,0 km/h (5 Bft)
06.01.2012 07:04 5,1 C 60 % 0,0 l/m 19,2 km/h (3 Bft) W-NW 285 38,6 km/h (5 Bft)
06.01.2012 07:05 5,1 C 61 % 0,0 l/m 22,0 km/h (4 Bft) W 271 45,1 km/h (6 Bft)
06.01.2012 07:06 5,1 C 60 % 0,0 l/m 36,6 km/h (5 Bft) W 278 56,3 km/h (7 Bft)
06.01.2012 07:07 5,1 C 61 % 0,0 l/m 26,2 km/h (4 Bft) W-NW 290 43,5 km/h (6 Bft)
06.01.2012 07:08 5,0 C 61 % 0,0 l/m 28,7 km/h (4 Bft) SO 129 56,3 km/h (7 Bft)
06.01.2012 07:09 5,0 C 61 % 0,0 l/m 25,8 km/h (4 Bft) W-NW 293 57,9 km/h (7 Bft)
06.01.2012 07:10 5,0 C 61 % 0,0 l/m 34,5 km/h (5 Bft) W-SW 257 48,3 km/h (6 Bft)
06.01.2012 07:11 5,0 C 61 % 0,0 l/m 31,1 km/h (5 Bft) N-NO 13 51,5 km/h (7 Bft)
06.01.2012 07:12 4,9 C 61 % 0,0 l/m 27,4 km/h (4 Bft) W-NW 302 43,5 km/h (6 Bft)
06.01.2012 07:13 4,9 C 62 % 0,0 l/m 31,3 km/h (5 Bft) N 349 43,5 km/h (6 Bft)
06.01.2012 07:14 4,9 C 62 % 0,0 l/m 28,2 km/h (4 Bft) N-NW 328 45,1 km/h (6 Bft)
06.01.2012 07:15 4,9 C 62 % 0,0 l/m 30,4 km/h (5 Bft) W-NW 284 40,2 km/h (6 Bft)
06.01.2012 07:16 4,9 C 62 % 0,0 l/m 30,6 km/h (5 Bft) W-NW 284 43,5 km/h (6 Bft)
06.01.2012 07:17 4,9 C 62 % 0,0 l/m 28,9 km/h (5 Bft) NO 37 53,1 km/h (7 Bft)
06.01.2012 07:18 4,9 C 62 % 0,0 l/m 33,6 km/h (5 Bft) W-NW 300 53,1 km/h (7 Bft)
06.01.2012 07:19 4,9 C 62 % 0,0 l/m 29,2 km/h (5 Bft) W-NW 288 53,1 km/h (7 Bft)
06.01.2012 07:20 4,9 C 62 % 0,0 l/m 30,9 km/h (5 Bft) SW 231 59,5 km/h (7 Bft)
06.01.2012 07:21 4,9 C 62 % 0,0 l/m 22,7 km/h (4 Bft) O-SO 118 40,2 km/h (6 Bft)
06.01.2012 07:22 4,8 C 62 % 0,0 l/m 28,9 km/h (5 Bft) W-SW 245 56,3 km/h (7 Bft)
06.01.2012 07:23 4,9 C 62 % 0,0 l/m 29,4 km/h (5 Bft) W-NW 297 53,1 km/h (7 Bft)
06.01.2012 07:24 4,8 C 63 % 0,0 l/m 22,4 km/h (4 Bft) W-NW 285 35,4 km/h (5 Bft)
06.01.2012 07:25 4,8 C 63 % 0,0 l/m 26,6 km/h (4 Bft) W-NW 289 45,1 km/h (6 Bft)
06.01.2012 07:26 4,8 C 63 % 0,0 l/m 30,7 km/h (5 Bft) NW 323 49,9 km/h (6 Bft)
06.01.2012 07:27 4,8 C 63 % 0,0 l/m 30,9 km/h (5 Bft) W-NW 300 54,7 km/h (7 Bft)
06.01.2012 07:28 4,8 C 62 % 0,0 l/m 28,8 km/h (4 Bft) NW 316 56,3 km/h (7 Bft)
06.01.2012 07:29 4,8 C 63 % 0,0 l/m 15,4 km/h (3 Bft) SW 228 27,4 km/h (4 Bft)
06.01.2012 07:30 4,8 C 63 % 0,0 l/m 23,6 km/h (4 Bft) NW 305 45,1 km/h (6 Bft)
06.01.2012 07:31 4,8 C 62 % 0,0 l/m 26,4 km/h (4 Bft) NW 308 46,7 km/h (6 Bft)
06.01.2012 07:32 4,8 C 62 % 0,0 l/m 32,3 km/h (5 Bft) NW 321 57,9 km/h (7 Bft)
06.01.2012 07:33 4,8 C 62 % 0,0 l/m 31,3 km/h (5 Bft) W-NW 299 57,9 km/h (7 Bft)
06.01.2012 07:34 4,8 C 62 % 0,0 l/m 36,1 km/h (5 Bft) NW 321 66,0 km/h (8 Bft)
06.01.2012 07:35 4,8 C 62 % 0,0 l/m 33,4 km/h (5 Bft) W-NW 288 56,3 km/h (7 Bft)
06.01.2012 07:36 4,8 C 62 % 0,0 l/m 19,8 km/h (3 Bft) W 280 35,4 km/h (5 Bft)
06.01.2012 07:37 4,8 C 62 % 0,0 l/m 22,1 km/h (4 Bft) NO 36 45,1 km/h (6 Bft)
06.01.2012 07:38 4,8 C 62 % 0,0 l/m 24,3 km/h (4 Bft) W 260 43,5 km/h (6 Bft)
06.01.2012 07:39 4,8 C 62 % 0,0 l/m 34,0 km/h (5 Bft) NW 307 61,2 km/h (7 Bft)
06.01.2012 07:40 4,8 C 62 % 0,0 l/m 34,4 km/h (5 Bft) W-NW 288 51,5 km/h (7 Bft)
06.01.2012 07:41 4,9 C 62 % 0,0 l/m 38,4 km/h (5 Bft) W 260 57,9 km/h (7 Bft)
06.01.2012 07:42 4,9 C 62 % 0,0 l/m 40,5 km/h (6 Bft) W-NW 289 53,1 km/h (7 Bft)
06.01.2012 07:43 4,9 C 62 % 0,0 l/m 27,1 km/h (4 Bft) W-NW 297 41,8 km/h (6 Bft)
06.01.2012 07:44 4,9 C 62 % 0,0 l/m 26,7 km/h (4 Bft) W-NW 297 43,5 km/h (6 Bft)
06.01.2012 07:45 4,9 C 62 % 0,0 l/m 33,1 km/h (5 Bft) W-NW 296 49,9 km/h (6 Bft)
06.01.2012 07:46 4,9 C 62 % 0,0 l/m 33,2 km/h (5 Bft) W-NW 295 53,1 km/h (7 Bft)
06.01.2012 07:47 4,9 C 62 % 0,0 l/m 33,3 km/h (5 Bft) N-NW 327 51,5 km/h (7 Bft)
06.01.2012 07:48 4,9 C 62 % 0,0 l/m 27,3 km/h (4 Bft) SW 217 46,7 km/h (6 Bft)
06.01.2012 07:49 4,9 C 62 % 0,0 l/m 24,2 km/h (4 Bft) W-NW 295 37,0 km/h (5 Bft)
06.01.2012 07:50 4,9 C 62 % 0,0 l/m 33,0 km/h (5 Bft) NW 305 45,1 km/h (6 Bft)
06.01.2012 07:51 4,9 C 62 % 0,0 l/m 28,6 km/h (4 Bft) W 274 48,3 km/h (6 Bft)
06.01.2012 07:52 4,9 C 62 % 0,0 l/m 23,2 km/h (4 Bft) W 277 46,7 km/h (6 Bft)
06.01.2012 07:53 4,9 C 62 % 0,0 l/m 34,3 km/h (5 Bft) W-NW 297 57,9 km/h (7 Bft)
06.01.2012 07:54 4,9 C 62 % 0,0 l/m 26,4 km/h (4 Bft) W-SW 257 38,6 km/h (5 Bft)
06.01.2012 07:55 4,9 C 62 % 0,0 l/m 19,5 km/h (3 Bft) NW 308 41,8 km/h (6 Bft)
06.01.2012 07:56 4,8 C 63 % 0,0 l/m 19,9 km/h (4 Bft) W-NW 295 35,4 km/h (5 Bft)
06.01.2012 07:57 4,8 C 63 % 0,0 l/m 34,6 km/h (5 Bft) W-NW 298 59,5 km/h (7 Bft)
06.01.2012 07:58 4,8 C 63 % 0,0 l/m 27,9 km/h (4 Bft) W-NW 285 48,3 km/h (6 Bft)
06.01.2012 07:59 4,8 C 63 % 0,0 l/m 28,6 km/h (4 Bft) O 79 49,9 km/h (6 Bft)
06.01.2012 08:00 4,8 C 63 % 0,0 l/m 33,0 km/h (5 Bft) W-NW 297 56,3 km/h (7 Bft)
06.01.2012 08:01 4,8 C 63 % 0,0 l/m 26,2 km/h (4 Bft) W-SW 256 43,5 km/h (6 Bft)
06.01.2012 08:02 4,8 C 64 % 0,0 l/m 31,3 km/h (5 Bft) W-SW 245 46,7 km/h (6 Bft)
06.01.2012 08:03 4,7 C 64 % 0,0 l/m 16,5 km/h (3 Bft) NW 316 30,6 km/h (5 Bft)
06.01.2012 08:04 4,7 C 64 % 0,0 l/m 29,3 km/h (5 Bft) W-NW 297 49,9 km/h (6 Bft)
06.01.2012 08:05 4,7 C 65 % 0,0 l/m 30,2 km/h (5 Bft) W 269 48,3 km/h (6 Bft)
06.01.2012 08:06 4,6 C 65 % 0,0 l/m 29,4 km/h (5 Bft) NO 51 48,3 km/h (6 Bft)
06.01.2012 08:07 4,6 C 65 % 0,0 l/m 24,1 km/h (4 Bft) W 274 45,1 km/h (6 Bft)
06.01.2012 08:08 4,6 C 65 % 0,0 l/m 28,0 km/h (4 Bft) W-NW 293 46,7 km/h (6 Bft)
06.01.2012 08:09 4,5 C 66 % 0,0 l/m 28,1 km/h (4 Bft) SW 231 56,3 km/h (7 Bft)
06.01.2012 08:10 4,4 C 66 % 0,0 l/m 27,8 km/h (4 Bft) W 266 49,9 km/h (6 Bft)
06.01.2012 08:11 4,4 C 66 % 0,0 l/m 32,1 km/h (5 Bft) W 267 62,8 km/h (8 Bft)
06.01.2012 08:12 4,4 C 67 % 0,0 l/m 39,4 km/h (6 Bft) W-NW 300 64,4 km/h (8 Bft)
06.01.2012 08:13 4,3 C 67 % 0,0 l/m 31,5 km/h (5 Bft) W 278 49,9 km/h (6 Bft)
06.01.2012 08:14 4,3 C 67 % 0,0 l/m 33,4 km/h (5 Bft) NW 321 62,8 km/h (8 Bft)
06.01.2012 08:15 4,3 C 68 % 0,0 l/m 30,1 km/h (5 Bft) NW 308 43,5 km/h (6 Bft)
06.01.2012 08:16 4,3 C 68 % 0,0 l/m 33,6 km/h (5 Bft) NW 308 48,3 km/h (6 Bft)
06.01.2012 08:17 4,2 C 68 % 0,0 l/m 30,7 km/h (5 Bft) NW 307 48,3 km/h (6 Bft)
06.01.2012 08:18 4,2 C 69 % 0,0 l/m 43,1 km/h (6 Bft) W-SW 245 66,0 km/h (8 Bft)
06.01.2012 08:19 4,2 C 69 % 0,0 l/m 36,4 km/h (5 Bft) W 280 59,5 km/h (7 Bft)
06.01.2012 08:20 4,2 C 69 % 0,0 l/m 28,8 km/h (4 Bft) W 264 48,3 km/h (6 Bft)
06.01.2012 08:21 4,2 C 69 % 0,0 l/m 31,3 km/h (5 Bft) S-SW 200 75,6 km/h (9 Bft)
06.01.2012 08:22 4,2 C 69 % 0,0 l/m 24,4 km/h (4 Bft) N-NW 343 35,4 km/h (5 Bft)
06.01.2012 08:23 4,2 C 69 % 0,0 l/m 34,8 km/h (5 Bft) N 4 54,7 km/h (7 Bft)
06.01.2012 08:24 4,2 C 69 % 0,0 l/m 37,7 km/h (5 Bft) W-NW 291 61,2 km/h (7 Bft)
06.01.2012 08:25 4,2 C 69 % 0,0 l/m 34,6 km/h (5 Bft) W-SW 245 61,2 km/h (7 Bft)
06.01.2012 08:26 4,2 C 69 % 0,0 l/m 27,4 km/h (4 Bft) NW 312 48,3 km/h (6 Bft)
06.01.2012 08:27 4,1 C 69 % 0,0 l/m 20,5 km/h (4 Bft) W-NW 294 33,8 km/h (5 Bft)
06.01.2012 08:28 4,1 C 69 % 0,0 l/m 24,5 km/h (4 Bft) W-SW 243 45,1 km/h (6 Bft)
06.01.2012 08:29 4,1 C 70 % 0,0 l/m 46,0 km/h (6 Bft) W 259 62,8 km/h (8 Bft)
06.01.2012 08:30 4,1 C 70 % 0,0 l/m 31,3 km/h (5 Bft) W 273 48,3 km/h (6 Bft)
06.01.2012 08:31 4,1 C 70 % 0,0 l/m 30,7 km/h (5 Bft) W 264 53,1 km/h (7 Bft)
06.01.2012 08:32 4,1 C 70 % 0,0 l/m 19,8 km/h (3 Bft) W-NW 285 37,0 km/h (5 Bft)
06.01.2012 08:33 4,1 C 70 % 0,0 l/m 28,2 km/h (4 Bft) W-NW 293 46,7 km/h (6 Bft)
06.01.2012 08:34 4,1 C 70 % 0,0 l/m 29,0 km/h (5 Bft) W 259 41,8 km/h (6 Bft)
06.01.2012 08:35 4,1 C 69 % 0,0 l/m 34,0 km/h (5 Bft) W-NW 293 62,8 km/h (8 Bft)
06.01.2012 08:36 4,1 C 69 % 0,0 l/m 28,6 km/h (4 Bft) W-SW 253 56,3 km/h (7 Bft)
06.01.2012 08:37 4,1 C 69 % 0,0 l/m 28,3 km/h (4 Bft) NW 307 45,1 km/h (6 Bft)
06.01.2012 08:38 4,1 C 69 % 0,0 l/m 36,4 km/h (5 Bft) W-NW 285 57,9 km/h (7 Bft)
06.01.2012 08:39 4,1 C 69 % 0,0 l/m 25,6 km/h (4 Bft) W-SW 246 53,1 km/h (7 Bft)
06.01.2012 08:40 4,2 C 69 % 0,0 l/m 34,6 km/h (5 Bft) NW 312 59,5 km/h (7 Bft)
06.01.2012 08:41 4,2 C 69 % 0,0 l/m 24,5 km/h (4 Bft) O-NO 60 46,7 km/h (6 Bft)
06.01.2012 08:42 4,2 C 69 % 0,0 l/m 26,6 km/h (4 Bft) W 262 45,1 km/h (6 Bft)
06.01.2012 08:43 4,2 C 69 % 0,0 l/m 34,1 km/h (5 Bft) W-SW 243 59,5 km/h (7 Bft)
06.01.2012 08:44 4,2 C 69 % 0,0 l/m 26,8 km/h (4 Bft) W-NW 293 40,2 km/h (6 Bft)
06.01.2012 08:45 4,2 C 69 % 0,0 l/m 22,2 km/h (4 Bft) W-SW 242 33,8 km/h (5 Bft)
06.01.2012 08:46 4,2 C 69 % 0,0 l/m 32,8 km/h (5 Bft) W 270 46,7 km/h (6 Bft)
06.01.2012 08:47 4,2 C 69 % 0,0 l/m 31,2 km/h (5 Bft) S-SW 207 51,5 km/h (7 Bft)
06.01.2012 08:48 4,2 C 68 % 0,0 l/m 42,2 km/h (6 Bft) W-NW 300 56,3 km/h (7 Bft)
06.01.2012 08:49 4,2 C 68 % 0,0 l/m 32,9 km/h (5 Bft) SW 224 49,9 km/h (6 Bft)
06.01.2012 08:50 4,2 C 68 % 0,0 l/m 20,6 km/h (4 Bft) NW 315 33,8 km/h (5 Bft)
06.01.2012 08:51 4,2 C 68 % 0,0 l/m 33,6 km/h (5 Bft) W 264 53,1 km/h (7 Bft)
06.01.2012 08:52 4,3 C 68 % 0,0 l/m 28,6 km/h (4 Bft) SO 129 64,4 km/h (8 Bft)
06.01.2012 08:53 4,3 C 68 % 0,0 l/m 32,9 km/h (5 Bft) W 260 61,2 km/h (7 Bft)
06.01.2012 08:54 4,3 C 68 % 0,0 l/m 41,8 km/h (6 Bft) W 280 67,6 km/h (8 Bft)
06.01.2012 08:55 4,3 C 68 % 0,0 l/m 34,1 km/h (5 Bft) W-NW 283 67,6 km/h (8 Bft)
06.01.2012 08:56 4,4 C 68 % 0,0 l/m 25,8 km/h (4 Bft) W 263 40,2 km/h (6 Bft)
06.01.2012 08:57 4,4 C 68 % 0,0 l/m 32,2 km/h (5 Bft) SW 221 57,9 km/h (7 Bft)
06.01.2012 08:58 4,4 C 67 % 0,0 l/m 30,1 km/h (5 Bft) W-NW 294 49,9 km/h (6 Bft)
06.01.2012 08:59 4,4 C 67 % 0,0 l/m 26,0 km/h (4 Bft) W-NW 295 46,7 km/h (6 Bft)
06.01.2012 09:00 4,4 C 67 % 0,0 l/m 37,6 km/h (5 Bft) W-NW 291 57,9 km/h (7 Bft)
06.01.2012 09:01 4,5 C 67 % 0,0 l/m 36,2 km/h (5 Bft) NW 312 72,4 km/h (8 Bft)
06.01.2012 09:02 4,5 C 67 % 0,0 l/m 36,5 km/h (5 Bft) W-NW 300 61,2 km/h (7 Bft)
06.01.2012 09:03 4,5 C 67 % 0,0 l/m 34,1 km/h (5 Bft) W 281 48,3 km/h (6 Bft)
06.01.2012 09:04 4,5 C 67 % 0,0 l/m 31,5 km/h (5 Bft) W-SW 245 49,9 km/h (6 Bft)
06.01.2012 09:05 4,5 C 67 % 0,0 l/m 33,6 km/h (5 Bft) W-NW 284 56,3 km/h (7 Bft)
06.01.2012 09:06 4,6 C 66 % 0,0 l/m 34,0 km/h (5 Bft) W-SW 240 51,5 km/h (7 Bft)
06.01.2012 09:07 4,6 C 67 % 0,0 l/m 28,7 km/h (4 Bft) NW 314 41,8 km/h (6 Bft)
06.01.2012 09:08 4,6 C 67 % 0,0 l/m 32,7 km/h (5 Bft) W-SW 244 49,9 km/h (6 Bft)
06.01.2012 09:09 4,6 C 67 % 0,0 l/m 27,9 km/h (4 Bft) W 264 46,7 km/h (6 Bft)
06.01.2012 09:10 4,6 C 67 % 0,0 l/m 32,3 km/h (5 Bft) N-NW 327 51,5 km/h (7 Bft)
06.01.2012 09:11 4,6 C 67 % 0,0 l/m 37,2 km/h (5 Bft) W-NW 293 57,9 km/h (7 Bft)
06.01.2012 09:12 4,6 C 67 % 0,0 l/m 27,0 km/h (4 Bft) W-NW 297 41,8 km/h (6 Bft)
06.01.2012 09:13 4,6 C 67 % 0,0 l/m 29,7 km/h (5 Bft) SW 235 54,7 km/h (7 Bft)
06.01.2012 09:14 4,6 C 67 % 0,0 l/m 30,7 km/h (5 Bft) W-SW 243 49,9 km/h (6 Bft)
06.01.2012 09:15 4,6 C 67 % 0,0 l/m 32,7 km/h (5 Bft) NW 304 53,1 km/h (7 Bft)
06.01.2012 09:16 4,7 C 67 % 0,0 l/m 28,5 km/h (4 Bft) SW 236 41,8 km/h (6 Bft)
06.01.2012 09:17 4,6 C 66 % 0,0 l/m 22,8 km/h (4 Bft) W-NW 297 37,0 km/h (5 Bft)
06.01.2012 09:18 4,7 C 67 % 0,0 l/m 20,5 km/h (4 Bft) W 276 29,0 km/h (5 Bft)
06.01.2012 09:19 4,7 C 67 % 0,0 l/m 34,5 km/h (5 Bft) W 277 49,9 km/h (6 Bft)
06.01.2012 09:20 4,7 C 67 % 0,0 l/m 30,3 km/h (5 Bft) W-NW 297 45,1 km/h (6 Bft)
06.01.2012 09:21 4,7 C 67 % 0,0 l/m 29,0 km/h (5 Bft) W-NW 300 53,1 km/h (7 Bft)
06.01.2012 09:22 4,7 C 66 % 0,0 l/m 29,9 km/h (5 Bft) S-SO 149 48,3 km/h (6 Bft)
06.01.2012 09:23 4,7 C 66 % 0,0 l/m 22,5 km/h (4 Bft) NW 321 40,2 km/h (6 Bft)
06.01.2012 09:24 4,8 C 66 % 0,0 l/m 28,6 km/h (4 Bft) NO 39 43,5 km/h (6 Bft)
06.01.2012 09:25 4,8 C 66 % 0,0 l/m 22,1 km/h (4 Bft) W-NW 300 38,6 km/h (5 Bft)
06.01.2012 09:26 4,8 C 66 % 0,0 l/m 33,0 km/h (5 Bft) NW 304 56,3 km/h (7 Bft)
06.01.2012 09:27 4,8 C 66 % 0,0 l/m 28,5 km/h (4 Bft) N 353 40,2 km/h (6 Bft)
06.01.2012 09:28 4,8 C 66 % 0,0 l/m 22,6 km/h (4 Bft) W-NW 302 46,7 km/h (6 Bft)
06.01.2012 09:29 4,8 C 66 % 0,0 l/m 22,9 km/h (4 Bft) NW 321 37,0 km/h (5 Bft)
06.01.2012 09:30 4,8 C 66 % 0,0 l/m 19,1 km/h (3 Bft) W-NW 289 37,0 km/h (5 Bft)
06.01.2012 09:31 4,8 C 66 % 0,0 l/m 23,5 km/h (4 Bft) W-NW 289 35,4 km/h (5 Bft)
06.01.2012 09:32 4,8 C 66 % 0,0 l/m 18,9 km/h (3 Bft) W-SW 238 29,0 km/h (5 Bft)
06.01.2012 09:33 4,8 C 65 % 0,0 l/m 24,9 km/h (4 Bft) NW 318 45,1 km/h (6 Bft)
06.01.2012 09:34 4,9 C 65 % 0,0 l/m 31,0 km/h (5 Bft) W-NW 300 46,7 km/h (6 Bft)
06.01.2012 09:35 4,9 C 65 % 0,0 l/m 29,1 km/h (5 Bft) W-NW 295 38,6 km/h (5 Bft)
06.01.2012 09:36 4,9 C 65 % 0,0 l/m 24,1 km/h (4 Bft) W 281 38,6 km/h (5 Bft)
06.01.2012 09:37 4,9 C 65 % 0,0 l/m 32,6 km/h (5 Bft) N-NW 330 51,5 km/h (7 Bft)
06.01.2012 09:38 4,9 C 65 % 0,0 l/m 19,2 km/h (3 Bft) N 354 32,2 km/h (5 Bft)
06.01.2012 09:39 5,0 C 65 % 0,0 l/m 25,3 km/h (4 Bft) NW 312 56,3 km/h (7 Bft)
06.01.2012 09:40 5,1 C 64 % 0,0 l/m 39,4 km/h (6 Bft) S 188 59,5 km/h (7 Bft)
06.01.2012 09:41 5,1 C 63 % 0,0 l/m 32,9 km/h (5 Bft) NW 304 51,5 km/h (7 Bft)
06.01.2012 09:42 5,1 C 64 % 0,0 l/m 29,3 km/h (5 Bft) NW 305 40,2 km/h (6 Bft)
06.01.2012 09:43 5,1 C 64 % 0,0 l/m 26,6 km/h (4 Bft) W-NW 294 57,9 km/h (7 Bft)
06.01.2012 09:44 5,2 C 63 % 0,0 l/m 34,4 km/h (5 Bft) W 260 56,3 km/h (7 Bft)
06.01.2012 09:45 5,2 C 64 % 0,0 l/m 22,1 km/h (4 Bft) NW 307 37,0 km/h (5 Bft)
06.01.2012 09:46 5,2 C 64 % 0,0 l/m 25,1 km/h (4 Bft) W-NW 301 37,0 km/h (5 Bft)
06.01.2012 09:47 5,2 C 64 % 0,0 l/m 25,1 km/h (4 Bft) N-NW 330 37,0 km/h (5 Bft)
06.01.2012 09:48 5,2 C 63 % 0,0 l/m 35,4 km/h (5 Bft) O 101 59,5 km/h (7 Bft)
06.01.2012 09:49 5,2 C 64 % 0,0 l/m 28,0 km/h (4 Bft) SW 225 43,5 km/h (6 Bft)
06.01.2012 09:50 5,2 C 64 % 0,0 l/m 17,1 km/h (3 Bft) NO 50 30,6 km/h (5 Bft)
06.01.2012 09:51 5,2 C 64 % 0,0 l/m 28,6 km/h (4 Bft) NW 326 41,8 km/h (6 Bft)
06.01.2012 09:52 5,3 C 64 % 0,0 l/m 28,6 km/h (4 Bft) NW 314 48,3 km/h (6 Bft)
06.01.2012 09:53 5,3 C 63 % 0,0 l/m 33,2 km/h (5 Bft) W 276 54,7 km/h (7 Bft)
06.01.2012 09:54 5,3 C 63 % 0,0 l/m 23,0 km/h (4 Bft) SW 224 37,0 km/h (5 Bft)
06.01.2012 09:55 5,3 C 63 % 0,0 l/m 17,8 km/h (3 Bft) W 260 32,2 km/h (5 Bft)
06.01.2012 09:56 5,3 C 64 % 0,0 l/m 22,8 km/h (4 Bft) W-SW 242 38,6 km/h (5 Bft)
06.01.2012 09:57 5,3 C 63 % 0,0 l/m 29,0 km/h (5 Bft) W 271 43,5 km/h (6 Bft)
06.01.2012 09:58 5,3 C 63 % 0,0 l/m 28,5 km/h (4 Bft) S 188 49,9 km/h (6 Bft)
06.01.2012 09:59 5,3 C 63 % 0,0 l/m 38,4 km/h (5 Bft) N-NW 329 49,9 km/h (6 Bft)
06.01.2012 10:00 5,3 C 62 % 0,0 l/m 36,1 km/h (5 Bft) W-NW 289 54,7 km/h (7 Bft)
06.01.2012 10:01 5,3 C 62 % 0,0 l/m 39,3 km/h (6 Bft) W-NW 293 56,3 km/h (7 Bft)
06.01.2012 10:02 5,3 C 62 % 0,0 l/m 35,9 km/h (5 Bft) W 265 66,0 km/h (8 Bft)
06.01.2012 10:03 5,3 C 62 % 0,0 l/m 43,8 km/h (6 Bft) W-NW 293 67,6 km/h (8 Bft)
06.01.2012 10:04 5,3 C 62 % 0,0 l/m 35,3 km/h (5 Bft) W 281 59,5 km/h (7 Bft)
06.01.2012 10:05 5,3 C 62 % 0,0 l/m 36,4 km/h (5 Bft) W-NW 299 56,3 km/h (7 Bft)
06.01.2012 10:06 5,4 C 62 % 0,0 l/m 34,2 km/h (5 Bft) W-NW 291 46,7 km/h (6 Bft)
06.01.2012 10:07 5,4 C 62 % 0,0 l/m 28,7 km/h (4 Bft) NW 312 53,1 km/h (7 Bft)
06.01.2012 10:08 5,4 C 62 % 0,0 l/m 43,8 km/h (6 Bft) W-NW 297 61,2 km/h (7 Bft)
06.01.2012 10:09 5,4 C 62 % 0,0 l/m 37,1 km/h (5 Bft) W-NW 295 66,0 km/h (8 Bft)
06.01.2012 10:10 5,4 C 62 % 0,0 l/m 31,0 km/h (5 Bft) W-NW 284 46,7 km/h (6 Bft)
06.01.2012 10:11 5,4 C 62 % 0,0 l/m 33,2 km/h (5 Bft) NW 312 56,3 km/h (7 Bft)
06.01.2012 10:12 5,4 C 62 % 0,0 l/m 42,7 km/h (6 Bft) W 273 62,8 km/h (8 Bft)
06.01.2012 10:13 5,4 C 62 % 0,0 l/m 46,0 km/h (6 Bft) W-NW 298 69,2 km/h (8 Bft)
06.01.2012 10:14 5,4 C 61 % 0,0 l/m 32,0 km/h (5 Bft) S-SW 213 59,5 km/h (7 Bft)
06.01.2012 10:15 5,4 C 61 % 0,0 l/m 38,0 km/h (5 Bft) W-NW 293 57,9 km/h (7 Bft)
06.01.2012 10:16 5,4 C 62 % 0,0 l/m 33,4 km/h (5 Bft) W-NW 295 45,1 km/h (6 Bft)
06.01.2012 10:17 5,4 C 62 % 0,0 l/m 27,0 km/h (4 Bft) W-NW 295 46,7 km/h (6 Bft)
06.01.2012 10:18 5,4 C 62 % 0,0 l/m 28,8 km/h (4 Bft) W-SW 257 46,7 km/h (6 Bft)
06.01.2012 10:19 5,4 C 62 % 0,0 l/m 39,2 km/h (6 Bft) W-NW 302 59,5 km/h (7 Bft)
06.01.2012 10:20 5,4 C 62 % 0,0 l/m 31,6 km/h (5 Bft) W-NW 291 54,7 km/h (7 Bft)
06.01.2012 10:21 5,5 C 62 % 0,0 l/m 36,7 km/h (5 Bft) W-SW 253 51,5 km/h (7 Bft)
06.01.2012 10:22 5,5 C 61 % 0,0 l/m 38,3 km/h (5 Bft) W-NW 300 66,0 km/h (8 Bft)
06.01.2012 10:23 5,4 C 61 % 0,0 l/m 43,2 km/h (6 Bft) NW 326 59,5 km/h (7 Bft)
06.01.2012 10:24 5,4 C 62 % 0,0 l/m 33,3 km/h (5 Bft) W-NW 283 54,7 km/h (7 Bft)
06.01.2012 10:25 5,4 C 62 % 0,0 l/m 37,8 km/h (5 Bft) W-NW 290 59,5 km/h (7 Bft)
06.01.2012 10:26 5,4 C 62 % 0,0 l/m 31,2 km/h (5 Bft) W 260 54,7 km/h (7 Bft)
06.01.2012 10:27 5,4 C 62 % 0,0 l/m 27,4 km/h (4 Bft) W-SW 249 48,3 km/h (6 Bft)
06.01.2012 10:28 5,5 C 62 % 0,0 l/m 31,5 km/h (5 Bft) NW 310 46,7 km/h (6 Bft)
06.01.2012 10:29 5,5 C 62 % 0,0 l/m 36,2 km/h (5 Bft) W-NW 300 53,1 km/h (7 Bft)
06.01.2012 10:30 5,5 C 62 % 0,0 l/m 28,2 km/h (4 Bft) NW 314 48,3 km/h (6 Bft)
06.01.2012 10:31 5,5 C 62 % 0,0 l/m 27,8 km/h (4 Bft) W-NW 293 43,5 km/h (6 Bft)
06.01.2012 10:32 5,6 C 62 % 0,0 l/m 21,7 km/h (4 Bft) W-NW 289 46,7 km/h (6 Bft)
06.01.2012 10:33 5,6 C 62 % 0,0 l/m 24,4 km/h (4 Bft) W-NW 291 48,3 km/h (6 Bft)
06.01.2012 10:34 5,6 C 61 % 0,0 l/m 41,0 km/h (6 Bft) NW 308 67,6 km/h (8 Bft)
06.01.2012 10:35 5,6 C 62 % 0,0 l/m 24,2 km/h (4 Bft) W-NW 282 45,1 km/h (6 Bft)
06.01.2012 10:36 5,6 C 62 % 0,0 l/m 30,2 km/h (5 Bft) NO 56 51,5 km/h (7 Bft)
06.01.2012 10:37 5,6 C 62 % 0,0 l/m 37,0 km/h (5 Bft) W-SW 250 77,2 km/h (9 Bft)
06.01.2012 10:38 5,6 C 61 % 0,0 l/m 39,2 km/h (6 Bft) W 260 54,7 km/h (7 Bft)
06.01.2012 10:39 5,6 C 61 % 0,0 l/m 29,4 km/h (5 Bft) W 267 67,6 km/h (8 Bft)
06.01.2012 10:40 5,6 C 61 % 0,0 l/m 32,7 km/h (5 Bft) W-SW 254 53,1 km/h (7 Bft)
06.01.2012 10:41 5,6 C 61 % 0,0 l/m 36,3 km/h (5 Bft) W-SW 252 54,7 km/h (7 Bft)
06.01.2012 10:42 5,7 C 61 % 0,0 l/m 26,5 km/h (4 Bft) SW 214 43,5 km/h (6 Bft)
06.01.2012 10:43 5,7 C 61 % 0,0 l/m 27,3 km/h (4 Bft) W 273 54,7 km/h (7 Bft)
06.01.2012 10:44 5,7 C 61 % 0,0 l/m 33,4 km/h (5 Bft) W-NW 295 53,1 km/h (7 Bft)
06.01.2012 10:45 5,7 C 60 % 0,0 l/m 36,1 km/h (5 Bft) W-SW 248 54,7 km/h (7 Bft)
06.01.2012 10:46 5,7 C 60 % 0,0 l/m 41,1 km/h (6 Bft) W 281 67,6 km/h (8 Bft)
06.01.2012 10:47 5,7 C 60 % 0,0 l/m 33,1 km/h (5 Bft) NW 325 49,9 km/h (6 Bft)
06.01.2012 10:48 5,7 C 61 % 0,0 l/m 31,7 km/h (5 Bft) SW 224 48,3 km/h (6 Bft)
06.01.2012 10:49 5,7 C 61 % 0,0 l/m 24,8 km/h (4 Bft) W-NW 284 40,2 km/h (6 Bft)
06.01.2012 10:50 5,8 C 60 % 0,0 l/m 35,5 km/h (5 Bft) W-NW 298 62,8 km/h (8 Bft)
06.01.2012 10:51 5,8 C 60 % 0,0 l/m 34,9 km/h (5 Bft) W-NW 295 66,0 km/h (8 Bft)
06.01.2012 10:52 5,8 C 60 % 0,0 l/m 30,3 km/h (5 Bft) N-NW 328 53,1 km/h (7 Bft)
06.01.2012 10:53 5,8 C 60 % 0,0 l/m 26,6 km/h (4 Bft) W-SW 255 43,5 km/h (6 Bft)
06.01.2012 10:54 5,8 C 61 % 0,0 l/m 25,1 km/h (4 Bft) W-NW 289 46,7 km/h (6 Bft)
06.01.2012 10:55 5,9 C 60 % 0,0 l/m 28,5 km/h (4 Bft) W 279 69,2 km/h (8 Bft)
06.01.2012 10:56 5,9 C 60 % 0,0 l/m 31,8 km/h (5 Bft) W-SW 256 46,7 km/h (6 Bft)
06.01.2012 10:57 5,9 C 60 % 0,0 l/m 41,0 km/h (6 Bft) W-SW 258 69,2 km/h (8 Bft)
06.01.2012 10:58 5,9 C 60 % 0,0 l/m 37,6 km/h (5 Bft) W-NW 297 59,5 km/h (7 Bft)
06.01.2012 10:59 5,9 C 60 % 0,0 l/m 25,4 km/h (4 Bft) W-NW 283 43,5 km/h (6 Bft)
06.01.2012 11:00 5,9 C 60 % 0,0 l/m 26,8 km/h (4 Bft) W 271 41,8 km/h (6 Bft)
06.01.2012 11:01 5,9 C 60 % 0,0 l/m 26,6 km/h (4 Bft) W-NW 294 49,9 km/h (6 Bft)
06.01.2012 11:02 5,9 C 60 % 0,0 l/m 29,8 km/h (5 Bft) W-NW 284 53,1 km/h (7 Bft)
06.01.2012 11:03 5,9 C 60 % 0,0 l/m 32,6 km/h (5 Bft) W 280 48,3 km/h (6 Bft)
06.01.2012 11:04 5,9 C 60 % 0,0 l/m 35,5 km/h (5 Bft) W-NW 299 54,7 km/h (7 Bft)
06.01.2012 11:05 5,9 C 60 % 0,0 l/m 39,9 km/h (6 Bft) W-NW 299 69,2 km/h (8 Bft)
06.01.2012 11:06 5,9 C 59 % 0,0 l/m 41,4 km/h (6 Bft) NW 312 62,8 km/h (8 Bft)
06.01.2012 11:07 5,9 C 60 % 0,0 l/m 31,0 km/h (5 Bft) W-SW 255 66,0 km/h (8 Bft)
06.01.2012 11:08 5,9 C 60 % 0,0 l/m 25,5 km/h (4 Bft) S-SW 208 49,9 km/h (6 Bft)
06.01.2012 11:09 5,9 C 60 % 0,0 l/m 45,7 km/h (6 Bft) NW 312 67,6 km/h (8 Bft)
06.01.2012 11:10 5,9 C 60 % 0,0 l/m 28,2 km/h (4 Bft) W-NW 298 54,7 km/h (7 Bft)
06.01.2012 11:11 5,9 C 60 % 0,0 l/m 29,5 km/h (5 Bft) W-NW 300 48,3 km/h (6 Bft)
06.01.2012 11:12 5,9 C 60 % 0,0 l/m 42,6 km/h (6 Bft) W-NW 288 62,8 km/h (8 Bft)
06.01.2012 11:13 5,9 C 60 % 0,0 l/m 34,6 km/h (5 Bft) W-NW 283 61,2 km/h (7 Bft)
06.01.2012 11:14 5,9 C 60 % 0,0 l/m 52,4 km/h (7 Bft) W-NW 290 75,6 km/h (9 Bft)
06.01.2012 11:15 5,9 C 60 % 0,0 l/m 31,7 km/h (5 Bft) NW 308 56,3 km/h (7 Bft)
06.01.2012 11:16 5,9 C 60 % 0,0 l/m 45,1 km/h (6 Bft) W 274 69,2 km/h (8 Bft)
06.01.2012 11:17 5,9 C 60 % 0,0 l/m 35,3 km/h (5 Bft) W-NW 298 49,9 km/h (6 Bft)
06.01.2012 11:18 5,9 C 61 % 0,0 l/m 24,9 km/h (4 Bft) N 5 43,5 km/h (6 Bft)
06.01.2012 11:19 5,9 C 61 % 0,0 l/m 36,5 km/h (5 Bft) W-NW 291 53,1 km/h (7 Bft)
06.01.2012 11:20 5,9 C 60 % 0,0 l/m 43,1 km/h (6 Bft) W-NW 302 62,8 km/h (8 Bft)
06.01.2012 11:21 5,9 C 60 % 0,0 l/m 39,7 km/h (6 Bft) NW 323 54,7 km/h (7 Bft)
06.01.2012 11:22 6,0 C 61 % 0,0 l/m 33,8 km/h (5 Bft) W-SW 255 57,9 km/h (7 Bft)
06.01.2012 11:23 6,0 C 60 % 0,0 l/m 25,1 km/h (4 Bft) N 360 49,9 km/h (6 Bft)
06.01.2012 11:24 6,0 C 60 % 0,0 l/m 35,6 km/h (5 Bft) W-SW 250 82,1 km/h (9 Bft)
06.01.2012 11:25 6,0 C 60 % 0,0 l/m 31,8 km/h (5 Bft) W 278 46,7 km/h (6 Bft)
06.01.2012 11:26 6,0 C 60 % 0,0 l/m 37,0 km/h (5 Bft) W-NW 300 54,7 km/h (7 Bft)
06.01.2012 11:27 6,0 C 60 % 0,0 l/m 23,0 km/h (4 Bft) SW 222 43,5 km/h (6 Bft)
06.01.2012 11:28 6,1 C 60 % 0,0 l/m 37,1 km/h (5 Bft) W-NW 295 67,6 km/h (8 Bft)
06.01.2012 11:29 6,1 C 60 % 0,0 l/m 33,2 km/h (5 Bft) NW 314 48,3 km/h (6 Bft)
06.01.2012 11:30 6,1 C 60 % 0,0 l/m 31,7 km/h (5 Bft) W 281 41,8 km/h (6 Bft)
06.01.2012 11:31 6,1 C 60 % 0,0 l/m 29,9 km/h (5 Bft) NW 312 56,3 km/h (7 Bft)
06.01.2012 11:32 6,1 C 59 % 0,0 l/m 42,5 km/h (6 Bft) W-NW 285 66,0 km/h (8 Bft)
06.01.2012 11:33 6,1 C 59 % 0,0 l/m 41,9 km/h (6 Bft) W-NW 283 57,9 km/h (7 Bft)
06.01.2012 11:34 6,1 C 59 % 0,0 l/m 42,2 km/h (6 Bft) NW 305 66,0 km/h (8 Bft)
06.01.2012 11:35 6,1 C 59 % 0,0 l/m 35,9 km/h (5 Bft) NW 317 53,1 km/h (7 Bft)
06.01.2012 11:36 6,1 C 59 % 0,0 l/m 33,7 km/h (5 Bft) W-NW 299 59,5 km/h (7 Bft)
06.01.2012 11:37 6,2 C 59 % 0,0 l/m 41,0 km/h (6 Bft) N-NO 13 77,2 km/h (9 Bft)
06.01.2012 11:38 6,2 C 59 % 0,0 l/m 43,1 km/h (6 Bft) W-NW 285 57,9 km/h (7 Bft)
06.01.2012 11:39 6,2 C 58 % 0,0 l/m 35,3 km/h (5 Bft) NW 305 59,5 km/h (7 Bft)
06.01.2012 11:40 6,2 C 58 % 0,0 l/m 25,0 km/h (4 Bft) W-NW 300 49,9 km/h (6 Bft)
06.01.2012 11:41 6,2 C 59 % 0,0 l/m 32,8 km/h (5 Bft) W 271 53,1 km/h (7 Bft)
06.01.2012 11:42 6,2 C 59 % 0,0 l/m 36,2 km/h (5 Bft) W-NW 287 54,7 km/h (7 Bft)
06.01.2012 11:43 6,2 C 59 % 0,0 l/m 35,7 km/h (5 Bft) W-NW 297 51,5 km/h (7 Bft)
06.01.2012 11:44 6,2 C 59 % 0,0 l/m 39,0 km/h (6 Bft) W 277 59,5 km/h (7 Bft)
06.01.2012 11:45 6,2 C 60 % 0,0 l/m 33,9 km/h (5 Bft) NW 316 49,9 km/h (6 Bft)
06.01.2012 11:46 6,2 C 60 % 0,0 l/m 24,7 km/h (4 Bft) NW 309 40,2 km/h (6 Bft)
06.01.2012 11:47 6,3 C 60 % 0,0 l/m 28,2 km/h (4 Bft) W-NW 297 45,1 km/h (6 Bft)
06.01.2012 11:48 6,3 C 60 % 0,0 l/m 31,7 km/h (5 Bft) W-SW 257 56,3 km/h (7 Bft)
06.01.2012 11:49 6,3 C 60 % 0,0 l/m 41,5 km/h (6 Bft) NW 304 61,2 km/h (7 Bft)
06.01.2012 11:50 6,3 C 60 % 0,0 l/m 29,9 km/h (5 Bft) W 260 66,0 km/h (8 Bft)
06.01.2012 11:51 6,3 C 60 % 0,0 l/m 32,7 km/h (5 Bft) W-NW 284 56,3 km/h (7 Bft)
06.01.2012 11:52 6,3 C 60 % 0,0 l/m 28,1 km/h (4 Bft) W 281 45,1 km/h (6 Bft)
06.01.2012 11:53 6,3 C 60 % 0,0 l/m 35,4 km/h (5 Bft) NW 311 48,3 km/h (6 Bft)
06.01.2012 11:54 6,4 C 61 % 0,0 l/m 24,8 km/h (4 Bft) W-NW 294 41,8 km/h (6 Bft)
06.01.2012 11:55 6,4 C 61 % 0,0 l/m 25,5 km/h (4 Bft) W-NW 300 43,5 km/h (6 Bft)
06.01.2012 11:56 6,4 C 61 % 0,0 l/m 25,5 km/h (4 Bft) W-NW 291 43,5 km/h (6 Bft)
06.01.2012 11:57 6,4 C 60 % 0,0 l/m 39,6 km/h (6 Bft) W 278 62,8 km/h (8 Bft)
06.01.2012 11:58 6,4 C 59 % 0,0 l/m 40,8 km/h (6 Bft) W-NW 291 56,3 km/h (7 Bft)
06.01.2012 11:59 6,4 C 60 % 0,0 l/m 36,9 km/h (5 Bft) W-SW 243 53,1 km/h (7 Bft)
06.01.2012 12:00 6,4 C 60 % 0,0 l/m 27,7 km/h (4 Bft) S-SO 153 53,1 km/h (7 Bft)
06.01.2012 12:01 6,3 C 60 % 0,0 l/m 38,7 km/h (5 Bft) W 266 69,2 km/h (8 Bft)
06.01.2012 12:02 6,3 C 60 % 0,0 l/m 29,2 km/h (5 Bft) W 274 49,9 km/h (6 Bft)
06.01.2012 12:03 6,4 C 60 % 0,0 l/m 31,0 km/h (5 Bft) W-NW 295 56,3 km/h (7 Bft)
06.01.2012 12:04 6,3 C 60 % 0,0 l/m 37,2 km/h (5 Bft) NW 312 49,9 km/h (6 Bft)
06.01.2012 12:05 6,3 C 60 % 0,0 l/m 40,3 km/h (6 Bft) W-NW 283 61,2 km/h (7 Bft)
06.01.2012 12:06 6,3 C 60 % 0,0 l/m 27,5 km/h (4 Bft) W 276 37,0 km/h (5 Bft)
06.01.2012 12:07 6,3 C 60 % 0,0 l/m 21,9 km/h (4 Bft) N-NW 338 38,6 km/h (5 Bft)
06.01.2012 12:08 6,3 C 60 % 0,0 l/m 32,0 km/h (5 Bft) NW 321 46,7 km/h (6 Bft)
06.01.2012 12:09 6,3 C 60 % 0,0 l/m 34,8 km/h (5 Bft) W-NW 295 54,7 km/h (7 Bft)
06.01.2012 12:10 6,3 C 60 % 0,0 l/m 29,6 km/h (5 Bft) W-NW 287 41,8 km/h (6 Bft)
06.01.2012 12:11 6,4 C 61 % 0,0 l/m 27,3 km/h (4 Bft) NW 319 45,1 km/h (6 Bft)
06.01.2012 12:12 6,4 C 61 % 0,0 l/m 34,0 km/h (5 Bft) NW 311 46,7 km/h (6 Bft)
06.01.2012 12:13 6,4 C 60 % 0,0 l/m 27,0 km/h (4 Bft) W-NW 287 61,2 km/h (7 Bft)
06.01.2012 12:14 6,4 C 60 % 0,0 l/m 42,4 km/h (6 Bft) N 5 61,2 km/h (7 Bft)
06.01.2012 12:15 6,4 C 59 % 0,0 l/m 39,3 km/h (6 Bft) W-NW 290 59,5 km/h (7 Bft)
06.01.2012 12:16 6,4 C 59 % 0,0 l/m 35,8 km/h (5 Bft) W-NW 291 59,5 km/h (7 Bft)
06.01.2012 12:17 6,4 C 59 % 0,0 l/m 44,2 km/h (6 Bft) W-NW 287 70,8 km/h (8 Bft)
06.01.2012 12:18 6,3 C 58 % 0,0 l/m 43,8 km/h (6 Bft) O 94 72,4 km/h (8 Bft)
06.01.2012 12:19 6,3 C 59 % 0,0 l/m 41,1 km/h (6 Bft) NW 312 61,2 km/h (7 Bft)
06.01.2012 12:20 6,3 C 59 % 0,0 l/m 44,1 km/h (6 Bft) W-NW 287 64,4 km/h (8 Bft)
06.01.2012 12:21 6,3 C 59 % 0,0 l/m 37,0 km/h (5 Bft) W-NW 297 56,3 km/h (7 Bft)
06.01.2012 12:22 6,3 C 59 % 0,0 l/m 33,7 km/h (5 Bft) W 280 45,1 km/h (6 Bft)
06.01.2012 12:23 6,3 C 59 % 0,0 l/m 32,1 km/h (5 Bft) NW 304 45,1 km/h (6 Bft)
06.01.2012 12:24 6,3 C 60 % 0,0 l/m 39,9 km/h (6 Bft) W-NW 285 51,5 km/h (7 Bft)
06.01.2012 12:25 6,3 C 59 % 0,0 l/m 31,8 km/h (5 Bft) W-NW 285 49,9 km/h (6 Bft)
06.01.2012 12:26 6,3 C 60 % 0,0 l/m 28,1 km/h (4 Bft) W-NW 295 40,2 km/h (6 Bft)
06.01.2012 12:27 6,4 C 60 % 0,0 l/m 41,6 km/h (6 Bft) W-SW 248 56,3 km/h (7 Bft)
06.01.2012 12:28 6,4 C 60 % 0,0 l/m 37,9 km/h (5 Bft) W-NW 284 49,9 km/h (6 Bft)
06.01.2012 12:29 6,4 C 60 % 0,0 l/m 37,2 km/h (5 Bft) W-NW 295 56,3 km/h (7 Bft)
06.01.2012 12:30 6,4 C 60 % 0,0 l/m 41,6 km/h (6 Bft) W-NW 301 57,9 km/h (7 Bft)
06.01.2012 12:31 6,4 C 60 % 0,0 l/m 27,7 km/h (4 Bft) W-NW 284 56,3 km/h (7 Bft)
06.01.2012 12:32 6,4 C 60 % 0,0 l/m 34,9 km/h (5 Bft) NW 316 49,9 km/h (6 Bft)
06.01.2012 12:33 6,3 C 59 % 0,0 l/m 35,9 km/h (5 Bft) W-SW 253 48,3 km/h (6 Bft)
06.01.2012 12:34 6,3 C 60 % 0,0 l/m 25,3 km/h (4 Bft) W-SW 256 45,1 km/h (6 Bft)
06.01.2012 12:35 6,4 C 60 % 0,0 l/m 22,0 km/h (4 Bft) NW 316 35,4 km/h (5 Bft)
06.01.2012 12:36 6,4 C 60 % 0,0 l/m 35,4 km/h (5 Bft) NW 307 61,2 km/h (7 Bft)
06.01.2012 12:37 6,4 C 60 % 0,0 l/m 36,5 km/h (5 Bft) W 278 54,7 km/h (7 Bft)
06.01.2012 12:38 6,4 C 60 % 0,0 l/m 33,4 km/h (5 Bft) N-NW 332 56,3 km/h (7 Bft)
06.01.2012 12:39 6,3 C 59 % 0,0 l/m 36,7 km/h (5 Bft) W-NW 290 53,1 km/h (7 Bft)
06.01.2012 12:40 6,3 C 60 % 0,0 l/m 25,0 km/h (4 Bft) W-NW 288 41,8 km/h (6 Bft)
06.01.2012 12:41 6,3 C 60 % 0,0 l/m 33,8 km/h (5 Bft) W-NW 297 53,1 km/h (7 Bft)
06.01.2012 12:42 6,3 C 59 % 0,0 l/m 52,1 km/h (7 Bft) W-NW 284 72,4 km/h (8 Bft)
06.01.2012 12:43 6,2 C 59 % 0,0 l/m 44,1 km/h (6 Bft) W-NW 297 66,0 km/h (8 Bft)
06.01.2012 12:44 6,2 C 60 % 0,0 l/m 41,4 km/h (6 Bft) W-NW 290 57,9 km/h (7 Bft)
06.01.2012 12:45 6,2 C 60 % 0,0 l/m 33,5 km/h (5 Bft) N-NO 32 46,7 km/h (6 Bft)
06.01.2012 12:46 6,3 C 60 % 0,0 l/m 49,4 km/h (6 Bft) W 266 75,6 km/h (9 Bft)
06.01.2012 12:47 6,3 C 60 % 0,0 l/m 37,8 km/h (5 Bft) W 273 64,4 km/h (8 Bft)
06.01.2012 12:48 6,3 C 60 % 0,0 l/m 38,7 km/h (5 Bft) W 270 66,0 km/h (8 Bft)
06.01.2012 12:49 6,3 C 60 % 0,0 l/m 42,8 km/h (6 Bft) W-NW 289 56,3 km/h (7 Bft)
06.01.2012 12:50 6,3 C 60 % 0,0 l/m 35,1 km/h (5 Bft) W-NW 287 61,2 km/h (7 Bft)
06.01.2012 12:51 6,3 C 60 % 0,0 l/m 38,2 km/h (5 Bft) N-NW 339 53,1 km/h (7 Bft)
06.01.2012 12:52 6,3 C 61 % 0,0 l/m 36,5 km/h (5 Bft) W-NW 300 69,2 km/h (8 Bft)
06.01.2012 12:53 6,3 C 61 % 0,0 l/m 40,1 km/h (6 Bft) W-NW 301 51,5 km/h (7 Bft)
06.01.2012 12:54 6,3 C 60 % 0,0 l/m 42,6 km/h (6 Bft) W-NW 293 57,9 km/h (7 Bft)
06.01.2012 12:55 6,3 C 61 % 0,0 l/m 42,8 km/h (6 Bft) W 274 59,5 km/h (7 Bft)
06.01.2012 12:56 6,4 C 61 % 0,0 l/m 30,8 km/h (5 Bft) N-NW 337 48,3 km/h (6 Bft)
06.01.2012 12:57 6,4 C 61 % 0,0 l/m 34,0 km/h (5 Bft) O-NO 58 59,5 km/h (7 Bft)
06.01.2012 12:58 6,4 C 61 % 0,0 l/m 34,0 km/h (5 Bft) NW 326 45,1 km/h (6 Bft)
06.01.2012 12:59 6,4 C 61 % 0,0 l/m 28,7 km/h (4 Bft) W 280 48,3 km/h (6 Bft)
06.01.2012 13:00 6,4 C 61 % 0,0 l/m 35,0 km/h (5 Bft) W-NW 293 57,9 km/h (7 Bft)
06.01.2012 13:01 6,4 C 61 % 0,0 l/m 27,6 km/h (4 Bft) W-NW 300 53,1 km/h (7 Bft)
06.01.2012 13:02 6,4 C 61 % 0,0 l/m 26,7 km/h (4 Bft) W 260 49,9 km/h (6 Bft)
06.01.2012 13:03 6,4 C 61 % 0,0 l/m 31,8 km/h (5 Bft) W-NW 293 49,9 km/h (6 Bft)
06.01.2012 13:04 6,4 C 61 % 0,0 l/m 34,4 km/h (5 Bft) SW 215 48,3 km/h (6 Bft)
06.01.2012 13:05 6,4 C 62 % 0,0 l/m 19,4 km/h (3 Bft) N 5 41,8 km/h (6 Bft)
06.01.2012 13:06 6,4 C 62 % 0,0 l/m 18,5 km/h (3 Bft) W-NW 297 41,8 km/h (6 Bft)
06.01.2012 13:07 6,5 C 62 % 0,0 l/m 32,4 km/h (5 Bft) W-NW 284 45,1 km/h (6 Bft)
06.01.2012 13:08 6,5 C 61 % 0,0 l/m 25,2 km/h (4 Bft) W-NW 297 43,5 km/h (6 Bft)
06.01.2012 13:09 6,5 C 62 % 0,0 l/m 29,0 km/h (5 Bft) W-NW 297 49,9 km/h (6 Bft)
06.01.2012 13:10 6,5 C 60 % 0,0 l/m 38,5 km/h (5 Bft) NW 306 59,5 km/h (7 Bft)
06.01.2012 13:11 6,5 C 61 % 0,0 l/m 33,0 km/h (5 Bft) W-NW 298 54,7 km/h (7 Bft)
06.01.2012 13:12 6,5 C 61 % 0,0 l/m 33,7 km/h (5 Bft) W-NW 293 54,7 km/h (7 Bft)
06.01.2012 13:13 6,4 C 60 % 0,0 l/m 44,8 km/h (6 Bft) W 270 66,0 km/h (8 Bft)
06.01.2012 13:14 6,4 C 60 % 0,0 l/m 32,0 km/h (5 Bft) W-NW 297 53,1 km/h (7 Bft)
06.01.2012 13:15 6,4 C 60 % 0,0 l/m 34,1 km/h (5 Bft) W 274 59,5 km/h (7 Bft)
06.01.2012 13:16 6,4 C 60 % 0,0 l/m 36,4 km/h (5 Bft) NW 307 45,1 km/h (6 Bft)
06.01.2012 13:17 6,4 C 60 % 0,0 l/m 41,1 km/h (6 Bft) W-NW 295 72,4 km/h (8 Bft)
06.01.2012 13:18 6,4 C 61 % 0,0 l/m 32,1 km/h (5 Bft) W-SW 250 48,3 km/h (6 Bft)
06.01.2012 13:19 6,4 C 60 % 0,0 l/m 35,8 km/h (5 Bft) W-NW 286 53,1 km/h (7 Bft)
06.01.2012 13:20 6,4 C 60 % 0,0 l/m 41,2 km/h (6 Bft) W 269 66,0 km/h (8 Bft)
06.01.2012 13:21 6,4 C 60 % 0,0 l/m 39,7 km/h (6 Bft) W-NW 284 57,9 km/h (7 Bft)
06.01.2012 13:22 6,3 C 60 % 0,0 l/m 47,1 km/h (6 Bft) W-NW 285 82,1 km/h (9 Bft)
06.01.2012 13:23 6,3 C 60 % 0,0 l/m 45,2 km/h (6 Bft) W-NW 288 69,2 km/h (8 Bft)
06.01.2012 13:24 6,3 C 61 % 0,0 l/m 41,1 km/h (6 Bft) W-NW 288 53,1 km/h (7 Bft)
06.01.2012 13:25 6,3 C 61 % 0,0 l/m 43,1 km/h (6 Bft) W-NW 301 62,8 km/h (8 Bft)
06.01.2012 13:26 6,3 C 60 % 0,0 l/m 45,8 km/h (6 Bft) W 263 67,6 km/h (8 Bft)
06.01.2012 13:27 6,3 C 60 % 0,0 l/m 41,9 km/h (6 Bft) W 264 66,0 km/h (8 Bft)
06.01.2012 13:28 6,3 C 61 % 0,0 l/m 31,2 km/h (5 Bft) W-NW 288 49,9 km/h (6 Bft)
06.01.2012 13:29 6,3 C 61 % 0,0 l/m 40,2 km/h (6 Bft) W-NW 300 61,2 km/h (7 Bft)
06.01.2012 13:30 6,3 C 61 % 0,0 l/m 37,3 km/h (5 Bft) W-NW 291 53,1 km/h (7 Bft)
06.01.2012 13:31 6,3 C 61 % 0,0 l/m 33,0 km/h (5 Bft) W-NW 293 54,7 km/h (7 Bft)
06.01.2012 13:32 6,3 C 62 % 0,0 l/m 28,5 km/h (4 Bft) W-NW 295 40,2 km/h (6 Bft)
06.01.2012 13:33 6,4 C 62 % 0,0 l/m 29,5 km/h (5 Bft) W-NW 293 38,6 km/h (5 Bft)
06.01.2012 13:34 6,4 C 61 % 0,0 l/m 29,5 km/h (5 Bft) W 281 46,7 km/h (6 Bft)
06.01.2012 13:35 6,4 C 61 % 0,0 l/m 30,2 km/h (5 Bft) SW 219 53,1 km/h (7 Bft)
06.01.2012 13:36 6,4 C 61 % 0,0 l/m 20,8 km/h (4 Bft) W 281 40,2 km/h (6 Bft)
06.01.2012 13:37 6,5 C 61 % 0,0 l/m 28,7 km/h (4 Bft) N 4 40,2 km/h (6 Bft)
06.01.2012 13:38 6,5 C 61 % 0,0 l/m 24,2 km/h (4 Bft) O 83 33,8 km/h (5 Bft)
06.01.2012 13:39 6,5 C 61 % 0,0 l/m 41,3 km/h (6 Bft) W-NW 284 59,5 km/h (7 Bft)
06.01.2012 13:40 6,4 C 60 % 0,0 l/m 31,2 km/h (5 Bft) W-NW 303 38,6 km/h (5 Bft)
06.01.2012 13:41 6,4 C 61 % 0,0 l/m 30,5 km/h (5 Bft) W-NW 285 45,1 km/h (6 Bft)
06.01.2012 13:42 6,4 C 60 % 0,0 l/m 40,4 km/h (6 Bft) N-NW 340 62,8 km/h (8 Bft)
06.01.2012 13:43 6,4 C 61 % 0,0 l/m 37,9 km/h (5 Bft) NW 304 61,2 km/h (7 Bft)
06.01.2012 13:44 6,4 C 60 % 0,0 l/m 40,6 km/h (6 Bft) W-NW 290 54,7 km/h (7 Bft)
06.01.2012 13:45 6,4 C 60 % 0,0 l/m 41,8 km/h (6 Bft) N-NW 335 59,5 km/h (7 Bft)
06.01.2012 13:46 6,4 C 60 % 0,0 l/m 30,5 km/h (5 Bft) NW 305 49,9 km/h (6 Bft)
06.01.2012 13:47 6,4 C 60 % 0,0 l/m 34,5 km/h (5 Bft) W-NW 300 49,9 km/h (6 Bft)
06.01.2012 13:48 6,4 C 60 % 0,0 l/m 36,5 km/h (5 Bft) W-NW 295 53,1 km/h (7 Bft)
06.01.2012 13:49 6,4 C 60 % 0,0 l/m 36,7 km/h (5 Bft) W-NW 301 61,2 km/h (7 Bft)
06.01.2012 13:50 6,4 C 60 % 0,0 l/m 44,5 km/h (6 Bft) W-NW 299 64,4 km/h (8 Bft)
06.01.2012 13:51 6,4 C 59 % 0,0 l/m 53,7 km/h (7 Bft) W-NW 298 72,4 km/h (8 Bft)
06.01.2012 13:52 6,4 C 60 % 0,0 l/m 38,3 km/h (5 Bft) NW 305 59,5 km/h (7 Bft)
06.01.2012 13:53 6,4 C 60 % 0,0 l/m 38,5 km/h (5 Bft) W 259 62,8 km/h (8 Bft)
06.01.2012 13:54 6,4 C 60 % 0,0 l/m 44,4 km/h (6 Bft) W-NW 301 62,8 km/h (8 Bft)
06.01.2012 13:55 6,4 C 60 % 0,0 l/m 37,8 km/h (5 Bft) W-NW 290 56,3 km/h (7 Bft)
06.01.2012 13:56 6,4 C 60 % 0,0 l/m 36,9 km/h (5 Bft) W-NW 298 49,9 km/h (6 Bft)
06.01.2012 13:57 6,3 C 60 % 0,0 l/m 43,5 km/h (6 Bft) W 271 67,6 km/h (8 Bft)
06.01.2012 13:58 6,4 C 60 % 0,0 l/m 38,0 km/h (5 Bft) NW 321 59,5 km/h (7 Bft)
06.01.2012 13:59 6,4 C 60 % 0,0 l/m 39,5 km/h (6 Bft) W-SW 248 61,2 km/h (7 Bft)
06.01.2012 14:00 6,4 C 60 % 0,0 l/m 46,8 km/h (6 Bft) W-NW 295 77,2 km/h (9 Bft)
06.01.2012 14:01 6,4 C 60 % 0,0 l/m 28,8 km/h (4 Bft) W 261 61,2 km/h (7 Bft)
06.01.2012 14:02 6,4 C 60 % 0,0 l/m 36,0 km/h (5 Bft) NW 312 53,1 km/h (7 Bft)
06.01.2012 14:03 6,4 C 60 % 0,0 l/m 45,3 km/h (6 Bft) W-NW 295 57,9 km/h (7 Bft)
06.01.2012 14:04 6,4 C 61 % 0,0 l/m 33,5 km/h (5 Bft) W-NW 290 49,9 km/h (6 Bft)
06.01.2012 14:05 6,4 C 61 % 0,0 l/m 35,5 km/h (5 Bft) W-NW 301 48,3 km/h (6 Bft)
06.01.2012 14:06 6,4 C 61 % 0,0 l/m 33,6 km/h (5 Bft) NW 305 61,2 km/h (7 Bft)
06.01.2012 14:07 6,4 C 61 % 0,0 l/m 30,8 km/h (5 Bft) W-NW 295 45,1 km/h (6 Bft)
06.01.2012 14:08 6,4 C 61 % 0,0 l/m 37,0 km/h (5 Bft) W-NW 293 54,7 km/h (7 Bft)
06.01.2012 14:09 6,4 C 61 % 0,0 l/m 29,6 km/h (5 Bft) W-SW 243 48,3 km/h (6 Bft)
06.01.2012 14:10 6,4 C 61 % 0,0 l/m 35,3 km/h (5 Bft) W-NW 297 49,9 km/h (6 Bft)
06.01.2012 14:11 6,4 C 61 % 0,0 l/m 35,9 km/h (5 Bft) NW 321 53,1 km/h (7 Bft)
06.01.2012 14:12 6,4 C 61 % 0,0 l/m 47,4 km/h (6 Bft) NW 305 62,8 km/h (8 Bft)
06.01.2012 14:13 6,4 C 61 % 0,0 l/m 38,6 km/h (5 Bft) W-NW 295 56,3 km/h (7 Bft)
06.01.2012 14:14 6,4 C 61 % 0,0 l/m 34,9 km/h (5 Bft) NW 309 51,5 km/h (7 Bft)
06.01.2012 14:15 6,4 C 61 % 0,0 l/m 37,6 km/h (5 Bft) NW 305 54,7 km/h (7 Bft)
06.01.2012 14:16 6,4 C 61 % 0,0 l/m 34,4 km/h (5 Bft) W-NW 295 49,9 km/h (6 Bft)
06.01.2012 14:17 6,4 C 61 % 0,0 l/m 40,9 km/h (6 Bft) W-NW 300 61,2 km/h (7 Bft)
06.01.2012 14:18 6,4 C 61 % 0,0 l/m 32,6 km/h (5 Bft) W-NW 284 46,7 km/h (6 Bft)
06.01.2012 14:19 6,4 C 61 % 0,0 l/m 46,5 km/h (6 Bft) W-NW 285 64,4 km/h (8 Bft)
06.01.2012 14:20 6,4 C 60 % 0,0 l/m 45,3 km/h (6 Bft) W 281 61,2 km/h (7 Bft)
06.01.2012 14:21 6,4 C 60 % 0,0 l/m 43,5 km/h (6 Bft) W 281 59,5 km/h (7 Bft)
06.01.2012 14:22 6,4 C 60 % 0,0 l/m 39,4 km/h (6 Bft) NW 312 53,1 km/h (7 Bft)
06.01.2012 14:23 6,4 C 61 % 0,0 l/m 38,5 km/h (5 Bft) W-NW 293 62,8 km/h (8 Bft)
06.01.2012 14:24 6,4 C 60 % 0,0 l/m 38,5 km/h (5 Bft) W-NW 302 57,9 km/h (7 Bft)
06.01.2012 14:25 6,4 C 60 % 0,0 l/m 46,4 km/h (6 Bft) NW 314 61,2 km/h (7 Bft)
06.01.2012 14:26 6,4 C 60 % 0,0 l/m 40,6 km/h (6 Bft) W 265 57,9 km/h (7 Bft)
06.01.2012 14:27 6,4 C 60 % 0,0 l/m 30,0 km/h (5 Bft) W 274 46,7 km/h (6 Bft)
06.01.2012 14:28 6,4 C 60 % 0,0 l/m 32,5 km/h (5 Bft) W-NW 297 46,7 km/h (6 Bft)
06.01.2012 14:29 6,4 C 60 % 0,0 l/m 47,9 km/h (6 Bft) W-SW 257 66,0 km/h (8 Bft)
06.01.2012 14:30 6,3 C 60 % 0,0 l/m 31,5 km/h (5 Bft) W-NW 293 51,5 km/h (7 Bft)
06.01.2012 14:31 6,3 C 60 % 0,0 l/m 26,4 km/h (4 Bft) N-NW 329 46,7 km/h (6 Bft)
06.01.2012 14:32 6,3 C 60 % 0,0 l/m 22,0 km/h (4 Bft) W 264 33,8 km/h (5 Bft)
06.01.2012 14:33 6,4 C 60 % 0,0 l/m 41,2 km/h (6 Bft) NW 305 59,5 km/h (7 Bft)
06.01.2012 14:34 6,4 C 60 % 0,0 l/m 37,4 km/h (5 Bft) O 101 54,7 km/h (7 Bft)
06.01.2012 14:35 6,4 C 60 % 0,0 l/m 32,5 km/h (5 Bft) W-NW 302 53,1 km/h (7 Bft)
06.01.2012 14:36 6,4 C 59 % 0,0 l/m 52,0 km/h (7 Bft) W 274 64,4 km/h (8 Bft)
06.01.2012 14:37 6,4 C 59 % 0,0 l/m 37,9 km/h (5 Bft) NW 312 56,3 km/h (7 Bft)
06.01.2012 14:38 6,4 C 59 % 0,0 l/m 48,0 km/h (6 Bft) W-NW 283 67,6 km/h (8 Bft)
06.01.2012 14:39 6,4 C 59 % 0,0 l/m 39,7 km/h (6 Bft) W-NW 291 57,9 km/h (7 Bft)
06.01.2012 14:40 6,4 C 59 % 0,0 l/m 30,6 km/h (5 Bft) NO 43 49,9 km/h (6 Bft)
06.01.2012 14:41 6,4 C 59 % 0,0 l/m 29,2 km/h (5 Bft) W-NW 298 51,5 km/h (7 Bft)
06.01.2012 14:42 6,4 C 59 % 0,0 l/m 29,1 km/h (5 Bft) NW 304 45,1 km/h (6 Bft)
06.01.2012 14:43 6,4 C 58 % 0,0 l/m 40,4 km/h (6 Bft) N-NO 30 49,9 km/h (6 Bft)
06.01.2012 14:44 6,4 C 58 % 0,0 l/m 36,3 km/h (5 Bft) W 280 48,3 km/h (6 Bft)
06.01.2012 14:45 6,4 C 58 % 0,0 l/m 29,1 km/h (5 Bft) W-NW 294 40,2 km/h (6 Bft)
06.01.2012 14:46 6,4 C 58 % 0,0 l/m 35,5 km/h (5 Bft) W-NW 294 48,3 km/h (6 Bft)
06.01.2012 14:47 6,4 C 58 % 0,0 l/m 38,3 km/h (5 Bft) W-NW 288 51,5 km/h (7 Bft)
06.01.2012 14:48 6,4 C 59 % 0,0 l/m 21,3 km/h (4 Bft) SW 229 33,8 km/h (5 Bft)
06.01.2012 14:49 6,4 C 59 % 0,0 l/m 25,0 km/h (4 Bft) NW 312 45,1 km/h (6 Bft)
06.01.2012 14:50 6,4 C 59 % 0,0 l/m 26,6 km/h (4 Bft) W-NW 301 43,5 km/h (6 Bft)
06.01.2012 14:51 6,4 C 59 % 0,0 l/m 27,2 km/h (4 Bft) W-NW 303 38,6 km/h (5 Bft)
06.01.2012 14:52 6,4 C 59 % 0,0 l/m 20,7 km/h (4 Bft) W 281 37,0 km/h (5 Bft)
06.01.2012 14:53 6,4 C 59 % 0,0 l/m 26,1 km/h (4 Bft) W-NW 284 45,1 km/h (6 Bft)
06.01.2012 14:54 6,5 C 59 % 0,0 l/m 41,0 km/h (6 Bft) W-NW 291 54,7 km/h (7 Bft)
06.01.2012 14:55 6,4 C 59 % 0,0 l/m 38,6 km/h (5 Bft) W 281 53,1 km/h (7 Bft)
06.01.2012 14:56 6,4 C 59 % 0,0 l/m 40,5 km/h (6 Bft) NW 306 57,9 km/h (7 Bft)
06.01.2012 14:57 6,4 C 59 % 0,0 l/m 38,2 km/h (5 Bft) W-NW 293 53,1 km/h (7 Bft)
06.01.2012 14:58 6,4 C 59 % 0,0 l/m 34,4 km/h (5 Bft) W-NW 284 57,9 km/h (7 Bft)
06.01.2012 14:59 6,4 C 59 % 0,0 l/m 26,8 km/h (4 Bft) W-NW 293 40,2 km/h (6 Bft)
06.01.2012 15:00 6,4 C 59 % 0,0 l/m 34,7 km/h (5 Bft) W-NW 298 51,5 km/h (7 Bft)
06.01.2012 15:01 6,4 C 60 % 0,0 l/m 30,0 km/h (5 Bft) N 353 46,7 km/h (6 Bft)
06.01.2012 15:02 6,4 C 59 % 0,0 l/m 41,0 km/h (6 Bft) W-NW 297 57,9 km/h (7 Bft)
06.01.2012 15:03 6,3 C 59 % 0,0 l/m 45,7 km/h (6 Bft) W-NW 283 56,3 km/h (7 Bft)
06.01.2012 15:04 6,3 C 59 % 0,0 l/m 32,9 km/h (5 Bft) W-NW 295 46,7 km/h (6 Bft)
06.01.2012 15:05 6,3 C 60 % 0,0 l/m 38,1 km/h (5 Bft) W-NW 298 48,3 km/h (6 Bft)
06.01.2012 15:06 6,3 C 60 % 0,0 l/m 39,2 km/h (6 Bft) W-NW 297 57,9 km/h (7 Bft)
06.01.2012 15:07 6,3 C 60 % 0,0 l/m 34,6 km/h (5 Bft) SW 235 49,9 km/h (6 Bft)
06.01.2012 15:08 6,3 C 60 % 0,0 l/m 36,8 km/h (5 Bft) W-NW 300 51,5 km/h (7 Bft)
06.01.2012 15:09 6,2 C 60 % 0,0 l/m 31,8 km/h (5 Bft) W 281 49,9 km/h (6 Bft)
06.01.2012 15:10 6,2 C 60 % 0,0 l/m 34,1 km/h (5 Bft) W 274 49,9 km/h (6 Bft)
06.01.2012 15:11 6,2 C 60 % 0,0 l/m 18,3 km/h (3 Bft) W-NW 297 27,4 km/h (4 Bft)
06.01.2012 15:12 6,2 C 60 % 0,0 l/m 25,6 km/h (4 Bft) W 278 32,2 km/h (5 Bft)
06.01.2012 15:13 6,2 C 60 % 0,0 l/m 26,3 km/h (4 Bft) W 276 41,8 km/h (6 Bft)
06.01.2012 15:14 6,2 C 59 % 0,0 l/m 21,8 km/h (4 Bft) NW 318 30,6 km/h (5 Bft)
06.01.2012 15:15 6,2 C 59 % 0,0 l/m 31,8 km/h (5 Bft) W-NW 293 51,5 km/h (7 Bft)
06.01.2012 15:16 6,2 C 59 % 0,0 l/m 22,0 km/h (4 Bft) W-NW 284 40,2 km/h (6 Bft)
06.01.2012 15:17 6,2 C 59 % 0,0 l/m 37,1 km/h (5 Bft) NW 305 46,7 km/h (6 Bft)
06.01.2012 15:18 6,2 C 58 % 0,0 l/m 33,4 km/h (5 Bft) NW 325 53,1 km/h (7 Bft)
06.01.2012 15:19 6,1 C 58 % 0,0 l/m 33,0 km/h (5 Bft) W-NW 300 51,5 km/h (7 Bft)
06.01.2012 15:20 6,1 C 58 % 0,0 l/m 38,3 km/h (5 Bft) W 276 53,1 km/h (7 Bft)
06.01.2012 15:21 6,1 C 59 % 0,0 l/m 23,5 km/h (4 Bft) W-NW 289 35,4 km/h (5 Bft)
06.01.2012 15:22 6,0 C 59 % 0,0 l/m 30,5 km/h (5 Bft) W-NW 295 45,1 km/h (6 Bft)
06.01.2012 15:23 6,0 C 59 % 0,0 l/m 25,3 km/h (4 Bft) W 263 40,2 km/h (6 Bft)
06.01.2012 15:24 5,9 C 59 % 0,0 l/m 27,4 km/h (4 Bft) NW 304 45,1 km/h (6 Bft)
06.01.2012 15:25 5,9 C 59 % 0,0 l/m 41,1 km/h (6 Bft) NW 310 56,3 km/h (7 Bft)
06.01.2012 15:26 5,9 C 59 % 0,0 l/m 39,4 km/h (6 Bft) NW 321 48,3 km/h (6 Bft)
06.01.2012 15:27 5,9 C 59 % 0,0 l/m 36,6 km/h (5 Bft) W-NW 302 49,9 km/h (6 Bft)
06.01.2012 15:28 5,9 C 60 % 0,0 l/m 22,4 km/h (4 Bft) N 1 37,0 km/h (5 Bft)
06.01.2012 15:29 5,9 C 60 % 0,0 l/m 23,1 km/h (4 Bft) W-NW 297 48,3 km/h (6 Bft)
06.01.2012 15:30 5,9 C 60 % 0,0 l/m 28,0 km/h (4 Bft) W-NW 294 46,7 km/h (6 Bft)
06.01.2012 15:31 5,9 C 60 % 0,0 l/m 26,2 km/h (4 Bft) W-NW 300 40,2 km/h (6 Bft)
06.01.2012 15:32 5,9 C 60 % 0,0 l/m 21,7 km/h (4 Bft) W-NW 285 38,6 km/h (5 Bft)
06.01.2012 15:33 5,9 C 60 % 0,0 l/m 35,2 km/h (5 Bft) NW 323 49,9 km/h (6 Bft)
06.01.2012 15:34 5,9 C 60 % 0,0 l/m 30,3 km/h (5 Bft) W 274 49,9 km/h (6 Bft)
06.01.2012 15:35 5,9 C 60 % 0,0 l/m 44,0 km/h (6 Bft) W-NW 298 62,8 km/h (8 Bft)
06.01.2012 15:36 5,9 C 60 % 0,0 l/m 29,0 km/h (5 Bft) W-NW 295 46,7 km/h (6 Bft)
06.01.2012 15:37 5,9 C 61 % 0,0 l/m 22,8 km/h (4 Bft) W 262 38,6 km/h (5 Bft)
06.01.2012 15:38 5,9 C 61 % 0,0 l/m 26,4 km/h (4 Bft) NW 317 41,8 km/h (6 Bft)
06.01.2012 15:39 5,9 C 61 % 0,0 l/m 36,9 km/h (5 Bft) W-NW 302 48,3 km/h (6 Bft)
06.01.2012 15:40 5,9 C 61 % 0,0 l/m 21,7 km/h (4 Bft) W 281 43,5 km/h (6 Bft)
06.01.2012 15:41 5,9 C 62 % 0,0 l/m 22,1 km/h (4 Bft) W 281 35,4 km/h (5 Bft)
06.01.2012 15:42 5,9 C 62 % 0,0 l/m 22,9 km/h (4 Bft) N-NO 20 35,4 km/h (5 Bft)
06.01.2012 15:43 5,9 C 62 % 0,0 l/m 25,1 km/h (4 Bft) NW 323 45,1 km/h (6 Bft)
06.01.2012 15:44 5,9 C 62 % 0,0 l/m 31,3 km/h (5 Bft) W 270 48,3 km/h (6 Bft)
06.01.2012 15:45 5,9 C 62 % 0,0 l/m 33,3 km/h (5 Bft) W-NW 297 45,1 km/h (6 Bft)
06.01.2012 15:46 5,9 C 62 % 0,0 l/m 33,2 km/h (5 Bft) NW 311 51,5 km/h (7 Bft)
06.01.2012 15:47 5,9 C 62 % 0,0 l/m 32,1 km/h (5 Bft) W 271 41,8 km/h (6 Bft)
06.01.2012 15:48 5,9 C 62 % 0,0 l/m 30,5 km/h (5 Bft) NW 305 46,7 km/h (6 Bft)
06.01.2012 15:49 5,9 C 62 % 0,0 l/m 22,0 km/h (4 Bft) S-SO 155 41,8 km/h (6 Bft)
06.01.2012 15:50 5,9 C 62 % 0,0 l/m 24,5 km/h (4 Bft) W-NW 282 41,8 km/h (6 Bft)
06.01.2012 15:51 5,9 C 62 % 0,0 l/m 32,9 km/h (5 Bft) W-NW 293 53,1 km/h (7 Bft)
06.01.2012 15:52 5,9 C 62 % 0,0 l/m 48,3 km/h (6 Bft) W-NW 287 61,2 km/h (7 Bft)
06.01.2012 15:53 5,9 C 62 % 0,0 l/m 40,9 km/h (6 Bft) W-NW 284 53,1 km/h (7 Bft)
06.01.2012 15:54 5,9 C 62 % 0,0 l/m 23,9 km/h (4 Bft) W 276 45,1 km/h (6 Bft)
06.01.2012 15:55 5,9 C 62 % 0,0 l/m 22,8 km/h (4 Bft) W-NW 285 37,0 km/h (5 Bft)
06.01.2012 15:56 5,8 C 62 % 0,0 l/m 34,4 km/h (5 Bft) NW 304 48,3 km/h (6 Bft)
06.01.2012 15:57 5,8 C 62 % 0,0 l/m 29,5 km/h (5 Bft) W-NW 300 45,1 km/h (6 Bft)
06.01.2012 15:58 5,8 C 62 % 0,0 l/m 28,1 km/h (4 Bft) NW 311 43,5 km/h (6 Bft)
06.01.2012 15:59 5,8 C 62 % 0,0 l/m 31,9 km/h (5 Bft) W 276 49,9 km/h (6 Bft)
06.01.2012 16:00 5,8 C 63 % 0,0 l/m 20,8 km/h (4 Bft) W 267 38,6 km/h (5 Bft)
06.01.2012 16:01 5,8 C 63 % 0,0 l/m 17,6 km/h (3 Bft) W-NW 289 37,0 km/h (5 Bft)
06.01.2012 16:02 5,8 C 62 % 0,0 l/m 26,7 km/h (4 Bft) SW 215 41,8 km/h (6 Bft)
06.01.2012 16:03 5,8 C 63 % 0,0 l/m 24,6 km/h (4 Bft) W-NW 295 40,2 km/h (6 Bft)
06.01.2012 16:04 5,8 C 63 % 0,0 l/m 18,4 km/h (3 Bft) N-NO 27 30,6 km/h (5 Bft)
06.01.2012 16:05 5,8 C 63 % 0,0 l/m 24,6 km/h (4 Bft) N 1 32,2 km/h (5 Bft)
06.01.2012 16:06 5,8 C 63 % 0,0 l/m 18,2 km/h (3 Bft) SW 225 33,8 km/h (5 Bft)
06.01.2012 16:07 5,8 C 63 % 0,0 l/m 23,3 km/h (4 Bft) W 262 37,0 km/h (5 Bft)
06.01.2012 16:08 5,7 C 63 % 0,0 l/m 20,9 km/h (4 Bft) W 267 33,8 km/h (5 Bft)
06.01.2012 16:09 5,7 C 63 % 0,0 l/m 18,7 km/h (3 Bft) W-NW 288 29,0 km/h (5 Bft)
06.01.2012 16:10 5,7 C 63 % 0,0 l/m 24,2 km/h (4 Bft) W 276 40,2 km/h (6 Bft)
06.01.2012 16:11 5,7 C 62 % 0,0 l/m 26,8 km/h (4 Bft) N-NO 27 35,4 km/h (5 Bft)
06.01.2012 16:12 5,7 C 63 % 0,0 l/m 16,5 km/h (3 Bft) W-NW 293 27,4 km/h (4 Bft)
06.01.2012 16:13 5,7 C 62 % 0,0 l/m 24,9 km/h (4 Bft) W-SW 253 33,8 km/h (5 Bft)
06.01.2012 16:14 5,7 C 62 % 0,0 l/m 25,3 km/h (4 Bft) NW 312 40,2 km/h (6 Bft)
06.01.2012 16:15 5,7 C 62 % 0,0 l/m 22,4 km/h (4 Bft) W-NW 287 40,2 km/h (6 Bft)
06.01.2012 16:16 5,7 C 63 % 0,0 l/m 29,5 km/h (5 Bft) W-NW 286 51,5 km/h (7 Bft)
06.01.2012 16:17 5,7 C 62 % 0,0 l/m 19,6 km/h (3 Bft) W-NW 300 33,8 km/h (5 Bft)
06.01.2012 16:18 5,6 C 63 % 0,0 l/m 21,7 km/h (4 Bft) W-SW 248 35,4 km/h (5 Bft)
06.01.2012 16:19 5,6 C 63 % 0,0 l/m 20,2 km/h (4 Bft) W-SW 256 40,2 km/h (6 Bft)
06.01.2012 16:20 5,6 C 62 % 0,0 l/m 24,3 km/h (4 Bft) W 280 35,4 km/h (5 Bft)
06.01.2012 16:21 5,6 C 62 % 0,0 l/m 21,5 km/h (4 Bft) W 280 29,0 km/h (5 Bft)
06.01.2012 16:22 5,6 C 63 % 0,0 l/m 20,1 km/h (4 Bft) W-NW 285 30,6 km/h (5 Bft)
06.01.2012 16:23 5,6 C 63 % 0,0 l/m 15,3 km/h (3 Bft) O 89 27,4 km/h (4 Bft)
06.01.2012 16:24 5,6 C 63 % 0,0 l/m 25,3 km/h (4 Bft) W-NW 294 41,8 km/h (6 Bft)
06.01.2012 16:25 5,6 C 62 % 0,0 l/m 38,1 km/h (5 Bft) W-NW 289 53,1 km/h (7 Bft)
06.01.2012 16:26 5,6 C 62 % 0,0 l/m 32,1 km/h (5 Bft) W 259 49,9 km/h (6 Bft)
06.01.2012 16:27 5,6 C 62 % 0,0 l/m 27,1 km/h (4 Bft) N 352 40,2 km/h (6 Bft)
06.01.2012 16:28 5,6 C 62 % 0,0 l/m 21,9 km/h (4 Bft) W-NW 302 35,4 km/h (5 Bft)
06.01.2012 16:29 5,6 C 62 % 0,0 l/m 20,3 km/h (4 Bft) NW 315 38,6 km/h (5 Bft)
06.01.2012 16:30 5,6 C 62 % 0,0 l/m 25,7 km/h (4 Bft) W 259 49,9 km/h (6 Bft)
06.01.2012 16:31 5,6 C 62 % 0,0 l/m 20,3 km/h (4 Bft) W-SW 253 35,4 km/h (5 Bft)
06.01.2012 16:32 5,6 C 61 % 0,0 l/m 27,8 km/h (4 Bft) NW 312 37,0 km/h (5 Bft)
06.01.2012 16:33 5,6 C 61 % 0,0 l/m 25,6 km/h (4 Bft) W-SW 239 35,4 km/h (5 Bft)
06.01.2012 16:34 5,6 C 61 % 0,0 l/m 17,9 km/h (3 Bft) NW 308 29,0 km/h (5 Bft)
06.01.2012 16:35 5,6 C 61 % 0,0 l/m 28,3 km/h (4 Bft) W 267 41,8 km/h (6 Bft)
06.01.2012 16:36 5,6 C 61 % 0,0 l/m 24,2 km/h (4 Bft) S-SW 204 35,4 km/h (5 Bft)
06.01.2012 16:37 5,5 C 61 % 0,0 l/m 20,7 km/h (4 Bft) W 264 29,0 km/h (5 Bft)
06.01.2012 16:38 5,5 C 61 % 0,0 l/m 22,9 km/h (4 Bft) W-SW 257 40,2 km/h (6 Bft)
06.01.2012 16:39 5,5 C 60 % 0,0 l/m 14,8 km/h (3 Bft) W-NW 286 27,4 km/h (4 Bft)
06.01.2012 16:40 5,5 C 60 % 0,0 l/m 21,8 km/h (4 Bft) W-NW 294 33,8 km/h (5 Bft)
06.01.2012 16:41 5,5 C 60 % 0,0 l/m 27,4 km/h (4 Bft) W-NW 300 37,0 km/h (5 Bft)
06.01.2012 16:42 5,5 C 58 % 0,0 l/m 25,1 km/h (4 Bft) NW 319 45,1 km/h (6 Bft)
06.01.2012 16:43 5,5 C 58 % 0,0 l/m 23,4 km/h (4 Bft) W-NW 295 40,2 km/h (6 Bft)
06.01.2012 16:44 5,6 C 58 % 0,0 l/m 25,2 km/h (4 Bft) W-NW 284 41,8 km/h (6 Bft)
06.01.2012 16:45 5,6 C 57 % 0,0 l/m 34,0 km/h (5 Bft) NW 305 43,5 km/h (6 Bft)
06.01.2012 16:46 5,6 C 57 % 0,0 l/m 26,0 km/h (4 Bft) W 273 37,0 km/h (5 Bft)
06.01.2012 16:47 5,5 C 58 % 0,0 l/m 24,4 km/h (4 Bft) W-NW 294 32,2 km/h (5 Bft)
06.01.2012 16:48 5,5 C 58 % 0,0 l/m 18,0 km/h (3 Bft) N 5 32,2 km/h (5 Bft)
06.01.2012 16:49 5,5 C 58 % 0,0 l/m 14,8 km/h (3 Bft) W 281 37,0 km/h (5 Bft)
06.01.2012 16:50 5,5 C 58 % 0,0 l/m 22,9 km/h (4 Bft) W-NW 287 40,2 km/h (6 Bft)
06.01.2012 16:51 5,4 C 58 % 0,0 l/m 21,8 km/h (4 Bft) W-NW 296 33,8 km/h (5 Bft)
06.01.2012 16:52 5,4 C 58 % 0,0 l/m 24,3 km/h (4 Bft) NW 314 40,2 km/h (6 Bft)
06.01.2012 16:53 5,4 C 58 % 0,0 l/m 19,4 km/h (3 Bft) W-NW 291 35,4 km/h (5 Bft)
06.01.2012 16:54 5,4 C 59 % 0,0 l/m 17,7 km/h (3 Bft) W 280 25,7 km/h (4 Bft)
06.01.2012 16:55 5,4 C 59 % 0,0 l/m 25,7 km/h (4 Bft) NW 321 35,4 km/h (5 Bft)
06.01.2012 16:56 5,4 C 59 % 0,0 l/m 30,3 km/h (5 Bft) W-NW 293 45,1 km/h (6 Bft)
06.01.2012 16:57 5,4 C 59 % 0,0 l/m 23,6 km/h (4 Bft) W-NW 284 35,4 km/h (5 Bft)
06.01.2012 16:58 5,4 C 59 % 0,0 l/m 23,0 km/h (4 Bft) SW 214 45,1 km/h (6 Bft)
06.01.2012 16:59 5,3 C 60 % 0,0 l/m 21,5 km/h (4 Bft) W-NW 297 35,4 km/h (5 Bft)
06.01.2012 17:00 5,3 C 60 % 0,0 l/m 25,8 km/h (4 Bft) NW 315 40,2 km/h (6 Bft)
06.01.2012 17:01 5,3 C 60 % 0,0 l/m 23,6 km/h (4 Bft) W-NW 294 33,8 km/h (5 Bft)
06.01.2012 17:02 5,3 C 60 % 0,0 l/m 36,4 km/h (5 Bft) W 277 46,7 km/h (6 Bft)
06.01.2012 17:03 5,3 C 60 % 0,0 l/m 34,6 km/h (5 Bft) W-NW 287 45,1 km/h (6 Bft)
06.01.2012 17:04 5,3 C 60 % 0,0 l/m 26,1 km/h (4 Bft) W-NW 297 33,8 km/h (5 Bft)
06.01.2012 17:05 5,3 C 60 % 0,0 l/m 20,8 km/h (4 Bft) W-NW 294 29,0 km/h (5 Bft)
06.01.2012 17:06 5,3 C 60 % 0,0 l/m 16,7 km/h (3 Bft) NO 43 29,0 km/h (5 Bft)
06.01.2012 17:07 5,3 C 60 % 0,0 l/m 23,1 km/h (4 Bft) W 281 37,0 km/h (5 Bft)
06.01.2012 17:08 5,2 C 60 % 0,0 l/m 19,2 km/h (3 Bft) N-NW 332 33,8 km/h (5 Bft)
06.01.2012 17:09 5,2 C 60 % 0,0 l/m 23,5 km/h (4 Bft) W-NW 288 45,1 km/h (6 Bft)
06.01.2012 17:10 5,2 C 59 % 0,0 l/m 29,7 km/h (5 Bft) NW 314 41,8 km/h (6 Bft)
06.01.2012 17:11 5,2 C 59 % 0,0 l/m 19,8 km/h (3 Bft) W-NW 285 30,6 km/h (5 Bft)
06.01.2012 17:12 5,2 C 59 % 0,0 l/m 21,8 km/h (4 Bft) NW 307 30,6 km/h (5 Bft)
06.01.2012 17:13 5,2 C 59 % 0,0 l/m 24,8 km/h (4 Bft) NW 305 38,6 km/h (5 Bft)
06.01.2012 17:14 5,2 C 59 % 0,0 l/m 18,2 km/h (3 Bft) W-NW 285 29,0 km/h (5 Bft)
06.01.2012 17:15 5,2 C 58 % 0,0 l/m 24,6 km/h (4 Bft) W-NW 288 32,2 km/h (5 Bft)
06.01.2012 17:16 5,2 C 58 % 0,0 l/m 24,4 km/h (4 Bft) W-NW 295 35,4 km/h (5 Bft)
06.01.2012 17:17 5,2 C 58 % 0,0 l/m 24,7 km/h (4 Bft) NW 305 35,4 km/h (5 Bft)
06.01.2012 17:18 5,2 C 58 % 0,0 l/m 25,0 km/h (4 Bft) W-NW 294 37,0 km/h (5 Bft)
06.01.2012 17:19 5,2 C 58 % 0,0 l/m 28,4 km/h (4 Bft) W-NW 297 41,8 km/h (6 Bft)
06.01.2012 17:20 5,2 C 58 % 0,0 l/m 25,5 km/h (4 Bft) W 277 38,6 km/h (5 Bft)
06.01.2012 17:21 5,2 C 57 % 0,0 l/m 28,5 km/h (4 Bft) W-NW 300 38,6 km/h (5 Bft)
06.01.2012 17:22 5,2 C 57 % 0,0 l/m 21,1 km/h (4 Bft) N-NW 328 32,2 km/h (5 Bft)
06.01.2012 17:23 5,2 C 57 % 0,0 l/m 27,7 km/h (4 Bft) W-NW 298 45,1 km/h (6 Bft)
06.01.2012 17:24 5,2 C 57 % 0,0 l/m 28,5 km/h (4 Bft) W-NW 293 43,5 km/h (6 Bft)
06.01.2012 17:25 5,2 C 56 % 0,0 l/m 26,0 km/h (4 Bft) O-NO 57 41,8 km/h (6 Bft)
06.01.2012 17:26 5,2 C 56 % 0,0 l/m 21,1 km/h (4 Bft) W-NW 284 33,8 km/h (5 Bft)
06.01.2012 17:27 5,2 C 57 % 0,0 l/m 23,3 km/h (4 Bft) W-NW 298 35,4 km/h (5 Bft)
06.01.2012 17:28 5,2 C 57 % 0,0 l/m 22,8 km/h (4 Bft) W-NW 293 27,4 km/h (4 Bft)
06.01.2012 17:29 5,2 C 56 % 0,0 l/m 15,7 km/h (3 Bft) W-NW 286 25,7 km/h (4 Bft)
06.01.2012 17:30 5,1 C 56 % 0,0 l/m 20,1 km/h (4 Bft) W-NW 297 40,2 km/h (6 Bft)
06.01.2012 17:31 5,1 C 55 % 0,0 l/m 26,4 km/h (4 Bft) NW 308 33,8 km/h (5 Bft)
06.01.2012 17:32 5,2 C 54 % 0,0 l/m 34,9 km/h (5 Bft) W-NW 300 48,3 km/h (6 Bft)
06.01.2012 17:33 5,2 C 54 % 0,0 l/m 29,7 km/h (5 Bft) W-NW 290 40,2 km/h (6 Bft)
06.01.2012 17:34 5,2 C 54 % 0,0 l/m 20,4 km/h (4 Bft) W-NW 297 38,6 km/h (5 Bft)
06.01.2012 17:35 5,2 C 53 % 0,0 l/m 33,1 km/h (5 Bft) W-NW 294 45,1 km/h (6 Bft)
06.01.2012 17:36 5,3 C 52 % 0,0 l/m 36,7 km/h (5 Bft) W-SW 256 48,3 km/h (6 Bft)
06.01.2012 17:37 5,3 C 52 % 0,0 l/m 23,2 km/h (4 Bft) NW 305 33,8 km/h (5 Bft)
06.01.2012 17:38 5,3 C 52 % 0,0 l/m 24,7 km/h (4 Bft) W-NW 297 51,5 km/h (7 Bft)
06.01.2012 17:39 5,3 C 51 % 0,0 l/m 32,3 km/h (5 Bft) N-NO 13 48,3 km/h (6 Bft)
06.01.2012 17:40 5,3 C 51 % 0,0 l/m 23,8 km/h (4 Bft) N-NW 330 38,6 km/h (5 Bft)
06.01.2012 17:41 5,3 C 51 % 0,0 l/m 19,8 km/h (3 Bft) N 349 29,0 km/h (5 Bft)
06.01.2012 17:42 5,3 C 51 % 0,0 l/m 26,8 km/h (4 Bft) W-NW 287 38,6 km/h (5 Bft)
06.01.2012 17:43 5,3 C 51 % 0,0 l/m 29,9 km/h (5 Bft) W-NW 285 56,3 km/h (7 Bft)
06.01.2012 17:44 5,3 C 51 % 0,0 l/m 19,1 km/h (3 Bft) N-NW 329 48,3 km/h (6 Bft)
06.01.2012 17:45 5,3 C 51 % 0,0 l/m 28,5 km/h (4 Bft) NW 325 43,5 km/h (6 Bft)
06.01.2012 17:46 5,3 C 51 % 0,0 l/m 26,2 km/h (4 Bft) NO 36 41,8 km/h (6 Bft)
06.01.2012 17:47 5,3 C 51 % 0,0 l/m 32,8 km/h (5 Bft) W 269 46,7 km/h (6 Bft)
06.01.2012 17:48 5,3 C 51 % 0,0 l/m 27,2 km/h (4 Bft) W-NW 302 54,7 km/h (7 Bft)
06.01.2012 17:49 5,3 C 50 % 0,0 l/m 43,8 km/h (6 Bft) W-NW 293 66,0 km/h (8 Bft)
06.01.2012 17:50 5,3 C 50 % 0,0 l/m 28,9 km/h (5 Bft) W-NW 302 45,1 km/h (6 Bft)
06.01.2012 17:51 5,3 C 51 % 0,0 l/m 28,2 km/h (4 Bft) N-NW 336 38,6 km/h (5 Bft)
06.01.2012 17:52 5,3 C 51 % 0,0 l/m 41,6 km/h (6 Bft) W-NW 295 62,8 km/h (8 Bft)
06.01.2012 17:53 5,3 C 51 % 0,0 l/m 28,2 km/h (4 Bft) N 351 53,1 km/h (7 Bft)
06.01.2012 17:54 5,3 C 51 % 0,0 l/m 27,8 km/h (4 Bft) NW 312 45,1 km/h (6 Bft)
06.01.2012 17:55 5,3 C 51 % 0,0 l/m 23,6 km/h (4 Bft) W 280 43,5 km/h (6 Bft)
06.01.2012 17:56 5,3 C 51 % 0,0 l/m 31,0 km/h (5 Bft) SW 233 45,1 km/h (6 Bft)
06.01.2012 17:57 5,3 C 51 % 0,0 l/m 27,4 km/h (4 Bft) W-NW 297 46,7 km/h (6 Bft)
06.01.2012 17:58 5,3 C 51 % 0,0 l/m 38,8 km/h (5 Bft) W-NW 290 57,9 km/h (7 Bft)
06.01.2012 17:59 5,3 C 51 % 0,0 l/m 29,3 km/h (5 Bft) N-NW 333 43,5 km/h (6 Bft)
06.01.2012 18:00 5,3 C 51 % 0,0 l/m 29,2 km/h (5 Bft) NW 322 43,5 km/h (6 Bft)
06.01.2012 18:01 5,3 C 51 % 0,0 l/m 26,0 km/h (4 Bft) N-NW 347 49,9 km/h (6 Bft)
06.01.2012 18:02 5,3 C 51 % 0,0 l/m 31,2 km/h (5 Bft) W 278 46,7 km/h (6 Bft)
06.01.2012 18:03 5,3 C 51 % 0,0 l/m 35,4 km/h (5 Bft) W-NW 290 48,3 km/h (6 Bft)
06.01.2012 18:04 5,3 C 51 % 0,0 l/m 27,0 km/h (4 Bft) W-NW 302 53,1 km/h (7 Bft)
06.01.2012 18:05 5,3 C 51 % 0,0 l/m 34,3 km/h (5 Bft) W 264 56,3 km/h (7 Bft)
06.01.2012 18:06 5,3 C 51 % 0,0 l/m 32,7 km/h (5 Bft) NW 313 51,5 km/h (7 Bft)
06.01.2012 18:07 5,3 C 51 % 0,0 l/m 35,3 km/h (5 Bft) NW 309 54,7 km/h (7 Bft)
06.01.2012 18:08 5,3 C 51 % 0,0 l/m 27,8 km/h (4 Bft) W-NW 302 40,2 km/h (6 Bft)
06.01.2012 18:09 5,3 C 52 % 0,0 l/m 37,2 km/h (5 Bft) W-NW 302 49,9 km/h (6 Bft)
06.01.2012 18:10 5,2 C 52 % 0,0 l/m 21,9 km/h (4 Bft) W-NW 288 33,8 km/h (5 Bft)
06.01.2012 18:11 5,2 C 52 % 0,0 l/m 28,5 km/h (4 Bft) W-NW 300 43,5 km/h (6 Bft)
06.01.2012 18:12 5,2 C 52 % 0,0 l/m 30,1 km/h (5 Bft) N-NW 338 43,5 km/h (6 Bft)
06.01.2012 18:13 5,2 C 52 % 0,0 l/m 27,8 km/h (4 Bft) N-NO 15 48,3 km/h (6 Bft)
06.01.2012 18:14 5,2 C 52 % 0,0 l/m 29,1 km/h (5 Bft) W 276 41,8 km/h (6 Bft)
06.01.2012 18:15 5,2 C 51 % 0,0 l/m 34,9 km/h (5 Bft) NW 325 45,1 km/h (6 Bft)
06.01.2012 18:16 5,2 C 51 % 0,0 l/m 28,1 km/h (4 Bft) NO 44 43,5 km/h (6 Bft)
06.01.2012 18:17 5,2 C 52 % 0,0 l/m 31,9 km/h (5 Bft) W-NW 293 45,1 km/h (6 Bft)
06.01.2012 18:18 5,2 C 52 % 0,0 l/m 31,4 km/h (5 Bft) W-NW 297 45,1 km/h (6 Bft)
06.01.2012 18:19 5,2 C 52 % 0,0 l/m 30,9 km/h (5 Bft) W-NW 291 45,1 km/h (6 Bft)
06.01.2012 18:20 5,1 C 52 % 0,0 l/m 29,1 km/h (5 Bft) W-NW 300 40,2 km/h (6 Bft)
06.01.2012 18:21 5,1 C 52 % 0,0 l/m 24,9 km/h (4 Bft) NW 315 41,8 km/h (6 Bft)
06.01.2012 18:22 5,1 C 52 % 0,0 l/m 41,2 km/h (6 Bft) NW 309 49,9 km/h (6 Bft)
06.01.2012 18:23 5,1 C 52 % 0,0 l/m 30,7 km/h (5 Bft) W-NW 285 48,3 km/h (6 Bft)
06.01.2012 18:24 5,1 C 52 % 0,0 l/m 34,8 km/h (5 Bft) SW 225 59,5 km/h (7 Bft)
06.01.2012 18:25 5,1 C 52 % 0,0 l/m 25,5 km/h (4 Bft) W-SW 253 46,7 km/h (6 Bft)
06.01.2012 18:26 5,1 C 51 % 0,0 l/m 32,0 km/h (5 Bft) NW 319 40,2 km/h (6 Bft)
06.01.2012 18:27 5,1 C 52 % 0,0 l/m 28,4 km/h (4 Bft) W-NW 299 49,9 km/h (6 Bft)
06.01.2012 18:28 5,1 C 52 % 0,0 l/m 36,3 km/h (5 Bft) NW 321 54,7 km/h (7 Bft)
06.01.2012 18:29 5,1 C 52 % 0,0 l/m 33,2 km/h (5 Bft) W-NW 297 45,1 km/h (6 Bft)
06.01.2012 18:30 5,1 C 52 % 0,0 l/m 29,0 km/h (5 Bft) W-NW 293 49,9 km/h (6 Bft)
06.01.2012 18:31 5,1 C 52 % 0,0 l/m 31,7 km/h (5 Bft) W-NW 302 49,9 km/h (6 Bft)
06.01.2012 18:32 5,1 C 52 % 0,0 l/m 27,2 km/h (4 Bft) W-NW 287 46,7 km/h (6 Bft)
06.01.2012 18:33 5,0 C 52 % 0,0 l/m 32,9 km/h (5 Bft) SW 226 46,7 km/h (6 Bft)
06.01.2012 18:34 5,0 C 52 % 0,0 l/m 37,8 km/h (5 Bft) NW 313 54,7 km/h (7 Bft)
06.01.2012 18:35 5,0 C 52 % 0,0 l/m 29,5 km/h (5 Bft) W-NW 293 48,3 km/h (6 Bft)
06.01.2012 18:36 4,9 C 53 % 0,0 l/m 33,0 km/h (5 Bft) W-SW 243 48,3 km/h (6 Bft)
06.01.2012 18:37 4,9 C 52 % 0,0 l/m 39,0 km/h (6 Bft) W 276 54,7 km/h (7 Bft)
06.01.2012 18:38 4,9 C 52 % 0,0 l/m 33,3 km/h (5 Bft) W-NW 291 46,7 km/h (6 Bft)
06.01.2012 18:39 4,9 C 52 % 0,0 l/m 33,3 km/h (5 Bft) NW 322 51,5 km/h (7 Bft)
06.01.2012 18:40 4,9 C 52 % 0,0 l/m 21,1 km/h (4 Bft) NW 317 32,2 km/h (5 Bft)
06.01.2012 18:41 4,9 C 53 % 0,0 l/m 25,7 km/h (4 Bft) W 262 41,8 km/h (6 Bft)
06.01.2012 18:42 4,9 C 53 % 0,0 l/m 30,2 km/h (5 Bft) W-NW 293 54,7 km/h (7 Bft)
06.01.2012 18:43 4,9 C 53 % 0,0 l/m 25,4 km/h (4 Bft) NW 326 41,8 km/h (6 Bft)
06.01.2012 18:44 4,8 C 53 % 0,0 l/m 30,4 km/h (5 Bft) NW 317 45,1 km/h (6 Bft)
06.01.2012 18:45 4,8 C 53 % 0,0 l/m 34,7 km/h (5 Bft) W-NW 301 49,9 km/h (6 Bft)
06.01.2012 18:46 4,8 C 53 % 0,0 l/m 29,2 km/h (5 Bft) N-NW 340 38,6 km/h (5 Bft)
06.01.2012 18:47 4,8 C 53 % 0,0 l/m 25,2 km/h (4 Bft) W-NW 297 40,2 km/h (6 Bft)
06.01.2012 18:48 4,8 C 53 % 0,0 l/m 28,0 km/h (4 Bft) N-NW 329 49,9 km/h (6 Bft)
06.01.2012 18:49 4,7 C 54 % 0,0 l/m 24,8 km/h (4 Bft) W-NW 284 40,2 km/h (6 Bft)
06.01.2012 18:50 4,7 C 54 % 0,0 l/m 20,9 km/h (4 Bft) W 269 41,8 km/h (6 Bft)
06.01.2012 18:51 4,7 C 54 % 0,0 l/m 27,3 km/h (4 Bft) SO 139 45,1 km/h (6 Bft)
06.01.2012 18:52 4,7 C 54 % 0,0 l/m 24,2 km/h (4 Bft) W-NW 295 40,2 km/h (6 Bft)
06.01.2012 18:53 4,7 C 54 % 0,0 l/m 25,4 km/h (4 Bft) W-NW 293 40,2 km/h (6 Bft)
06.01.2012 18:54 4,7 C 54 % 0,0 l/m 24,2 km/h (4 Bft) W-SW 239 33,8 km/h (5 Bft)
06.01.2012 18:55 4,7 C 54 % 0,0 l/m 30,7 km/h (5 Bft) NW 313 51,5 km/h (7 Bft)
06.01.2012 18:56 4,7 C 54 % 0,0 l/m 35,6 km/h (5 Bft) N-NW 329 49,9 km/h (6 Bft)
06.01.2012 18:57 4,7 C 54 % 0,0 l/m 27,0 km/h (4 Bft) W-NW 295 45,1 km/h (6 Bft)
06.01.2012 18:58 4,6 C 54 % 0,0 l/m 34,6 km/h (5 Bft) W-NW 284 56,3 km/h (7 Bft)
06.01.2012 18:59 4,7 C 54 % 0,0 l/m 29,5 km/h (5 Bft) W-NW 293 40,2 km/h (6 Bft)
06.01.2012 19:00 4,7 C 54 % 0,0 l/m 30,9 km/h (5 Bft) NW 305 40,2 km/h (6 Bft)
06.01.2012 19:01 4,6 C 54 % 0,0 l/m 30,0 km/h (5 Bft) N-NW 331 40,2 km/h (6 Bft)
06.01.2012 19:02 4,6 C 54 % 0,0 l/m 23,6 km/h (4 Bft) NW 322 37,0 km/h (5 Bft)
06.01.2012 19:03 4,6 C 54 % 0,0 l/m 23,8 km/h (4 Bft) W-NW 297 35,4 km/h (5 Bft)
06.01.2012 19:04 4,6 C 54 % 0,0 l/m 33,6 km/h (5 Bft) W-NW 293 45,1 km/h (6 Bft)
06.01.2012 19:05 4,6 C 54 % 0,0 l/m 33,0 km/h (5 Bft) W-NW 300 51,5 km/h (7 Bft)
06.01.2012 19:06 4,6 C 54 % 0,0 l/m 18,3 km/h (3 Bft) NW 312 33,8 km/h (5 Bft)
06.01.2012 19:07 4,6 C 54 % 0,0 l/m 23,7 km/h (4 Bft) NW 321 38,6 km/h (5 Bft)
06.01.2012 19:08 4,6 C 54 % 0,0 l/m 20,3 km/h (4 Bft) W 280 30,6 km/h (5 Bft)
06.01.2012 19:09 4,6 C 54 % 0,0 l/m 27,4 km/h (4 Bft) N-NW 345 40,2 km/h (6 Bft)
06.01.2012 19:10 4,6 C 54 % 0,0 l/m 28,7 km/h (4 Bft) NW 314 43,5 km/h (6 Bft)
06.01.2012 19:11 4,6 C 54 % 0,0 l/m 33,5 km/h (5 Bft) NW 312 53,1 km/h (7 Bft)
06.01.2012 19:12 4,6 C 54 % 0,0 l/m 29,2 km/h (5 Bft) W-NW 295 40,2 km/h (6 Bft)
06.01.2012 19:13 4,6 C 54 % 0,0 l/m 29,1 km/h (5 Bft) NW 307 45,1 km/h (6 Bft)
06.01.2012 19:14 4,6 C 54 % 0,0 l/m 25,9 km/h (4 Bft) W-NW 297 37,0 km/h (5 Bft)
06.01.2012 19:15 4,6 C 54 % 0,0 l/m 27,3 km/h (4 Bft) W-NW 302 53,1 km/h (7 Bft)
06.01.2012 19:16 4,6 C 54 % 0,0 l/m 38,9 km/h (6 Bft) NW 309 51,5 km/h (7 Bft)
06.01.2012 19:17 4,6 C 54 % 0,0 l/m 36,5 km/h (5 Bft) W-NW 300 46,7 km/h (6 Bft)
06.01.2012 19:18 4,6 C 54 % 0,0 l/m 32,7 km/h (5 Bft) W-NW 301 49,9 km/h (6 Bft)
06.01.2012 19:19 4,6 C 54 % 0,0 l/m 25,9 km/h (4 Bft) W-NW 300 48,3 km/h (6 Bft)
06.01.2012 19:20 4,6 C 54 % 0,0 l/m 37,2 km/h (5 Bft) W-NW 291 48,3 km/h (6 Bft)
06.01.2012 19:21 4,6 C 54 % 0,0 l/m 26,8 km/h (4 Bft) NW 312 37,0 km/h (5 Bft)
06.01.2012 19:22 4,6 C 54 % 0,0 l/m 19,4 km/h (3 Bft) W 269 32,2 km/h (5 Bft)
06.01.2012 19:23 4,5 C 55 % 0,0 l/m 28,6 km/h (4 Bft) SO 132 38,6 km/h (5 Bft)
06.01.2012 19:24 4,5 C 55 % 0,0 l/m 25,2 km/h (4 Bft) W 260 43,5 km/h (6 Bft)
06.01.2012 19:25 4,5 C 55 % 0,0 l/m 27,7 km/h (4 Bft) NW 305 35,4 km/h (5 Bft)
06.01.2012 19:26 4,4 C 55 % 0,0 l/m 27,6 km/h (4 Bft) W-NW 293 37,0 km/h (5 Bft)
06.01.2012 19:27 4,4 C 55 % 0,0 l/m 23,5 km/h (4 Bft) W-NW 301 33,8 km/h (5 Bft)
06.01.2012 19:28 4,4 C 55 % 0,0 l/m 19,6 km/h (3 Bft) W-NW 293 37,0 km/h (5 Bft)
06.01.2012 19:29 4,4 C 56 % 0,0 l/m 27,1 km/h (4 Bft) W-NW 301 43,5 km/h (6 Bft)
06.01.2012 19:30 4,4 C 56 % 0,0 l/m 30,6 km/h (5 Bft) W-NW 293 45,1 km/h (6 Bft)
06.01.2012 19:31 4,4 C 56 % 0,0 l/m 26,4 km/h (4 Bft) W-SW 245 35,4 km/h (5 Bft)
06.01.2012 19:32 4,4 C 56 % 0,0 l/m 28,5 km/h (4 Bft) NW 314 51,5 km/h (7 Bft)
06.01.2012 19:33 4,4 C 56 % 0,0 l/m 27,7 km/h (4 Bft) W 278 45,1 km/h (6 Bft)
06.01.2012 19:34 4,4 C 56 % 0,0 l/m 37,0 km/h (5 Bft) W-NW 287 54,7 km/h (7 Bft)
06.01.2012 19:35 4,4 C 56 % 0,0 l/m 29,4 km/h (5 Bft) W-NW 285 43,5 km/h (6 Bft)
06.01.2012 19:36 4,4 C 56 % 0,0 l/m 25,2 km/h (4 Bft) W 266 46,7 km/h (6 Bft)
06.01.2012 19:37 4,4 C 57 % 0,0 l/m 31,3 km/h (5 Bft) W 260 40,2 km/h (6 Bft)
06.01.2012 19:38 4,4 C 57 % 0,0 l/m 30,8 km/h (5 Bft) W-NW 300 48,3 km/h (6 Bft)
06.01.2012 19:39 4,4 C 57 % 0,0 l/m 31,7 km/h (5 Bft) W-NW 291 48,3 km/h (6 Bft)
06.01.2012 19:40 4,4 C 58 % 0,0 l/m 25,5 km/h (4 Bft) W-NW 285 41,8 km/h (6 Bft)
06.01.2012 19:41 4,4 C 58 % 0,0 l/m 32,8 km/h (5 Bft) W 269 53,1 km/h (7 Bft)
06.01.2012 19:42 4,4 C 59 % 0,0 l/m 27,6 km/h (4 Bft) W-SW 253 41,8 km/h (6 Bft)
06.01.2012 19:43 4,4 C 59 % 0,0 l/m 20,7 km/h (4 Bft) W 264 43,5 km/h (6 Bft)
06.01.2012 19:44 4,4 C 60 % 0,0 l/m 30,4 km/h (5 Bft) W-NW 288 46,7 km/h (6 Bft)
06.01.2012 19:45 4,3 C 60 % 0,0 l/m 33,9 km/h (5 Bft) W-NW 297 45,1 km/h (6 Bft)
06.01.2012 19:46 4,4 C 60 % 0,0 l/m 28,8 km/h (4 Bft) NW 304 45,1 km/h (6 Bft)
06.01.2012 19:47 4,3 C 60 % 0,0 l/m 31,1 km/h (5 Bft) NW 325 40,2 km/h (6 Bft)
06.01.2012 19:48 4,3 C 60 % 0,0 l/m 39,7 km/h (6 Bft) W-NW 297 53,1 km/h (7 Bft)
06.01.2012 19:49 4,4 C 60 % 0,0 l/m 36,6 km/h (5 Bft) W-NW 282 43,5 km/h (6 Bft)
06.01.2012 19:50 4,4 C 60 % 0,0 l/m 26,2 km/h (4 Bft) W 281 43,5 km/h (6 Bft)
06.01.2012 19:51 4,4 C 60 % 0,0 l/m 34,9 km/h (5 Bft) W-NW 300 49,9 km/h (6 Bft)
06.01.2012 19:52 4,4 C 60 % 0,0 l/m 35,1 km/h (5 Bft) NW 321 46,7 km/h (6 Bft)
06.01.2012 19:53 4,3 C 60 % 0,0 l/m 25,3 km/h (4 Bft) NW 305 45,1 km/h (6 Bft)
06.01.2012 19:54 4,3 C 60 % 0,0 l/m 32,7 km/h (5 Bft) SW 226 38,6 km/h (5 Bft)
06.01.2012 19:55 4,3 C 60 % 0,0 l/m 27,0 km/h (4 Bft) NW 326 37,0 km/h (5 Bft)
06.01.2012 19:56 4,3 C 60 % 0,0 l/m 27,2 km/h (4 Bft) W-NW 293 41,8 km/h (6 Bft)
06.01.2012 19:57 4,3 C 60 % 0,0 l/m 23,8 km/h (4 Bft) W-NW 295 35,4 km/h (5 Bft)
06.01.2012 19:58 4,2 C 61 % 0,0 l/m 27,6 km/h (4 Bft) W-NW 289 38,6 km/h (5 Bft)
06.01.2012 19:59 4,2 C 61 % 0,0 l/m 25,7 km/h (4 Bft) W-NW 295 40,2 km/h (6 Bft)
06.01.2012 20:00 4,2 C 61 % 0,0 l/m 32,0 km/h (5 Bft) N 9 45,1 km/h (6 Bft)
06.01.2012 20:01 4,2 C 61 % 0,0 l/m 30,9 km/h (5 Bft) NW 311 49,9 km/h (6 Bft)
06.01.2012 20:02 4,2 C 61 % 0,0 l/m 27,7 km/h (4 Bft) W-NW 288 45,1 km/h (6 Bft)
06.01.2012 20:03 4,2 C 61 % 0,0 l/m 24,9 km/h (4 Bft) NW 312 37,0 km/h (5 Bft)
06.01.2012 20:04 4,2 C 61 % 0,0 l/m 20,3 km/h (4 Bft) NW 308 32,2 km/h (5 Bft)
06.01.2012 20:05 4,2 C 61 % 0,0 l/m 19,9 km/h (4 Bft) N-NW 345 32,2 km/h (5 Bft)
06.01.2012 20:06 4,2 C 61 % 0,0 l/m 19,4 km/h (3 Bft) NW 315 29,0 km/h (5 Bft)
06.01.2012 20:07 4,1 C 61 % 0,0 l/m 23,0 km/h (4 Bft) W-NW 300 37,0 km/h (5 Bft)
06.01.2012 20:08 4,1 C 62 % 0,0 l/m 23,4 km/h (4 Bft) W-NW 295 35,4 km/h (5 Bft)
06.01.2012 20:09 4,1 C 62 % 0,0 l/m 22,3 km/h (4 Bft) SW 226 38,6 km/h (5 Bft)
06.01.2012 20:10 4,1 C 62 % 0,0 l/m 18,4 km/h (3 Bft) NW 308 35,4 km/h (5 Bft)
06.01.2012 20:11 4,1 C 62 % 0,0 l/m 25,8 km/h (4 Bft) W-NW 295 37,0 km/h (5 Bft)
06.01.2012 20:12 4,1 C 62 % 0,0 l/m 23,2 km/h (4 Bft) W-NW 286 35,4 km/h (5 Bft)
06.01.2012 20:13 4,1 C 62 % 0,0 l/m 21,8 km/h (4 Bft) W 271 33,8 km/h (5 Bft)
06.01.2012 20:14 4,1 C 62 % 0,0 l/m 26,2 km/h (4 Bft) W 277 35,4 km/h (5 Bft)
06.01.2012 20:15 4,1 C 62 % 0,0 l/m 26,0 km/h (4 Bft) W 260 32,2 km/h (5 Bft)
06.01.2012 20:16 4,1 C 62 % 0,0 l/m 20,0 km/h (4 Bft) NW 314 33,8 km/h (5 Bft)
06.01.2012 20:17 4,1 C 62 % 0,0 l/m 19,9 km/h (4 Bft) W-NW 296 33,8 km/h (5 Bft)
06.01.2012 20:18 4,1 C 63 % 0,0 l/m 18,0 km/h (3 Bft) W-NW 284 25,7 km/h (4 Bft)
06.01.2012 20:19 4,0 C 63 % 0,0 l/m 20,8 km/h (4 Bft) W-NW 295 29,0 km/h (5 Bft)
06.01.2012 20:20 4,0 C 63 % 0,0 l/m 20,8 km/h (4 Bft) W 273 32,2 km/h (5 Bft)
06.01.2012 20:21 4,0 C 63 % 0,0 l/m 29,7 km/h (5 Bft) N-NW 337 49,9 km/h (6 Bft)
06.01.2012 20:22 4,0 C 63 % 0,0 l/m 20,6 km/h (4 Bft) NW 314 35,4 km/h (5 Bft)
06.01.2012 20:23 4,0 C 63 % 0,0 l/m 24,4 km/h (4 Bft) W-SW 240 37,0 km/h (5 Bft)
06.01.2012 20:24 4,0 C 63 % 0,0 l/m 24,6 km/h (4 Bft) W-SW 248 35,4 km/h (5 Bft)
06.01.2012 20:25 4,0 C 63 % 0,0 l/m 19,6 km/h (3 Bft) W-SW 239 40,2 km/h (6 Bft)
06.01.2012 20:26 4,0 C 63 % 0,0 l/m 20,0 km/h (4 Bft) W-NW 300 37,0 km/h (5 Bft)
06.01.2012 20:27 4,0 C 64 % 0,0 l/m 13,9 km/h (3 Bft) W 271 24,1 km/h (4 Bft)
06.01.2012 20:28 4,0 C 64 % 0,0 l/m 24,5 km/h (4 Bft) W-NW 300 41,8 km/h (6 Bft)
06.01.2012 20:29 4,0 C 64 % 0,0 l/m 22,0 km/h (4 Bft) W-NW 297 38,6 km/h (5 Bft)
06.01.2012 20:30 4,0 C 64 % 0,0 l/m 17,2 km/h (3 Bft) W-NW 297 29,0 km/h (5 Bft)
06.01.2012 20:31 4,0 C 64 % 0,0 l/m 23,7 km/h (4 Bft) W-SW 256 37,0 km/h (5 Bft)
06.01.2012 20:32 3,9 C 64 % 0,0 l/m 17,6 km/h (3 Bft) W 267 30,6 km/h (5 Bft)
06.01.2012 20:33 3,9 C 64 % 0,0 l/m 26,1 km/h (4 Bft) NW 305 33,8 km/h (5 Bft)
06.01.2012 20:34 3,9 C 64 % 0,0 l/m 21,7 km/h (4 Bft) W-NW 294 32,2 km/h (5 Bft)
06.01.2012 20:35 3,9 C 64 % 0,0 l/m 32,9 km/h (5 Bft) N-NW 335 46,7 km/h (6 Bft)
06.01.2012 20:36 3,9 C 64 % 0,0 l/m 21,5 km/h (4 Bft) NW 319 35,4 km/h (5 Bft)
06.01.2012 20:37 3,9 C 64 % 0,0 l/m 20,5 km/h (4 Bft) NW 312 30,6 km/h (5 Bft)
06.01.2012 20:38 3,9 C 64 % 0,0 l/m 15,4 km/h (3 Bft) SW 228 27,4 km/h (4 Bft)
06.01.2012 20:39 3,9 C 64 % 0,0 l/m 21,6 km/h (4 Bft) W-NW 300 35,4 km/h (5 Bft)
06.01.2012 20:40 3,9 C 64 % 0,0 l/m 31,0 km/h (5 Bft) W-SW 253 48,3 km/h (6 Bft)
06.01.2012 20:41 3,9 C 64 % 0,0 l/m 22,0 km/h (4 Bft) NO 36 33,8 km/h (5 Bft)
06.01.2012 20:42 3,9 C 64 % 0,0 l/m 18,2 km/h (3 Bft) W 276 27,4 km/h (4 Bft)
06.01.2012 20:43 3,9 C 64 % 0,0 l/m 22,1 km/h (4 Bft) W-NW 288 37,0 km/h (5 Bft)
06.01.2012 20:44 3,9 C 64 % 0,0 l/m 21,5 km/h (4 Bft) N-NW 345 32,2 km/h (5 Bft)
06.01.2012 20:45 3,9 C 64 % 0,0 l/m 25,3 km/h (4 Bft) W-NW 297 38,6 km/h (5 Bft)
06.01.2012 20:46 3,9 C 64 % 0,0 l/m 29,2 km/h (5 Bft) W-NW 299 43,5 km/h (6 Bft)
06.01.2012 20:47 3,9 C 64 % 0,0 l/m 18,6 km/h (3 Bft) W-NW 302 38,6 km/h (5 Bft)
06.01.2012 20:48 3,9 C 64 % 0,0 l/m 22,4 km/h (4 Bft) NW 308 41,8 km/h (6 Bft)
06.01.2012 20:49 3,9 C 64 % 0,0 l/m 22,1 km/h (4 Bft) W-NW 295 41,8 km/h (6 Bft)
06.01.2012 20:50 3,9 C 64 % 0,0 l/m 24,1 km/h (4 Bft) W-NW 290 38,6 km/h (5 Bft)
06.01.2012 20:51 3,9 C 64 % 0,0 l/m 27,8 km/h (4 Bft) W 266 37,0 km/h (5 Bft)
06.01.2012 20:52 3,9 C 64 % 0,0 l/m 18,9 km/h (3 Bft) W-SW 239 29,0 km/h (5 Bft)
06.01.2012 20:53 3,9 C 64 % 0,0 l/m 19,7 km/h (3 Bft) NW 304 27,4 km/h (4 Bft)
06.01.2012 20:54 3,9 C 64 % 0,0 l/m 18,3 km/h (3 Bft) W-SW 252 29,0 km/h (5 Bft)
06.01.2012 20:55 3,9 C 64 % 0,0 l/m 17,2 km/h (3 Bft) W 278 32,2 km/h (5 Bft)
06.01.2012 20:56 3,8 C 64 % 0,0 l/m 13,6 km/h (3 Bft) N 354 24,1 km/h (4 Bft)
06.01.2012 20:57 3,8 C 64 % 0,0 l/m 13,5 km/h (3 Bft) N-NW 341 19,3 km/h (3 Bft)
06.01.2012 20:58 3,8 C 64 % 0,0 l/m 15,0 km/h (3 Bft) NW 310 29,0 km/h (5 Bft)
06.01.2012 20:59 3,8 C 64 % 0,0 l/m 13,7 km/h (3 Bft) W 271 19,3 km/h (3 Bft)
06.01.2012 21:00 3,8 C 64 % 0,0 l/m 14,3 km/h (3 Bft) N-NO 16 25,7 km/h (4 Bft)
06.01.2012 21:01 3,8 C 64 % 0,0 l/m 15,7 km/h (3 Bft) N-NW 336 25,7 km/h (4 Bft)
06.01.2012 21:02 3,8 C 63 % 0,0 l/m 28,1 km/h (4 Bft) W-NW 285 48,3 km/h (6 Bft)
06.01.2012 21:03 3,8 C 63 % 0,0 l/m 20,3 km/h (4 Bft) NW 304 33,8 km/h (5 Bft)
06.01.2012 21:04 3,8 C 63 % 0,0 l/m 13,7 km/h (3 Bft) W 267 24,1 km/h (4 Bft)
06.01.2012 21:05 3,8 C 63 % 0,0 l/m 13,3 km/h (3 Bft) W-NW 298 25,7 km/h (4 Bft)
06.01.2012 21:06 3,8 C 63 % 0,0 l/m 10,4 km/h (2 Bft) W 274 16,1 km/h (3 Bft)
06.01.2012 21:07 3,8 C 63 % 0,0 l/m 26,7 km/h (4 Bft) W-NW 295 37,0 km/h (5 Bft)
06.01.2012 21:08 3,8 C 63 % 0,0 l/m 18,6 km/h (3 Bft) NW 323 35,4 km/h (5 Bft)
06.01.2012 21:09 3,9 C 63 % 0,0 l/m 14,0 km/h (3 Bft) W-NW 287 25,7 km/h (4 Bft)
06.01.2012 21:10 3,8 C 63 % 0,0 l/m 13,9 km/h (3 Bft) W-NW 300 19,3 km/h (3 Bft)
06.01.2012 21:11 3,8 C 63 % 0,0 l/m 17,8 km/h (3 Bft) W-NW 296 27,4 km/h (4 Bft)
06.01.2012 21:12 3,8 C 63 % 0,0 l/m 15,8 km/h (3 Bft) O-NO 61 29,0 km/h (5 Bft)
06.01.2012 21:13 3,8 C 63 % 0,0 l/m 10,5 km/h (2 Bft) N-NW 342 17,7 km/h (3 Bft)
06.01.2012 21:14 3,8 C 63 % 0,0 l/m 13,7 km/h (3 Bft) W-NW 295 24,1 km/h (4 Bft)
06.01.2012 21:15 3,8 C 63 % 0,0 l/m 15,9 km/h (3 Bft) NW 315 20,9 km/h (4 Bft)
06.01.2012 21:16 3,8 C 63 % 0,0 l/m 19,5 km/h (3 Bft) NW 321 27,4 km/h (4 Bft)
06.01.2012 21:17 3,8 C 63 % 0,0 l/m 17,6 km/h (3 Bft) N-NW 332 27,4 km/h (4 Bft)
06.01.2012 21:18 3,7 C 63 % 0,0 l/m 13,0 km/h (3 Bft) W-SW 250 17,7 km/h (3 Bft)
06.01.2012 21:19 3,7 C 63 % 0,0 l/m 16,6 km/h (3 Bft) W 267 37,0 km/h (5 Bft)
06.01.2012 21:20 3,8 C 63 % 0,0 l/m 18,1 km/h (3 Bft) NW 311 25,7 km/h (4 Bft)
06.01.2012 21:21 3,8 C 63 % 0,0 l/m 20,4 km/h (4 Bft) NW 321 30,6 km/h (5 Bft)
06.01.2012 21:22 3,8 C 63 % 0,0 l/m 13,0 km/h (3 Bft) W-NW 296 17,7 km/h (3 Bft)
06.01.2012 21:23 3,8 C 63 % 0,0 l/m 10,7 km/h (2 Bft) W-NW 284 19,3 km/h (3 Bft)
06.01.2012 21:24 3,8 C 63 % 0,0 l/m 25,2 km/h (4 Bft) W-NW 290 33,8 km/h (5 Bft)
06.01.2012 21:25 3,8 C 62 % 0,0 l/m 21,1 km/h (4 Bft) W 265 29,0 km/h (5 Bft)
06.01.2012 21:26 3,8 C 62 % 0,0 l/m 38,8 km/h (5 Bft) W 266 54,7 km/h (7 Bft)
06.01.2012 21:27 3,9 C 61 % 0,0 l/m 28,2 km/h (4 Bft) NW 312 46,7 km/h (6 Bft)
06.01.2012 21:28 3,9 C 62 % 0,0 l/m 22,7 km/h (4 Bft) W-NW 301 40,2 km/h (6 Bft)
06.01.2012 21:29 3,9 C 62 % 0,0 l/m 20,9 km/h (4 Bft) W-NW 288 30,6 km/h (5 Bft)
06.01.2012 21:30 3,9 C 62 % 0,0 l/m 28,0 km/h (4 Bft) N-NO 12 45,1 km/h (6 Bft)
06.01.2012 21:31 3,9 C 61 % 0,0 l/m 38,3 km/h (5 Bft) W-NW 297 54,7 km/h (7 Bft)
06.01.2012 21:32 4,0 C 61 % 0,0 l/m 24,1 km/h (4 Bft) NW 308 49,9 km/h (6 Bft)
06.01.2012 21:33 4,1 C 61 % 0,0 l/m 25,3 km/h (4 Bft) N 357 38,6 km/h (5 Bft)
06.01.2012 21:34 4,1 C 61 % 0,0 l/m 27,4 km/h (4 Bft) W 270 41,8 km/h (6 Bft)
06.01.2012 21:35 4,0 C 61 % 0,0 l/m 25,0 km/h (4 Bft) NW 308 48,3 km/h (6 Bft)
06.01.2012 21:36 4,1 C 61 % 0,0 l/m 25,7 km/h (4 Bft) W-NW 302 41,8 km/h (6 Bft)
06.01.2012 21:37 4,1 C 61 % 0,0 l/m 17,3 km/h (3 Bft) W-NW 288 33,8 km/h (5 Bft)
06.01.2012 21:38 4,1 C 61 % 0,0 l/m 21,5 km/h (4 Bft) W-NW 282 40,2 km/h (6 Bft)
06.01.2012 21:39 4,1 C 60 % 0,0 l/m 33,1 km/h (5 Bft) SW 232 64,4 km/h (8 Bft)
06.01.2012 21:40 4,1 C 61 % 0,0 l/m 25,8 km/h (4 Bft) W-SW 238 46,7 km/h (6 Bft)
06.01.2012 21:41 4,1 C 60 % 0,0 l/m 28,2 km/h (4 Bft) N-NW 332 41,8 km/h (6 Bft)
06.01.2012 21:42 4,1 C 60 % 0,0 l/m 19,2 km/h (3 Bft) NW 321 27,4 km/h (4 Bft)
06.01.2012 21:43 4,1 C 60 % 0,0 l/m 18,6 km/h (3 Bft) S 190 27,4 km/h (4 Bft)
06.01.2012 21:44 4,1 C 60 % 0,0 l/m 31,9 km/h (5 Bft) W-SW 238 49,9 km/h (6 Bft)
06.01.2012 21:45 4,2 C 59 % 0,0 l/m 31,2 km/h (5 Bft) W-NW 297 43,5 km/h (6 Bft)
06.01.2012 21:46 4,2 C 60 % 0,0 l/m 22,7 km/h (4 Bft) W-NW 300 41,8 km/h (6 Bft)
06.01.2012 21:47 4,2 C 60 % 0,0 l/m 27,4 km/h (4 Bft) W-NW 291 46,7 km/h (6 Bft)
06.01.2012 21:48 4,2 C 60 % 0,0 l/m 25,6 km/h (4 Bft) W-NW 296 35,4 km/h (5 Bft)
06.01.2012 21:49 4,2 C 60 % 0,0 l/m 24,6 km/h (4 Bft) W 271 38,6 km/h (5 Bft)
06.01.2012 21:50 4,2 C 60 % 0,0 l/m 35,2 km/h (5 Bft) W-NW 298 66,0 km/h (8 Bft)
06.01.2012 21:51 4,2 C 59 % 0,0 l/m 31,9 km/h (5 Bft) W 266 45,1 km/h (6 Bft)
06.01.2012 21:52 4,2 C 59 % 0,0 l/m 21,8 km/h (4 Bft) W-NW 293 30,6 km/h (5 Bft)
06.01.2012 21:53 4,2 C 59 % 0,0 l/m 25,9 km/h (4 Bft) N-NW 332 35,4 km/h (5 Bft)
06.01.2012 21:54 4,2 C 59 % 0,0 l/m 22,9 km/h (4 Bft) N-NO 15 40,2 km/h (6 Bft)
06.01.2012 21:55 4,2 C 59 % 0,0 l/m 23,1 km/h (4 Bft) W 280 41,8 km/h (6 Bft)
06.01.2012 21:56 4,2 C 59 % 0,0 l/m 32,6 km/h (5 Bft) W-NW 294 46,7 km/h (6 Bft)
06.01.2012 21:57 4,2 C 59 % 0,0 l/m 28,5 km/h (4 Bft) W-NW 282 51,5 km/h (7 Bft)
06.01.2012 21:58 4,2 C 59 % 0,0 l/m 17,9 km/h (3 Bft) W-NW 286 40,2 km/h (6 Bft)
06.01.2012 21:59 4,2 C 59 % 0,0 l/m 31,5 km/h (5 Bft) NW 323 48,3 km/h (6 Bft)
06.01.2012 22:00 4,2 C 59 % 0,0 l/m 28,2 km/h (4 Bft) W-SW 246 53,1 km/h (7 Bft)
06.01.2012 22:01 4,2 C 59 % 0,0 l/m 22,9 km/h (4 Bft) W 265 38,6 km/h (5 Bft)
06.01.2012 22:02 4,2 C 59 % 0,0 l/m 33,5 km/h (5 Bft) NW 308 53,1 km/h (7 Bft)
06.01.2012 22:03 4,3 C 59 % 0,0 l/m 24,7 km/h (4 Bft) NW 309 37,0 km/h (5 Bft)
06.01.2012 22:04 4,2 C 59 % 0,0 l/m 31,3 km/h (5 Bft) W-NW 298 51,5 km/h (7 Bft)
06.01.2012 22:05 4,2 C 59 % 0,0 l/m 19,4 km/h (3 Bft) W 261 29,0 km/h (5 Bft)
06.01.2012 22:06 4,2 C 59 % 0,0 l/m 21,7 km/h (4 Bft) W 280 46,7 km/h (6 Bft)
06.01.2012 22:07 4,2 C 59 % 0,0 l/m 26,2 km/h (4 Bft) NW 313 41,8 km/h (6 Bft)
06.01.2012 22:08 4,2 C 59 % 0,0 l/m 32,4 km/h (5 Bft) W 276 43,5 km/h (6 Bft)
06.01.2012 22:09 4,2 C 59 % 0,0 l/m 17,6 km/h (3 Bft) NW 316 29,0 km/h (5 Bft)
06.01.2012 22:10 4,2 C 59 % 0,0 l/m 25,9 km/h (4 Bft) NW 312 45,1 km/h (6 Bft)
06.01.2012 22:11 4,2 C 59 % 0,0 l/m 29,4 km/h (5 Bft) W 265 38,6 km/h (5 Bft)
06.01.2012 22:12 4,2 C 59 % 0,0 l/m 29,7 km/h (5 Bft) W-NW 287 46,7 km/h (6 Bft)
06.01.2012 22:13 4,2 C 59 % 0,0 l/m 29,2 km/h (5 Bft) NW 325 43,5 km/h (6 Bft)
06.01.2012 22:14 4,2 C 59 % 0,0 l/m 29,0 km/h (5 Bft) W-NW 302 49,9 km/h (6 Bft)
06.01.2012 22:15 4,2 C 59 % 0,0 l/m 25,1 km/h (4 Bft) NW 308 53,1 km/h (7 Bft)
06.01.2012 22:16 4,2 C 59 % 0,0 l/m 28,0 km/h (4 Bft) W-NW 287 43,5 km/h (6 Bft)
06.01.2012 22:17 4,2 C 59 % 0,0 l/m 31,0 km/h (5 Bft) NW 312 51,5 km/h (7 Bft)
06.01.2012 22:18 4,2 C 59 % 0,0 l/m 30,4 km/h (5 Bft) NW 308 49,9 km/h (6 Bft)
06.01.2012 22:19 4,2 C 59 % 0,0 l/m 32,6 km/h (5 Bft) W-SW 237 54,7 km/h (7 Bft)
06.01.2012 22:20 4,2 C 59 % 0,0 l/m 27,5 km/h (4 Bft) W-NW 302 51,5 km/h (7 Bft)
06.01.2012 22:21 4,3 C 58 % 0,0 l/m 30,2 km/h (5 Bft) NW 315 48,3 km/h (6 Bft)
06.01.2012 22:22 4,3 C 59 % 0,0 l/m 25,8 km/h (4 Bft) S 176 38,6 km/h (5 Bft)
06.01.2012 22:23 4,3 C 59 % 0,0 l/m 31,6 km/h (5 Bft) W-NW 295 45,1 km/h (6 Bft)
06.01.2012 22:24 4,3 C 59 % 0,0 l/m 32,1 km/h (5 Bft) W 269 49,9 km/h (6 Bft)
06.01.2012 22:25 4,3 C 59 % 0,0 l/m 29,3 km/h (5 Bft) NW 305 45,1 km/h (6 Bft)
06.01.2012 22:26 4,3 C 59 % 0,0 l/m 24,0 km/h (4 Bft) NO 53 38,6 km/h (5 Bft)
06.01.2012 22:27 4,3 C 59 % 0,0 l/m 18,4 km/h (3 Bft) NW 308 35,4 km/h (5 Bft)
06.01.2012 22:28 4,3 C 59 % 0,0 l/m 26,7 km/h (4 Bft) W-NW 295 37,0 km/h (5 Bft)
06.01.2012 22:29 4,2 C 59 % 0,0 l/m 25,5 km/h (4 Bft) NW 316 35,4 km/h (5 Bft)
06.01.2012 22:30 4,3 C 59 % 0,0 l/m 34,5 km/h (5 Bft) W-NW 298 56,3 km/h (7 Bft)
06.01.2012 22:31 4,3 C 59 % 0,0 l/m 32,3 km/h (5 Bft) NW 305 48,3 km/h (6 Bft)
06.01.2012 22:32 4,3 C 59 % 0,0 l/m 25,0 km/h (4 Bft) W-SW 250 33,8 km/h (5 Bft)
06.01.2012 22:33 4,3 C 59 % 0,0 l/m 25,2 km/h (4 Bft) NW 305 43,5 km/h (6 Bft)
06.01.2012 22:34 4,3 C 59 % 0,0 l/m 21,6 km/h (4 Bft) W-NW 300 33,8 km/h (5 Bft)
06.01.2012 22:35 4,3 C 59 % 0,0 l/m 21,6 km/h (4 Bft) W 259 32,2 km/h (5 Bft)
06.01.2012 22:36 4,3 C 59 % 0,0 l/m 25,2 km/h (4 Bft) W-NW 285 33,8 km/h (5 Bft)
06.01.2012 22:37 4,3 C 59 % 0,0 l/m 19,2 km/h (3 Bft) W-SW 241 29,0 km/h (5 Bft)
06.01.2012 22:38 4,3 C 59 % 0,0 l/m 23,3 km/h (4 Bft) S-SW 205 35,4 km/h (5 Bft)
06.01.2012 22:39 4,3 C 59 % 0,0 l/m 22,0 km/h (4 Bft) W-NW 297 30,6 km/h (5 Bft)
06.01.2012 22:40 4,3 C 59 % 0,0 l/m 22,1 km/h (4 Bft) W-NW 302 37,0 km/h (5 Bft)
06.01.2012 22:41 4,3 C 59 % 0,0 l/m 30,9 km/h (5 Bft) NW 308 41,8 km/h (6 Bft)
06.01.2012 22:42 4,4 C 59 % 0,0 l/m 24,6 km/h (4 Bft) W 268 32,2 km/h (5 Bft)
06.01.2012 22:43 4,4 C 59 % 0,0 l/m 22,6 km/h (4 Bft) NW 314 37,0 km/h (5 Bft)
06.01.2012 22:44 4,4 C 59 % 0,0 l/m 31,5 km/h (5 Bft) W 271 53,1 km/h (7 Bft)
06.01.2012 22:45 4,4 C 58 % 0,0 l/m 28,8 km/h (4 Bft) W-SW 252 38,6 km/h (5 Bft)
06.01.2012 22:46 4,4 C 59 % 0,0 l/m 26,8 km/h (4 Bft) W-NW 288 46,7 km/h (6 Bft)
06.01.2012 22:47 4,4 C 59 % 0,0 l/m 28,6 km/h (4 Bft) W-NW 301 38,6 km/h (5 Bft)
06.01.2012 22:48 4,4 C 58 % 0,0 l/m 27,5 km/h (4 Bft) NW 308 38,6 km/h (5 Bft)
06.01.2012 22:49 4,4 C 58 % 0,0 l/m 27,6 km/h (4 Bft) W 277 40,2 km/h (6 Bft)
06.01.2012 22:50 4,4 C 58 % 0,0 l/m 22,0 km/h (4 Bft) W-NW 290 30,6 km/h (5 Bft)
06.01.2012 22:51 4,4 C 58 % 0,0 l/m 18,9 km/h (3 Bft) W-NW 293 29,0 km/h (5 Bft)
06.01.2012 22:52 4,4 C 59 % 0,0 l/m 19,7 km/h (3 Bft) W 269 29,0 km/h (5 Bft)
06.01.2012 22:53 4,4 C 59 % 0,0 l/m 23,3 km/h (4 Bft) O-NO 58 32,2 km/h (5 Bft)
06.01.2012 22:54 4,4 C 58 % 0,0 l/m 30,4 km/h (5 Bft) W-NW 284 48,3 km/h (6 Bft)
06.01.2012 22:55 4,4 C 58 % 0,0 l/m 23,7 km/h (4 Bft) W-NW 284 33,8 km/h (5 Bft)
06.01.2012 22:56 4,4 C 58 % 0,0 l/m 26,6 km/h (4 Bft) W-NW 299 35,4 km/h (5 Bft)
06.01.2012 22:57 4,4 C 58 % 0,0 l/m 29,3 km/h (5 Bft) W-SW 242 40,2 km/h (6 Bft)
06.01.2012 22:58 4,4 C 58 % 0,0 l/m 32,8 km/h (5 Bft) W-NW 294 49,9 km/h (6 Bft)
06.01.2012 22:59 4,4 C 58 % 0,0 l/m 24,0 km/h (4 Bft) W-NW 296 37,0 km/h (5 Bft)
06.01.2012 23:00 4,4 C 58 % 0,0 l/m 22,4 km/h (4 Bft) W-NW 293 35,4 km/h (5 Bft)
06.01.2012 23:01 4,4 C 58 % 0,0 l/m 21,3 km/h (4 Bft) W-NW 302 33,8 km/h (5 Bft)
06.01.2012 23:02 4,4 C 58 % 0,0 l/m 24,7 km/h (4 Bft) W-NW 301 33,8 km/h (5 Bft)
06.01.2012 23:03 4,4 C 58 % 0,0 l/m 29,7 km/h (5 Bft) W-SW 248 38,6 km/h (5 Bft)
06.01.2012 23:04 4,4 C 58 % 0,0 l/m 19,3 km/h (3 Bft) W 278 33,8 km/h (5 Bft)
06.01.2012 23:05 4,3 C 58 % 0,0 l/m 15,4 km/h (3 Bft) NW 314 30,6 km/h (5 Bft)
06.01.2012 23:06 4,3 C 59 % 0,0 l/m 24,6 km/h (4 Bft) W-NW 302 32,2 km/h (5 Bft)
06.01.2012 23:07 4,3 C 59 % 0,0 l/m 20,3 km/h (4 Bft) W-NW 297 29,0 km/h (5 Bft)
06.01.2012 23:08 4,3 C 59 % 0,0 l/m 15,0 km/h (3 Bft) NW 321 22,5 km/h (4 Bft)
06.01.2012 23:09 4,2 C 59 % 0,0 l/m 17,2 km/h (3 Bft) W-NW 297 29,0 km/h (5 Bft)
06.01.2012 23:10 4,2 C 59 % 0,0 l/m 16,8 km/h (3 Bft) N 1 24,1 km/h (4 Bft)
06.01.2012 23:11 4,2 C 59 % 0,0 l/m 22,7 km/h (4 Bft) W 260 33,8 km/h (5 Bft)
06.01.2012 23:12 4,2 C 59 % 0,0 l/m 27,0 km/h (4 Bft) W 277 35,4 km/h (5 Bft)
06.01.2012 23:13 4,2 C 60 % 0,0 l/m 17,8 km/h (3 Bft) W 263 29,0 km/h (5 Bft)
06.01.2012 23:14 4,2 C 60 % 0,0 l/m 18,6 km/h (3 Bft) W-NW 282 32,2 km/h (5 Bft)
06.01.2012 23:15 4,1 C 60 % 0,0 l/m 16,3 km/h (3 Bft) N-NW 338 25,7 km/h (4 Bft)
06.01.2012 23:16 4,1 C 60 % 0,0 l/m 26,9 km/h (4 Bft) W 271 33,8 km/h (5 Bft)
06.01.2012 23:17 4,2 C 60 % 0,0 l/m 22,6 km/h (4 Bft) W-SW 245 32,2 km/h (5 Bft)
06.01.2012 23:18 4,2 C 60 % 0,0 l/m 24,0 km/h (4 Bft) N-NW 328 35,4 km/h (5 Bft)
06.01.2012 23:19 4,2 C 60 % 0,0 l/m 19,2 km/h (3 Bft) W-SW 238 32,2 km/h (5 Bft)
06.01.2012 23:20 4,2 C 60 % 0,0 l/m 28,0 km/h (4 Bft) NW 308 40,2 km/h (6 Bft)
06.01.2012 23:21 4,2 C 60 % 0,0 l/m 21,1 km/h (4 Bft) N-NO 18 38,6 km/h (5 Bft)
06.01.2012 23:22 4,2 C 60 % 0,0 l/m 21,6 km/h (4 Bft) NW 307 33,8 km/h (5 Bft)
06.01.2012 23:23 4,2 C 61 % 0,0 l/m 17,6 km/h (3 Bft) W-NW 293 27,4 km/h (4 Bft)
06.01.2012 23:24 4,2 C 61 % 0,0 l/m 25,7 km/h (4 Bft) W-NW 294 37,0 km/h (5 Bft)
06.01.2012 23:25 4,2 C 61 % 0,0 l/m 23,3 km/h (4 Bft) W-NW 298 32,2 km/h (5 Bft)
06.01.2012 23:26 4,3 C 61 % 0,0 l/m 24,5 km/h (4 Bft) W-SW 257 37,0 km/h (5 Bft)
06.01.2012 23:27 4,3 C 60 % 0,0 l/m 19,7 km/h (3 Bft) W-NW 302 32,2 km/h (5 Bft)
06.01.2012 23:28 4,3 C 60 % 0,0 l/m 24,0 km/h (4 Bft) W 271 35,4 km/h (5 Bft)
06.01.2012 23:29 4,3 C 60 % 0,0 l/m 25,0 km/h (4 Bft) W 270 33,8 km/h (5 Bft)
06.01.2012 23:30 4,3 C 61 % 0,0 l/m 19,2 km/h (3 Bft) W-NW 291 38,6 km/h (5 Bft)
06.01.2012 23:31 4,3 C 61 % 0,0 l/m 20,9 km/h (4 Bft) W-NW 293 49,9 km/h (6 Bft)
06.01.2012 23:32 4,3 C 61 % 0,0 l/m 24,5 km/h (4 Bft) W-NW 296 40,2 km/h (6 Bft)
06.01.2012 23:33 4,3 C 61 % 0,0 l/m 26,3 km/h (4 Bft) W-NW 298 37,0 km/h (5 Bft)
06.01.2012 23:34 4,3 C 61 % 0,0 l/m 22,9 km/h (4 Bft) SW 217 29,0 km/h (5 Bft)
06.01.2012 23:35 4,3 C 61 % 0,0 l/m 25,7 km/h (4 Bft) NW 314 35,4 km/h (5 Bft)
06.01.2012 23:36 4,3 C 61 % 0,0 l/m 21,6 km/h (4 Bft) S 179 30,6 km/h (5 Bft)
06.01.2012 23:37 4,2 C 61 % 0,0 l/m 19,6 km/h (3 Bft) W-NW 291 35,4 km/h (5 Bft)
06.01.2012 23:38 4,3 C 61 % 0,0 l/m 17,1 km/h (3 Bft) W-NW 297 25,7 km/h (4 Bft)
06.01.2012 23:39 4,3 C 61 % 0,0 l/m 20,5 km/h (4 Bft) N 355 29,0 km/h (5 Bft)
06.01.2012 23:40 4,3 C 61 % 0,0 l/m 18,1 km/h (3 Bft) W 269 33,8 km/h (5 Bft)
06.01.2012 23:41 4,3 C 61 % 0,0 l/m 23,0 km/h (4 Bft) W-NW 298 37,0 km/h (5 Bft)
06.01.2012 23:42 4,3 C 61 % 0,0 l/m 29,6 km/h (5 Bft) W 273 41,8 km/h (6 Bft)
06.01.2012 23:43 4,3 C 61 % 0,0 l/m 24,1 km/h (4 Bft) W-NW 285 37,0 km/h (5 Bft)
06.01.2012 23:44 4,3 C 61 % 0,0 l/m 26,2 km/h (4 Bft) W 278 45,1 km/h (6 Bft)
06.01.2012 23:45 4,3 C 61 % 0,0 l/m 24,7 km/h (4 Bft) N-NW 347 38,6 km/h (5 Bft)
06.01.2012 23:46 4,3 C 61 % 0,0 l/m 28,1 km/h (4 Bft) W-NW 284 35,4 km/h (5 Bft)
06.01.2012 23:47 4,3 C 61 % 0,0 l/m 25,3 km/h (4 Bft) NW 306 32,2 km/h (5 Bft)
06.01.2012 23:48 4,3 C 60 % 0,0 l/m 28,6 km/h (4 Bft) NW 311 41,8 km/h (6 Bft)
06.01.2012 23:49 4,3 C 60 % 0,0 l/m 28,4 km/h (4 Bft) W-SW 246 38,6 km/h (5 Bft)
06.01.2012 23:50 4,3 C 60 % 0,0 l/m 25,3 km/h (4 Bft) W-NW 293 37,0 km/h (5 Bft)
06.01.2012 23:51 4,3 C 60 % 0,0 l/m 23,7 km/h (4 Bft) W 276 33,8 km/h (5 Bft)
06.01.2012 23:52 4,3 C 60 % 0,0 l/m 18,0 km/h (3 Bft) N-NO 20 35,4 km/h (5 Bft)
06.01.2012 23:54 4,3 C 60 % 0,0 l/m 22,8 km/h (4 Bft) NW 305 35,4 km/h (5 Bft)
06.01.2012 23:55 4,3 C 61 % 0,0 l/m 13,9 km/h (3 Bft) N-NW 331 25,7 km/h (4 Bft)
06.01.2012 23:56 4,2 C 61 % 0,0 l/m 16,6 km/h (3 Bft) W-NW 290 32,2 km/h (5 Bft)
06.01.2012 23:57 4,2 C 61 % 0,0 l/m 15,1 km/h (3 Bft) W 274 24,1 km/h (4 Bft)
06.01.2012 23:58 4,2 C 61 % 0,0 l/m 27,2 km/h (4 Bft) N-NW 330 45,1 km/h (6 Bft)
06.01.2012 23:59 4,2 C 60 % 0,0 l/m 22,9 km/h (4 Bft) SW 233 35,4 km/h (5 Bft)
_ Min-Zeit 21:16 17:49 - 03:40 - - 03:28
Minimum _ 3,7 C 50 % - 7,7 km/h (2 Bft) - - 14,5 km/h (3 Bft)
_ Max-Zeit 11:57 02:57 00:00 13:51 - - 11:24
Maximum _ 6,5 C 71 % 0,0 l/m 53,7 km/h
W-NW (7 Bft)
- - 82,1 km/h
W-SW (9 Bft)
Durchschnitt _ 5,2 C 61 % #0,0 l/m 26,7 km/h (4 Bft) W-NW - 42,9 km/h (6 Bft)